<?xml version="1.0" encoding="UTF-8" standalone="no" ?>
<gpx xmlns="http://www.topografix.com/GPX/1/1" xmlns:xsi="http://www.w3.org/2001/XMLSchema-instance" xsi:schemaLocation="http://www.topografix.com/GPX/1/1 http://www.topografix.com/GPX/1/1/gpx.xsd" version="1.1" creator="VisuGPX - https://www.visugpx.com">
  <metadata>
    <name>BERSON 29 10 2016</name>
  </metadata>
  <trk>
    <name><![CDATA[BERSON 29 10 2016]]></name>
    <trkseg>
      <trkpt lat="44.96634" lon="-0.30623">
        <ele>58.78</ele>
        <time>2016-10-08T07:01:06Z</time>
      </trkpt>
      <trkpt lat="44.96632" lon="-0.30623">
        <ele>58.78</ele>
        <time>2016-10-08T07:01:07Z</time>
      </trkpt>
      <trkpt lat="44.96629" lon="-0.30623">
        <ele>49.65</ele>
        <time>2016-10-08T07:01:10Z</time>
      </trkpt>
      <trkpt lat="44.96628" lon="-0.30623">
        <ele>49.65</ele>
        <time>2016-10-08T07:01:11Z</time>
      </trkpt>
      <trkpt lat="44.96613" lon="-0.3062">
        <ele>48.2</ele>
        <time>2016-10-08T07:01:22Z</time>
      </trkpt>
      <trkpt lat="44.9659" lon="-0.30606">
        <ele>46.28</ele>
        <time>2016-10-08T07:01:41Z</time>
      </trkpt>
      <trkpt lat="44.96575" lon="-0.30591">
        <ele>43.4</ele>
        <time>2016-10-08T07:01:55Z</time>
      </trkpt>
      <trkpt lat="44.96564" lon="-0.30574">
        <ele>40.03</ele>
        <time>2016-10-08T07:02:11Z</time>
      </trkpt>
      <trkpt lat="44.96546" lon="-0.30552">
        <ele>37.63</ele>
        <time>2016-10-08T07:02:30Z</time>
      </trkpt>
      <trkpt lat="44.96528" lon="-0.30527">
        <ele>35.71</ele>
        <time>2016-10-08T07:02:51Z</time>
      </trkpt>
      <trkpt lat="44.96511" lon="-0.30508">
        <ele>34.74</ele>
        <time>2016-10-08T07:03:13Z</time>
      </trkpt>
      <trkpt lat="44.96495" lon="-0.305">
        <ele>34.74</ele>
        <time>2016-10-08T07:03:30Z</time>
      </trkpt>
      <trkpt lat="44.96474" lon="-0.30501">
        <ele>36.67</ele>
        <time>2016-10-08T07:03:48Z</time>
      </trkpt>
      <trkpt lat="44.96455" lon="-0.30502">
        <ele>38.59</ele>
        <time>2016-10-08T07:04:05Z</time>
      </trkpt>
      <trkpt lat="44.96438" lon="-0.30505">
        <ele>41.47</ele>
        <time>2016-10-08T07:04:20Z</time>
      </trkpt>
      <trkpt lat="44.96419" lon="-0.30505">
        <ele>43.4</ele>
        <time>2016-10-08T07:04:37Z</time>
      </trkpt>
      <trkpt lat="44.96399" lon="-0.30505">
        <ele>44.84</ele>
        <time>2016-10-08T07:04:54Z</time>
      </trkpt>
      <trkpt lat="44.96377" lon="-0.30506">
        <ele>46.28</ele>
        <time>2016-10-08T07:05:14Z</time>
      </trkpt>
      <trkpt lat="44.96354" lon="-0.30504">
        <ele>47.24</ele>
        <time>2016-10-08T07:05:32Z</time>
      </trkpt>
      <trkpt lat="44.96336" lon="-0.30497">
        <ele>47.24</ele>
        <time>2016-10-08T07:05:49Z</time>
      </trkpt>
      <trkpt lat="44.9631" lon="-0.30492">
        <ele>47.24</ele>
        <time>2016-10-08T07:06:09Z</time>
      </trkpt>
      <trkpt lat="44.96288" lon="-0.30491">
        <ele>47.24</ele>
        <time>2016-10-08T07:06:26Z</time>
      </trkpt>
      <trkpt lat="44.96265" lon="-0.30487">
        <ele>47.24</ele>
        <time>2016-10-08T07:06:44Z</time>
      </trkpt>
      <trkpt lat="44.96242" lon="-0.30481">
        <ele>47.72</ele>
        <time>2016-10-08T07:07:05Z</time>
      </trkpt>
      <trkpt lat="44.96219" lon="-0.30476">
        <ele>48.2</ele>
        <time>2016-10-08T07:07:22Z</time>
      </trkpt>
      <trkpt lat="44.96197" lon="-0.3047">
        <ele>49.16</ele>
        <time>2016-10-08T07:07:41Z</time>
      </trkpt>
      <trkpt lat="44.96175" lon="-0.3046">
        <ele>50.13</ele>
        <time>2016-10-08T07:07:59Z</time>
      </trkpt>
      <trkpt lat="44.96152" lon="-0.30451">
        <ele>50.61</ele>
        <time>2016-10-08T07:08:18Z</time>
      </trkpt>
      <trkpt lat="44.96132" lon="-0.30442">
        <ele>51.57</ele>
        <time>2016-10-08T07:08:37Z</time>
      </trkpt>
      <trkpt lat="44.96108" lon="-0.30427">
        <ele>52.53</ele>
        <time>2016-10-08T07:09:00Z</time>
      </trkpt>
      <trkpt lat="44.96087" lon="-0.30413">
        <ele>53.01</ele>
        <time>2016-10-08T07:09:21Z</time>
      </trkpt>
      <trkpt lat="44.96063" lon="-0.30401">
        <ele>53.97</ele>
        <time>2016-10-08T07:09:43Z</time>
      </trkpt>
      <trkpt lat="44.96035" lon="-0.30392">
        <ele>54.45</ele>
        <time>2016-10-08T07:10:08Z</time>
      </trkpt>
      <trkpt lat="44.96024" lon="-0.30411">
        <ele>54.93</ele>
        <time>2016-10-08T07:10:26Z</time>
      </trkpt>
      <trkpt lat="44.96021" lon="-0.30442">
        <ele>55.41</ele>
        <time>2016-10-08T07:10:48Z</time>
      </trkpt>
      <trkpt lat="44.96016" lon="-0.3047">
        <ele>55.89</ele>
        <time>2016-10-08T07:11:04Z</time>
      </trkpt>
      <trkpt lat="44.96011" lon="-0.30498">
        <ele>55.89</ele>
        <time>2016-10-08T07:11:20Z</time>
      </trkpt>
      <trkpt lat="44.96002" lon="-0.30524">
        <ele>56.86</ele>
        <time>2016-10-08T07:11:35Z</time>
      </trkpt>
      <trkpt lat="44.95985" lon="-0.30546">
        <ele>58.3</ele>
        <time>2016-10-08T07:11:55Z</time>
      </trkpt>
      <trkpt lat="44.95969" lon="-0.30564">
        <ele>59.26</ele>
        <time>2016-10-08T07:12:13Z</time>
      </trkpt>
      <trkpt lat="44.95953" lon="-0.30586">
        <ele>60.22</ele>
        <time>2016-10-08T07:12:33Z</time>
      </trkpt>
      <trkpt lat="44.95935" lon="-0.30604">
        <ele>60.7</ele>
        <time>2016-10-08T07:12:51Z</time>
      </trkpt>
      <trkpt lat="44.95914" lon="-0.30631">
        <ele>60.7</ele>
        <time>2016-10-08T07:13:14Z</time>
      </trkpt>
      <trkpt lat="44.95891" lon="-0.30638">
        <ele>61.66</ele>
        <time>2016-10-08T07:13:31Z</time>
      </trkpt>
      <trkpt lat="44.95871" lon="-0.30643">
        <ele>62.14</ele>
        <time>2016-10-08T07:13:48Z</time>
      </trkpt>
      <trkpt lat="44.95852" lon="-0.30647">
        <ele>62.14</ele>
        <time>2016-10-08T07:14:05Z</time>
      </trkpt>
      <trkpt lat="44.95845" lon="-0.30646">
        <ele>62.14</ele>
        <time>2016-10-08T07:14:18Z</time>
      </trkpt>
      <trkpt lat="44.9583" lon="-0.30647">
        <ele>62.14</ele>
        <time>2016-10-08T07:14:37Z</time>
      </trkpt>
      <trkpt lat="44.95805" lon="-0.30657">
        <ele>62.62</ele>
        <time>2016-10-08T07:14:54Z</time>
      </trkpt>
      <trkpt lat="44.95797" lon="-0.3066">
        <ele>63.1</ele>
        <time>2016-10-08T07:15:09Z</time>
      </trkpt>
      <trkpt lat="44.95796" lon="-0.3066">
        <ele>63.1</ele>
        <time>2016-10-08T07:15:17Z</time>
      </trkpt>
      <trkpt lat="44.95796" lon="-0.30662">
        <ele>63.1</ele>
        <time>2016-10-08T07:15:19Z</time>
      </trkpt>
      <trkpt lat="44.95794" lon="-0.30683">
        <ele>63.58</ele>
        <time>2016-10-08T07:15:36Z</time>
      </trkpt>
      <trkpt lat="44.95795" lon="-0.3069">
        <ele>63.58</ele>
        <time>2016-10-08T07:15:41Z</time>
      </trkpt>
      <trkpt lat="44.95797" lon="-0.30716">
        <ele>64.07</ele>
        <time>2016-10-08T07:15:56Z</time>
      </trkpt>
      <trkpt lat="44.958" lon="-0.30746">
        <ele>64.07</ele>
        <time>2016-10-08T07:16:12Z</time>
      </trkpt>
      <trkpt lat="44.95803" lon="-0.30761">
        <ele>64.07</ele>
        <time>2016-10-08T07:16:21Z</time>
      </trkpt>
      <trkpt lat="44.95812" lon="-0.30782">
        <ele>64.07</ele>
        <time>2016-10-08T07:16:34Z</time>
      </trkpt>
      <trkpt lat="44.95817" lon="-0.30801">
        <ele>64.07</ele>
        <time>2016-10-08T07:16:46Z</time>
      </trkpt>
      <trkpt lat="44.95818" lon="-0.30807">
        <ele>64.07</ele>
        <time>2016-10-08T07:16:50Z</time>
      </trkpt>
      <trkpt lat="44.9582" lon="-0.30814">
        <ele>64.07</ele>
        <time>2016-10-08T07:16:55Z</time>
      </trkpt>
      <trkpt lat="44.95827" lon="-0.3084">
        <ele>64.07</ele>
        <time>2016-10-08T07:17:12Z</time>
      </trkpt>
      <trkpt lat="44.95835" lon="-0.30866">
        <ele>64.07</ele>
        <time>2016-10-08T07:17:28Z</time>
      </trkpt>
      <trkpt lat="44.95839" lon="-0.30876">
        <ele>64.07</ele>
        <time>2016-10-08T07:17:34Z</time>
      </trkpt>
      <trkpt lat="44.95842" lon="-0.3088">
        <ele>62.62</ele>
        <time>2016-10-08T07:17:50Z</time>
      </trkpt>
      <trkpt lat="44.95842" lon="-0.30882">
        <ele>62.62</ele>
        <time>2016-10-08T07:18:00Z</time>
      </trkpt>
      <trkpt lat="44.95846" lon="-0.30913">
        <ele>61.66</ele>
        <time>2016-10-08T07:18:16Z</time>
      </trkpt>
      <trkpt lat="44.95847" lon="-0.30927">
        <ele>61.66</ele>
        <time>2016-10-08T07:18:23Z</time>
      </trkpt>
      <trkpt lat="44.9584" lon="-0.30932">
        <ele>61.66</ele>
        <time>2016-10-08T07:18:29Z</time>
      </trkpt>
      <trkpt lat="44.95816" lon="-0.30942">
        <ele>61.66</ele>
        <time>2016-10-08T07:18:47Z</time>
      </trkpt>
      <trkpt lat="44.95799" lon="-0.3095">
        <ele>61.66</ele>
        <time>2016-10-08T07:19:02Z</time>
      </trkpt>
      <trkpt lat="44.95796" lon="-0.30951">
        <ele>63.1</ele>
        <time>2016-10-08T07:19:05Z</time>
      </trkpt>
      <trkpt lat="44.95792" lon="-0.30958">
        <ele>63.1</ele>
        <time>2016-10-08T07:19:19Z</time>
      </trkpt>
      <trkpt lat="44.95793" lon="-0.30963">
        <ele>63.1</ele>
        <time>2016-10-08T07:19:31Z</time>
      </trkpt>
      <trkpt lat="44.95796" lon="-0.30983">
        <ele>63.1</ele>
        <time>2016-10-08T07:19:44Z</time>
      </trkpt>
      <trkpt lat="44.9578" lon="-0.30992">
        <ele>61.66</ele>
        <time>2016-10-08T07:20:00Z</time>
      </trkpt>
      <trkpt lat="44.95766" lon="-0.30998">
        <ele>61.66</ele>
        <time>2016-10-08T07:20:14Z</time>
      </trkpt>
      <trkpt lat="44.95762" lon="-0.31001">
        <ele>61.66</ele>
        <time>2016-10-08T07:20:29Z</time>
      </trkpt>
      <trkpt lat="44.9576" lon="-0.31">
        <ele>61.66</ele>
        <time>2016-10-08T07:20:49Z</time>
      </trkpt>
      <trkpt lat="44.95743" lon="-0.3101">
        <ele>61.66</ele>
        <time>2016-10-08T07:21:03Z</time>
      </trkpt>
      <trkpt lat="44.95738" lon="-0.31014">
        <ele>63.1</ele>
        <time>2016-10-08T07:21:07Z</time>
      </trkpt>
      <trkpt lat="44.95737" lon="-0.31025">
        <ele>63.1</ele>
        <time>2016-10-08T07:21:13Z</time>
      </trkpt>
      <trkpt lat="44.9574" lon="-0.31032">
        <ele>61.66</ele>
        <time>2016-10-08T07:21:17Z</time>
      </trkpt>
      <trkpt lat="44.95747" lon="-0.31058">
        <ele>59.74</ele>
        <time>2016-10-08T07:21:31Z</time>
      </trkpt>
      <trkpt lat="44.95748" lon="-0.31088">
        <ele>58.78</ele>
        <time>2016-10-08T07:21:47Z</time>
      </trkpt>
      <trkpt lat="44.95744" lon="-0.31102">
        <ele>58.78</ele>
        <time>2016-10-08T07:21:55Z</time>
      </trkpt>
      <trkpt lat="44.95741" lon="-0.31116">
        <ele>60.22</ele>
        <time>2016-10-08T07:22:03Z</time>
      </trkpt>
      <trkpt lat="44.95727" lon="-0.3113">
        <ele>61.18</ele>
        <time>2016-10-08T07:22:18Z</time>
      </trkpt>
      <trkpt lat="44.95706" lon="-0.31126">
        <ele>62.62</ele>
        <time>2016-10-08T07:22:35Z</time>
      </trkpt>
      <trkpt lat="44.95685" lon="-0.3112">
        <ele>64.07</ele>
        <time>2016-10-08T07:22:51Z</time>
      </trkpt>
      <trkpt lat="44.95664" lon="-0.31114">
        <ele>65.03</ele>
        <time>2016-10-08T07:23:08Z</time>
      </trkpt>
      <trkpt lat="44.95648" lon="-0.31104">
        <ele>66.47</ele>
        <time>2016-10-08T07:23:22Z</time>
      </trkpt>
      <trkpt lat="44.95632" lon="-0.31092">
        <ele>67.43</ele>
        <time>2016-10-08T07:23:36Z</time>
      </trkpt>
      <trkpt lat="44.9562" lon="-0.31075">
        <ele>68.39</ele>
        <time>2016-10-08T07:23:50Z</time>
      </trkpt>
      <trkpt lat="44.95611" lon="-0.31055">
        <ele>68.87</ele>
        <time>2016-10-08T07:24:03Z</time>
      </trkpt>
      <trkpt lat="44.956" lon="-0.31032">
        <ele>69.83</ele>
        <time>2016-10-08T07:24:19Z</time>
      </trkpt>
      <trkpt lat="44.95587" lon="-0.31013">
        <ele>70.31</ele>
        <time>2016-10-08T07:24:34Z</time>
      </trkpt>
      <trkpt lat="44.9557" lon="-0.30998">
        <ele>70.31</ele>
        <time>2016-10-08T07:24:49Z</time>
      </trkpt>
      <trkpt lat="44.95561" lon="-0.30991">
        <ele>70.31</ele>
        <time>2016-10-08T07:24:57Z</time>
      </trkpt>
      <trkpt lat="44.95552" lon="-0.30984">
        <ele>70.79</ele>
        <time>2016-10-08T07:25:05Z</time>
      </trkpt>
      <trkpt lat="44.95533" lon="-0.30969">
        <ele>71.27</ele>
        <time>2016-10-08T07:25:21Z</time>
      </trkpt>
      <trkpt lat="44.95517" lon="-0.30958">
        <ele>71.27</ele>
        <time>2016-10-08T07:25:35Z</time>
      </trkpt>
      <trkpt lat="44.95499" lon="-0.30946">
        <ele>71.76</ele>
        <time>2016-10-08T07:25:50Z</time>
      </trkpt>
      <trkpt lat="44.95478" lon="-0.30936">
        <ele>72.24</ele>
        <time>2016-10-08T07:26:07Z</time>
      </trkpt>
      <trkpt lat="44.95457" lon="-0.30929">
        <ele>72.72</ele>
        <time>2016-10-08T07:26:23Z</time>
      </trkpt>
      <trkpt lat="44.95439" lon="-0.30922">
        <ele>73.2</ele>
        <time>2016-10-08T07:26:38Z</time>
      </trkpt>
      <trkpt lat="44.95419" lon="-0.30912">
        <ele>73.68</ele>
        <time>2016-10-08T07:26:53Z</time>
      </trkpt>
      <trkpt lat="44.95398" lon="-0.30902">
        <ele>73.68</ele>
        <time>2016-10-08T07:27:10Z</time>
      </trkpt>
      <trkpt lat="44.95376" lon="-0.30897">
        <ele>74.16</ele>
        <time>2016-10-08T07:27:28Z</time>
      </trkpt>
      <trkpt lat="44.95368" lon="-0.309">
        <ele>74.16</ele>
        <time>2016-10-08T07:27:43Z</time>
      </trkpt>
      <trkpt lat="44.9536" lon="-0.30906">
        <ele>74.16</ele>
        <time>2016-10-08T07:27:56Z</time>
      </trkpt>
      <trkpt lat="44.95358" lon="-0.30907">
        <ele>74.16</ele>
        <time>2016-10-08T07:27:58Z</time>
      </trkpt>
      <trkpt lat="44.95348" lon="-0.3093">
        <ele>74.16</ele>
        <time>2016-10-08T07:28:14Z</time>
      </trkpt>
      <trkpt lat="44.95336" lon="-0.30948">
        <ele>72.24</ele>
        <time>2016-10-08T07:28:29Z</time>
      </trkpt>
      <trkpt lat="44.95319" lon="-0.30969">
        <ele>72.24</ele>
        <time>2016-10-08T07:28:48Z</time>
      </trkpt>
      <trkpt lat="44.95306" lon="-0.30986">
        <ele>71.27</ele>
        <time>2016-10-08T07:29:04Z</time>
      </trkpt>
      <trkpt lat="44.95293" lon="-0.31003">
        <ele>70.79</ele>
        <time>2016-10-08T07:29:19Z</time>
      </trkpt>
      <trkpt lat="44.95282" lon="-0.31018">
        <ele>70.31</ele>
        <time>2016-10-08T07:29:32Z</time>
      </trkpt>
      <trkpt lat="44.95271" lon="-0.31036">
        <ele>69.83</ele>
        <time>2016-10-08T07:29:47Z</time>
      </trkpt>
      <trkpt lat="44.95264" lon="-0.31051">
        <ele>69.35</ele>
        <time>2016-10-08T07:29:59Z</time>
      </trkpt>
      <trkpt lat="44.9526" lon="-0.31053">
        <ele>69.35</ele>
        <time>2016-10-08T07:30:03Z</time>
      </trkpt>
      <trkpt lat="44.95256" lon="-0.31044">
        <ele>69.35</ele>
        <time>2016-10-08T07:30:10Z</time>
      </trkpt>
      <trkpt lat="44.95252" lon="-0.31018">
        <ele>69.35</ele>
        <time>2016-10-08T07:30:26Z</time>
      </trkpt>
      <trkpt lat="44.95251" lon="-0.30991">
        <ele>70.79</ele>
        <time>2016-10-08T07:30:42Z</time>
      </trkpt>
      <trkpt lat="44.95248" lon="-0.30962">
        <ele>71.27</ele>
        <time>2016-10-08T07:31:00Z</time>
      </trkpt>
      <trkpt lat="44.95246" lon="-0.30938">
        <ele>71.76</ele>
        <time>2016-10-08T07:31:15Z</time>
      </trkpt>
      <trkpt lat="44.95245" lon="-0.30914">
        <ele>72.24</ele>
        <time>2016-10-08T07:31:29Z</time>
      </trkpt>
      <trkpt lat="44.95242" lon="-0.30888">
        <ele>72.72</ele>
        <time>2016-10-08T07:31:43Z</time>
      </trkpt>
      <trkpt lat="44.95242" lon="-0.30861">
        <ele>73.2</ele>
        <time>2016-10-08T07:31:58Z</time>
      </trkpt>
      <trkpt lat="44.9524" lon="-0.30834">
        <ele>73.68</ele>
        <time>2016-10-08T07:32:14Z</time>
      </trkpt>
      <trkpt lat="44.95237" lon="-0.30811">
        <ele>73.68</ele>
        <time>2016-10-08T07:32:28Z</time>
      </trkpt>
      <trkpt lat="44.95233" lon="-0.30784">
        <ele>74.16</ele>
        <time>2016-10-08T07:32:44Z</time>
      </trkpt>
      <trkpt lat="44.95233" lon="-0.3078">
        <ele>74.16</ele>
        <time>2016-10-08T07:32:46Z</time>
      </trkpt>
      <trkpt lat="44.9523" lon="-0.30768">
        <ele>74.16</ele>
        <time>2016-10-08T07:32:53Z</time>
      </trkpt>
      <trkpt lat="44.95225" lon="-0.3074">
        <ele>74.64</ele>
        <time>2016-10-08T07:33:09Z</time>
      </trkpt>
      <trkpt lat="44.9522" lon="-0.30715">
        <ele>75.12</ele>
        <time>2016-10-08T07:33:24Z</time>
      </trkpt>
      <trkpt lat="44.95218" lon="-0.30707">
        <ele>75.6</ele>
        <time>2016-10-08T07:33:30Z</time>
      </trkpt>
      <trkpt lat="44.95207" lon="-0.30678">
        <ele>74.64</ele>
        <time>2016-10-08T07:33:48Z</time>
      </trkpt>
      <trkpt lat="44.95199" lon="-0.30656">
        <ele>74.16</ele>
        <time>2016-10-08T07:34:03Z</time>
      </trkpt>
      <trkpt lat="44.95189" lon="-0.30633">
        <ele>74.16</ele>
        <time>2016-10-08T07:34:18Z</time>
      </trkpt>
      <trkpt lat="44.9518" lon="-0.3061">
        <ele>74.16</ele>
        <time>2016-10-08T07:34:33Z</time>
      </trkpt>
      <trkpt lat="44.95168" lon="-0.30587">
        <ele>74.16</ele>
        <time>2016-10-08T07:34:49Z</time>
      </trkpt>
      <trkpt lat="44.95157" lon="-0.30569">
        <ele>75.6</ele>
        <time>2016-10-08T07:35:03Z</time>
      </trkpt>
      <trkpt lat="44.95146" lon="-0.30553">
        <ele>75.6</ele>
        <time>2016-10-08T07:35:15Z</time>
      </trkpt>
      <trkpt lat="44.95136" lon="-0.30535">
        <ele>75.6</ele>
        <time>2016-10-08T07:35:29Z</time>
      </trkpt>
      <trkpt lat="44.95123" lon="-0.30515">
        <ele>75.6</ele>
        <time>2016-10-08T07:35:43Z</time>
      </trkpt>
      <trkpt lat="44.95113" lon="-0.30495">
        <ele>75.6</ele>
        <time>2016-10-08T07:35:57Z</time>
      </trkpt>
      <trkpt lat="44.95103" lon="-0.30471">
        <ele>75.6</ele>
        <time>2016-10-08T07:36:13Z</time>
      </trkpt>
      <trkpt lat="44.951" lon="-0.30444">
        <ele>74.16</ele>
        <time>2016-10-08T07:36:29Z</time>
      </trkpt>
      <trkpt lat="44.95098" lon="-0.30422">
        <ele>74.16</ele>
        <time>2016-10-08T07:36:44Z</time>
      </trkpt>
      <trkpt lat="44.95098" lon="-0.30409">
        <ele>74.16</ele>
        <time>2016-10-08T07:36:58Z</time>
      </trkpt>
      <trkpt lat="44.95097" lon="-0.30407">
        <ele>74.16</ele>
        <time>2016-10-08T07:37:01Z</time>
      </trkpt>
      <trkpt lat="44.95099" lon="-0.30399">
        <ele>73.68</ele>
        <time>2016-10-08T07:37:14Z</time>
      </trkpt>
      <trkpt lat="44.95097" lon="-0.30379">
        <ele>73.2</ele>
        <time>2016-10-08T07:37:25Z</time>
      </trkpt>
      <trkpt lat="44.95092" lon="-0.30354">
        <ele>72.72</ele>
        <time>2016-10-08T07:37:40Z</time>
      </trkpt>
      <trkpt lat="44.95088" lon="-0.30329">
        <ele>72.72</ele>
        <time>2016-10-08T07:37:54Z</time>
      </trkpt>
      <trkpt lat="44.95084" lon="-0.30304">
        <ele>72.72</ele>
        <time>2016-10-08T07:38:08Z</time>
      </trkpt>
      <trkpt lat="44.95085" lon="-0.30277">
        <ele>71.27</ele>
        <time>2016-10-08T07:38:22Z</time>
      </trkpt>
      <trkpt lat="44.95087" lon="-0.30253">
        <ele>70.79</ele>
        <time>2016-10-08T07:38:36Z</time>
      </trkpt>
      <trkpt lat="44.95089" lon="-0.30228">
        <ele>70.31</ele>
        <time>2016-10-08T07:38:50Z</time>
      </trkpt>
      <trkpt lat="44.9509" lon="-0.30201">
        <ele>70.31</ele>
        <time>2016-10-08T07:39:06Z</time>
      </trkpt>
      <trkpt lat="44.95093" lon="-0.30179">
        <ele>69.83</ele>
        <time>2016-10-08T07:39:22Z</time>
      </trkpt>
      <trkpt lat="44.95094" lon="-0.30179">
        <ele>69.83</ele>
        <time>2016-10-08T07:39:41Z</time>
      </trkpt>
      <trkpt lat="44.95093" lon="-0.3018">
        <ele>68.87</ele>
        <time>2016-10-08T07:40:08Z</time>
      </trkpt>
      <trkpt lat="44.95093" lon="-0.30179">
        <ele>70.31</ele>
        <time>2016-10-08T07:40:12Z</time>
      </trkpt>
      <trkpt lat="44.95092" lon="-0.30179">
        <ele>70.31</ele>
        <time>2016-10-08T07:40:29Z</time>
      </trkpt>
      <trkpt lat="44.95092" lon="-0.30179">
        <ele>70.31</ele>
        <time>2016-10-08T07:40:48Z</time>
      </trkpt>
      <trkpt lat="44.95093" lon="-0.30179">
        <ele>70.31</ele>
        <time>2016-10-08T07:41:20Z</time>
      </trkpt>
      <trkpt lat="44.95093" lon="-0.30177">
        <ele>70.31</ele>
        <time>2016-10-08T07:41:44Z</time>
      </trkpt>
      <trkpt lat="44.95093" lon="-0.30177">
        <ele>70.31</ele>
        <time>2016-10-08T07:42:21Z</time>
      </trkpt>
      <trkpt lat="44.95093" lon="-0.3018">
        <ele>70.31</ele>
        <time>2016-10-08T07:42:53Z</time>
      </trkpt>
      <trkpt lat="44.95093" lon="-0.30179">
        <ele>70.31</ele>
        <time>2016-10-08T07:43:23Z</time>
      </trkpt>
      <trkpt lat="44.95093" lon="-0.3018">
        <ele>70.31</ele>
        <time>2016-10-08T07:43:48Z</time>
      </trkpt>
      <trkpt lat="44.95094" lon="-0.30179">
        <ele>70.31</ele>
        <time>2016-10-08T07:44:15Z</time>
      </trkpt>
      <trkpt lat="44.95096" lon="-0.30178">
        <ele>70.31</ele>
        <time>2016-10-08T07:44:44Z</time>
      </trkpt>
      <trkpt lat="44.95093" lon="-0.3018">
        <ele>70.31</ele>
        <time>2016-10-08T07:45:13Z</time>
      </trkpt>
      <trkpt lat="44.95094" lon="-0.30178">
        <ele>70.31</ele>
        <time>2016-10-08T07:45:46Z</time>
      </trkpt>
      <trkpt lat="44.95093" lon="-0.30178">
        <ele>70.79</ele>
        <time>2016-10-08T07:46:17Z</time>
      </trkpt>
      <trkpt lat="44.95097" lon="-0.3017">
        <ele>70.79</ele>
        <time>2016-10-08T07:46:41Z</time>
      </trkpt>
      <trkpt lat="44.95097" lon="-0.30167">
        <ele>70.79</ele>
        <time>2016-10-08T07:46:44Z</time>
      </trkpt>
      <trkpt lat="44.95098" lon="-0.30156">
        <ele>70.79</ele>
        <time>2016-10-08T07:46:53Z</time>
      </trkpt>
      <trkpt lat="44.95099" lon="-0.30149">
        <ele>70.79</ele>
        <time>2016-10-08T07:46:58Z</time>
      </trkpt>
      <trkpt lat="44.95101" lon="-0.30127">
        <ele>70.79</ele>
        <time>2016-10-08T07:47:13Z</time>
      </trkpt>
      <trkpt lat="44.95104" lon="-0.30097">
        <ele>70.79</ele>
        <time>2016-10-08T07:47:34Z</time>
      </trkpt>
      <trkpt lat="44.95105" lon="-0.30076">
        <ele>70.79</ele>
        <time>2016-10-08T07:47:47Z</time>
      </trkpt>
      <trkpt lat="44.95105" lon="-0.30073">
        <ele>71.27</ele>
        <time>2016-10-08T07:47:49Z</time>
      </trkpt>
      <trkpt lat="44.95108" lon="-0.30044">
        <ele>71.27</ele>
        <time>2016-10-08T07:48:08Z</time>
      </trkpt>
      <trkpt lat="44.95109" lon="-0.30019">
        <ele>72.24</ele>
        <time>2016-10-08T07:48:25Z</time>
      </trkpt>
      <trkpt lat="44.95109" lon="-0.2999">
        <ele>72.24</ele>
        <time>2016-10-08T07:48:42Z</time>
      </trkpt>
      <trkpt lat="44.95108" lon="-0.29961">
        <ele>72.24</ele>
        <time>2016-10-08T07:49:00Z</time>
      </trkpt>
      <trkpt lat="44.95105" lon="-0.2993">
        <ele>71.76</ele>
        <time>2016-10-08T07:49:19Z</time>
      </trkpt>
      <trkpt lat="44.95102" lon="-0.29897">
        <ele>71.76</ele>
        <time>2016-10-08T07:49:38Z</time>
      </trkpt>
      <trkpt lat="44.95098" lon="-0.29868">
        <ele>71.76</ele>
        <time>2016-10-08T07:49:56Z</time>
      </trkpt>
      <trkpt lat="44.95096" lon="-0.29842">
        <ele>71.76</ele>
        <time>2016-10-08T07:50:12Z</time>
      </trkpt>
      <trkpt lat="44.95094" lon="-0.2983">
        <ele>72.24</ele>
        <time>2016-10-08T07:50:29Z</time>
      </trkpt>
      <trkpt lat="44.95093" lon="-0.2982">
        <ele>72.24</ele>
        <time>2016-10-08T07:50:47Z</time>
      </trkpt>
      <trkpt lat="44.95095" lon="-0.29811">
        <ele>72.72</ele>
        <time>2016-10-08T07:51:01Z</time>
      </trkpt>
      <trkpt lat="44.95098" lon="-0.29812">
        <ele>72.72</ele>
        <time>2016-10-08T07:51:17Z</time>
      </trkpt>
      <trkpt lat="44.95094" lon="-0.29803">
        <ele>72.72</ele>
        <time>2016-10-08T07:51:32Z</time>
      </trkpt>
      <trkpt lat="44.95093" lon="-0.29799">
        <ele>73.2</ele>
        <time>2016-10-08T07:51:44Z</time>
      </trkpt>
      <trkpt lat="44.95091" lon="-0.29795">
        <ele>73.2</ele>
        <time>2016-10-08T07:51:47Z</time>
      </trkpt>
      <trkpt lat="44.95088" lon="-0.2979">
        <ele>73.2</ele>
        <time>2016-10-08T07:51:55Z</time>
      </trkpt>
      <trkpt lat="44.95085" lon="-0.29783">
        <ele>73.2</ele>
        <time>2016-10-08T07:51:59Z</time>
      </trkpt>
      <trkpt lat="44.9508" lon="-0.2975">
        <ele>74.16</ele>
        <time>2016-10-08T07:52:14Z</time>
      </trkpt>
      <trkpt lat="44.95079" lon="-0.29738">
        <ele>74.64</ele>
        <time>2016-10-08T07:52:20Z</time>
      </trkpt>
      <trkpt lat="44.95076" lon="-0.29727">
        <ele>75.6</ele>
        <time>2016-10-08T07:52:30Z</time>
      </trkpt>
      <trkpt lat="44.95078" lon="-0.29701">
        <ele>75.6</ele>
        <time>2016-10-08T07:52:46Z</time>
      </trkpt>
      <trkpt lat="44.95082" lon="-0.29674">
        <ele>76.08</ele>
        <time>2016-10-08T07:53:03Z</time>
      </trkpt>
      <trkpt lat="44.95086" lon="-0.29647">
        <ele>76.56</ele>
        <time>2016-10-08T07:53:21Z</time>
      </trkpt>
      <trkpt lat="44.95089" lon="-0.29622">
        <ele>76.56</ele>
        <time>2016-10-08T07:53:36Z</time>
      </trkpt>
      <trkpt lat="44.95092" lon="-0.29597">
        <ele>77.04</ele>
        <time>2016-10-08T07:53:51Z</time>
      </trkpt>
      <trkpt lat="44.95095" lon="-0.29574">
        <ele>77.04</ele>
        <time>2016-10-08T07:54:05Z</time>
      </trkpt>
      <trkpt lat="44.95101" lon="-0.29551">
        <ele>77.52</ele>
        <time>2016-10-08T07:54:19Z</time>
      </trkpt>
      <trkpt lat="44.95103" lon="-0.29531">
        <ele>78</ele>
        <time>2016-10-08T07:54:31Z</time>
      </trkpt>
      <trkpt lat="44.95103" lon="-0.29523">
        <ele>78</ele>
        <time>2016-10-08T07:54:36Z</time>
      </trkpt>
      <trkpt lat="44.95106" lon="-0.295">
        <ele>78.48</ele>
        <time>2016-10-08T07:54:50Z</time>
      </trkpt>
      <trkpt lat="44.95105" lon="-0.29487">
        <ele>78.97</ele>
        <time>2016-10-08T07:54:58Z</time>
      </trkpt>
      <trkpt lat="44.95105" lon="-0.29483">
        <ele>78.97</ele>
        <time>2016-10-08T07:55:01Z</time>
      </trkpt>
      <trkpt lat="44.95102" lon="-0.29459">
        <ele>79.93</ele>
        <time>2016-10-08T07:55:16Z</time>
      </trkpt>
      <trkpt lat="44.95098" lon="-0.29437">
        <ele>79.93</ele>
        <time>2016-10-08T07:55:30Z</time>
      </trkpt>
      <trkpt lat="44.95093" lon="-0.29413">
        <ele>80.41</ele>
        <time>2016-10-08T07:55:45Z</time>
      </trkpt>
      <trkpt lat="44.95087" lon="-0.2939">
        <ele>80.41</ele>
        <time>2016-10-08T07:55:59Z</time>
      </trkpt>
      <trkpt lat="44.95082" lon="-0.29372">
        <ele>80.41</ele>
        <time>2016-10-08T07:56:11Z</time>
      </trkpt>
      <trkpt lat="44.95076" lon="-0.29359">
        <ele>80.41</ele>
        <time>2016-10-08T07:56:25Z</time>
      </trkpt>
      <trkpt lat="44.95068" lon="-0.29345">
        <ele>80.41</ele>
        <time>2016-10-08T07:56:37Z</time>
      </trkpt>
      <trkpt lat="44.95065" lon="-0.29336">
        <ele>80.41</ele>
        <time>2016-10-08T07:56:43Z</time>
      </trkpt>
      <trkpt lat="44.95061" lon="-0.29329">
        <ele>80.41</ele>
        <time>2016-10-08T07:56:48Z</time>
      </trkpt>
      <trkpt lat="44.95054" lon="-0.29307">
        <ele>80.41</ele>
        <time>2016-10-08T07:57:02Z</time>
      </trkpt>
      <trkpt lat="44.95048" lon="-0.29282">
        <ele>80.41</ele>
        <time>2016-10-08T07:57:17Z</time>
      </trkpt>
      <trkpt lat="44.95045" lon="-0.2926">
        <ele>80.41</ele>
        <time>2016-10-08T07:57:30Z</time>
      </trkpt>
      <trkpt lat="44.95043" lon="-0.29231">
        <ele>80.41</ele>
        <time>2016-10-08T07:57:46Z</time>
      </trkpt>
      <trkpt lat="44.95042" lon="-0.29208">
        <ele>79.45</ele>
        <time>2016-10-08T07:57:59Z</time>
      </trkpt>
      <trkpt lat="44.95044" lon="-0.29186">
        <ele>78.97</ele>
        <time>2016-10-08T07:58:12Z</time>
      </trkpt>
      <trkpt lat="44.95045" lon="-0.29164">
        <ele>78.97</ele>
        <time>2016-10-08T07:58:25Z</time>
      </trkpt>
      <trkpt lat="44.95043" lon="-0.2914">
        <ele>78.97</ele>
        <time>2016-10-08T07:58:39Z</time>
      </trkpt>
      <trkpt lat="44.95043" lon="-0.29138">
        <ele>78.97</ele>
        <time>2016-10-08T07:58:40Z</time>
      </trkpt>
      <trkpt lat="44.9504" lon="-0.29114">
        <ele>78.97</ele>
        <time>2016-10-08T07:58:54Z</time>
      </trkpt>
      <trkpt lat="44.95035" lon="-0.29093">
        <ele>78.97</ele>
        <time>2016-10-08T07:59:08Z</time>
      </trkpt>
      <trkpt lat="44.95028" lon="-0.29068">
        <ele>78.97</ele>
        <time>2016-10-08T07:59:24Z</time>
      </trkpt>
      <trkpt lat="44.95027" lon="-0.29065">
        <ele>78.97</ele>
        <time>2016-10-08T07:59:26Z</time>
      </trkpt>
      <trkpt lat="44.9502" lon="-0.29044">
        <ele>78.97</ele>
        <time>2016-10-08T07:59:39Z</time>
      </trkpt>
      <trkpt lat="44.95013" lon="-0.29024">
        <ele>78.97</ele>
        <time>2016-10-08T07:59:53Z</time>
      </trkpt>
      <trkpt lat="44.9501" lon="-0.29003">
        <ele>78.97</ele>
        <time>2016-10-08T08:00:06Z</time>
      </trkpt>
      <trkpt lat="44.95007" lon="-0.28976">
        <ele>80.41</ele>
        <time>2016-10-08T08:00:22Z</time>
      </trkpt>
      <trkpt lat="44.95005" lon="-0.28952">
        <ele>80.41</ele>
        <time>2016-10-08T08:00:36Z</time>
      </trkpt>
      <trkpt lat="44.95004" lon="-0.28926">
        <ele>80.41</ele>
        <time>2016-10-08T08:00:51Z</time>
      </trkpt>
      <trkpt lat="44.95002" lon="-0.28903">
        <ele>80.89</ele>
        <time>2016-10-08T08:01:04Z</time>
      </trkpt>
      <trkpt lat="44.94999" lon="-0.28881">
        <ele>80.89</ele>
        <time>2016-10-08T08:01:16Z</time>
      </trkpt>
      <trkpt lat="44.94994" lon="-0.28856">
        <ele>79.45</ele>
        <time>2016-10-08T08:01:31Z</time>
      </trkpt>
      <trkpt lat="44.94989" lon="-0.28829">
        <ele>78.97</ele>
        <time>2016-10-08T08:01:47Z</time>
      </trkpt>
      <trkpt lat="44.94983" lon="-0.28805">
        <ele>78.48</ele>
        <time>2016-10-08T08:02:02Z</time>
      </trkpt>
      <trkpt lat="44.94974" lon="-0.28781">
        <ele>78</ele>
        <time>2016-10-08T08:02:18Z</time>
      </trkpt>
      <trkpt lat="44.94963" lon="-0.28755">
        <ele>77.52</ele>
        <time>2016-10-08T08:02:35Z</time>
      </trkpt>
      <trkpt lat="44.9496" lon="-0.28748">
        <ele>77.52</ele>
        <time>2016-10-08T08:02:40Z</time>
      </trkpt>
      <trkpt lat="44.94957" lon="-0.2874">
        <ele>77.52</ele>
        <time>2016-10-08T08:02:45Z</time>
      </trkpt>
      <trkpt lat="44.9495" lon="-0.28713">
        <ele>77.52</ele>
        <time>2016-10-08T08:03:01Z</time>
      </trkpt>
      <trkpt lat="44.94944" lon="-0.28688">
        <ele>77.04</ele>
        <time>2016-10-08T08:03:16Z</time>
      </trkpt>
      <trkpt lat="44.9494" lon="-0.28663">
        <ele>77.04</ele>
        <time>2016-10-08T08:03:31Z</time>
      </trkpt>
      <trkpt lat="44.94937" lon="-0.28647">
        <ele>76.56</ele>
        <time>2016-10-08T08:03:41Z</time>
      </trkpt>
      <trkpt lat="44.94937" lon="-0.28633">
        <ele>76.56</ele>
        <time>2016-10-08T08:03:55Z</time>
      </trkpt>
      <trkpt lat="44.94934" lon="-0.28625">
        <ele>76.56</ele>
        <time>2016-10-08T08:04:03Z</time>
      </trkpt>
      <trkpt lat="44.94929" lon="-0.28603">
        <ele>76.08</ele>
        <time>2016-10-08T08:04:18Z</time>
      </trkpt>
      <trkpt lat="44.94928" lon="-0.28591">
        <ele>76.08</ele>
        <time>2016-10-08T08:04:26Z</time>
      </trkpt>
      <trkpt lat="44.94925" lon="-0.2858">
        <ele>76.08</ele>
        <time>2016-10-08T08:04:34Z</time>
      </trkpt>
      <trkpt lat="44.94921" lon="-0.28575">
        <ele>76.08</ele>
        <time>2016-10-08T08:04:48Z</time>
      </trkpt>
      <trkpt lat="44.94914" lon="-0.28568">
        <ele>75.6</ele>
        <time>2016-10-08T08:05:08Z</time>
      </trkpt>
      <trkpt lat="44.94912" lon="-0.28567">
        <ele>75.12</ele>
        <time>2016-10-08T08:05:10Z</time>
      </trkpt>
      <trkpt lat="44.94898" lon="-0.2857">
        <ele>75.12</ele>
        <time>2016-10-08T08:05:22Z</time>
      </trkpt>
      <trkpt lat="44.9488" lon="-0.28575">
        <ele>74.64</ele>
        <time>2016-10-08T08:05:39Z</time>
      </trkpt>
      <trkpt lat="44.94863" lon="-0.28578">
        <ele>74.64</ele>
        <time>2016-10-08T08:05:55Z</time>
      </trkpt>
      <trkpt lat="44.94851" lon="-0.28578">
        <ele>74.16</ele>
        <time>2016-10-08T08:06:07Z</time>
      </trkpt>
      <trkpt lat="44.94837" lon="-0.28578">
        <ele>74.16</ele>
        <time>2016-10-08T08:06:19Z</time>
      </trkpt>
      <trkpt lat="44.94822" lon="-0.28577">
        <ele>74.16</ele>
        <time>2016-10-08T08:06:33Z</time>
      </trkpt>
      <trkpt lat="44.94806" lon="-0.2858">
        <ele>73.68</ele>
        <time>2016-10-08T08:06:47Z</time>
      </trkpt>
      <trkpt lat="44.94791" lon="-0.28584">
        <ele>73.2</ele>
        <time>2016-10-08T08:07:00Z</time>
      </trkpt>
      <trkpt lat="44.94771" lon="-0.28595">
        <ele>73.2</ele>
        <time>2016-10-08T08:07:17Z</time>
      </trkpt>
      <trkpt lat="44.94754" lon="-0.28605">
        <ele>73.2</ele>
        <time>2016-10-08T08:07:33Z</time>
      </trkpt>
      <trkpt lat="44.94749" lon="-0.28608">
        <ele>72.72</ele>
        <time>2016-10-08T08:07:37Z</time>
      </trkpt>
      <trkpt lat="44.94733" lon="-0.28618">
        <ele>72.24</ele>
        <time>2016-10-08T08:07:52Z</time>
      </trkpt>
      <trkpt lat="44.94716" lon="-0.28627">
        <ele>72.24</ele>
        <time>2016-10-08T08:08:07Z</time>
      </trkpt>
      <trkpt lat="44.947" lon="-0.28636">
        <ele>72.24</ele>
        <time>2016-10-08T08:08:22Z</time>
      </trkpt>
      <trkpt lat="44.94697" lon="-0.28638">
        <ele>72.24</ele>
        <time>2016-10-08T08:08:25Z</time>
      </trkpt>
      <trkpt lat="44.94681" lon="-0.28646">
        <ele>72.24</ele>
        <time>2016-10-08T08:08:40Z</time>
      </trkpt>
      <trkpt lat="44.94678" lon="-0.28647">
        <ele>72.24</ele>
        <time>2016-10-08T08:08:42Z</time>
      </trkpt>
      <trkpt lat="44.94664" lon="-0.28639">
        <ele>71.76</ele>
        <time>2016-10-08T08:08:56Z</time>
      </trkpt>
      <trkpt lat="44.9465" lon="-0.28628">
        <ele>71.27</ele>
        <time>2016-10-08T08:09:09Z</time>
      </trkpt>
      <trkpt lat="44.94643" lon="-0.28623">
        <ele>70.79</ele>
        <time>2016-10-08T08:09:16Z</time>
      </trkpt>
      <trkpt lat="44.9464" lon="-0.28622">
        <ele>70.79</ele>
        <time>2016-10-08T08:09:18Z</time>
      </trkpt>
      <trkpt lat="44.94626" lon="-0.2861">
        <ele>70.31</ele>
        <time>2016-10-08T08:09:32Z</time>
      </trkpt>
      <trkpt lat="44.94611" lon="-0.286">
        <ele>69.83</ele>
        <time>2016-10-08T08:09:45Z</time>
      </trkpt>
      <trkpt lat="44.94593" lon="-0.28594">
        <ele>70.31</ele>
        <time>2016-10-08T08:10:01Z</time>
      </trkpt>
      <trkpt lat="44.94576" lon="-0.2859">
        <ele>70.31</ele>
        <time>2016-10-08T08:10:15Z</time>
      </trkpt>
      <trkpt lat="44.94557" lon="-0.28585">
        <ele>70.31</ele>
        <time>2016-10-08T08:10:32Z</time>
      </trkpt>
      <trkpt lat="44.94536" lon="-0.28582">
        <ele>70.31</ele>
        <time>2016-10-08T08:10:49Z</time>
      </trkpt>
      <trkpt lat="44.94515" lon="-0.28584">
        <ele>70.31</ele>
        <time>2016-10-08T08:11:07Z</time>
      </trkpt>
      <trkpt lat="44.94507" lon="-0.28585">
        <ele>71.27</ele>
        <time>2016-10-08T08:11:13Z</time>
      </trkpt>
      <trkpt lat="44.94497" lon="-0.28568">
        <ele>71.27</ele>
        <time>2016-10-08T08:11:27Z</time>
      </trkpt>
      <trkpt lat="44.94493" lon="-0.28545">
        <ele>71.27</ele>
        <time>2016-10-08T08:11:41Z</time>
      </trkpt>
      <trkpt lat="44.94489" lon="-0.28525">
        <ele>70.31</ele>
        <time>2016-10-08T08:11:53Z</time>
      </trkpt>
      <trkpt lat="44.94488" lon="-0.28522">
        <ele>70.31</ele>
        <time>2016-10-08T08:11:55Z</time>
      </trkpt>
      <trkpt lat="44.94484" lon="-0.28501">
        <ele>69.83</ele>
        <time>2016-10-08T08:12:08Z</time>
      </trkpt>
      <trkpt lat="44.94479" lon="-0.28474">
        <ele>69.35</ele>
        <time>2016-10-08T08:12:24Z</time>
      </trkpt>
      <trkpt lat="44.94474" lon="-0.2845">
        <ele>67.91</ele>
        <time>2016-10-08T08:12:38Z</time>
      </trkpt>
      <trkpt lat="44.94468" lon="-0.28425">
        <ele>66.95</ele>
        <time>2016-10-08T08:12:53Z</time>
      </trkpt>
      <trkpt lat="44.94463" lon="-0.284">
        <ele>65.03</ele>
        <time>2016-10-08T08:13:07Z</time>
      </trkpt>
      <trkpt lat="44.94458" lon="-0.28376">
        <ele>64.07</ele>
        <time>2016-10-08T08:13:20Z</time>
      </trkpt>
      <trkpt lat="44.94453" lon="-0.2835">
        <ele>62.62</ele>
        <time>2016-10-08T08:13:35Z</time>
      </trkpt>
      <trkpt lat="44.94447" lon="-0.28326">
        <ele>61.66</ele>
        <time>2016-10-08T08:13:49Z</time>
      </trkpt>
      <trkpt lat="44.94442" lon="-0.28301">
        <ele>59.74</ele>
        <time>2016-10-08T08:14:04Z</time>
      </trkpt>
      <trkpt lat="44.94438" lon="-0.28276">
        <ele>58.78</ele>
        <time>2016-10-08T08:14:19Z</time>
      </trkpt>
      <trkpt lat="44.94434" lon="-0.28254">
        <ele>56.37</ele>
        <time>2016-10-08T08:14:33Z</time>
      </trkpt>
      <trkpt lat="44.94427" lon="-0.2823">
        <ele>53.49</ele>
        <time>2016-10-08T08:14:49Z</time>
      </trkpt>
      <trkpt lat="44.94425" lon="-0.2821">
        <ele>51.57</ele>
        <time>2016-10-08T08:15:02Z</time>
      </trkpt>
      <trkpt lat="44.94423" lon="-0.28195">
        <ele>49.16</ele>
        <time>2016-10-08T08:15:14Z</time>
      </trkpt>
      <trkpt lat="44.94422" lon="-0.28177">
        <ele>46.28</ele>
        <time>2016-10-08T08:15:28Z</time>
      </trkpt>
      <trkpt lat="44.94426" lon="-0.28152">
        <ele>43.4</ele>
        <time>2016-10-08T08:15:44Z</time>
      </trkpt>
      <trkpt lat="44.9443" lon="-0.28131">
        <ele>41.47</ele>
        <time>2016-10-08T08:15:59Z</time>
      </trkpt>
      <trkpt lat="44.94429" lon="-0.28109">
        <ele>39.07</ele>
        <time>2016-10-08T08:16:15Z</time>
      </trkpt>
      <trkpt lat="44.94426" lon="-0.28089">
        <ele>36.67</ele>
        <time>2016-10-08T08:16:28Z</time>
      </trkpt>
      <trkpt lat="44.94426" lon="-0.28069">
        <ele>35.23</ele>
        <time>2016-10-08T08:16:41Z</time>
      </trkpt>
      <trkpt lat="44.94431" lon="-0.28051">
        <ele>33.78</ele>
        <time>2016-10-08T08:16:53Z</time>
      </trkpt>
      <trkpt lat="44.94441" lon="-0.28035">
        <ele>32.34</ele>
        <time>2016-10-08T08:17:05Z</time>
      </trkpt>
      <trkpt lat="44.94458" lon="-0.28024">
        <ele>31.86</ele>
        <time>2016-10-08T08:17:19Z</time>
      </trkpt>
      <trkpt lat="44.94473" lon="-0.28024">
        <ele>31.86</ele>
        <time>2016-10-08T08:17:31Z</time>
      </trkpt>
      <trkpt lat="44.94491" lon="-0.28019">
        <ele>30.9</ele>
        <time>2016-10-08T08:17:45Z</time>
      </trkpt>
      <trkpt lat="44.94507" lon="-0.28004">
        <ele>29.94</ele>
        <time>2016-10-08T08:17:59Z</time>
      </trkpt>
      <trkpt lat="44.94519" lon="-0.27987">
        <ele>28.98</ele>
        <time>2016-10-08T08:18:13Z</time>
      </trkpt>
      <trkpt lat="44.94521" lon="-0.2798">
        <ele>28.98</ele>
        <time>2016-10-08T08:18:17Z</time>
      </trkpt>
      <trkpt lat="44.9452" lon="-0.27958">
        <ele>28.5</ele>
        <time>2016-10-08T08:18:30Z</time>
      </trkpt>
      <trkpt lat="44.94516" lon="-0.27931">
        <ele>27.05</ele>
        <time>2016-10-08T08:18:45Z</time>
      </trkpt>
      <trkpt lat="44.94519" lon="-0.27909">
        <ele>26.09</ele>
        <time>2016-10-08T08:18:56Z</time>
      </trkpt>
      <trkpt lat="44.94525" lon="-0.27901">
        <ele>25.61</ele>
        <time>2016-10-08T08:19:02Z</time>
      </trkpt>
      <trkpt lat="44.94539" lon="-0.27882">
        <ele>24.17</ele>
        <time>2016-10-08T08:19:16Z</time>
      </trkpt>
      <trkpt lat="44.94546" lon="-0.27871">
        <ele>23.69</ele>
        <time>2016-10-08T08:19:24Z</time>
      </trkpt>
      <trkpt lat="44.94558" lon="-0.27854">
        <ele>23.21</ele>
        <time>2016-10-08T08:19:38Z</time>
      </trkpt>
      <trkpt lat="44.94569" lon="-0.2783">
        <ele>22.73</ele>
        <time>2016-10-08T08:19:54Z</time>
      </trkpt>
      <trkpt lat="44.94572" lon="-0.27823">
        <ele>22.25</ele>
        <time>2016-10-08T08:19:59Z</time>
      </trkpt>
      <trkpt lat="44.9458" lon="-0.27799">
        <ele>22.25</ele>
        <time>2016-10-08T08:20:13Z</time>
      </trkpt>
      <trkpt lat="44.9458" lon="-0.27798">
        <ele>22.25</ele>
        <time>2016-10-08T08:20:14Z</time>
      </trkpt>
      <trkpt lat="44.94584" lon="-0.27771">
        <ele>21.29</ele>
        <time>2016-10-08T08:20:29Z</time>
      </trkpt>
      <trkpt lat="44.9458" lon="-0.27744">
        <ele>21.29</ele>
        <time>2016-10-08T08:20:45Z</time>
      </trkpt>
      <trkpt lat="44.94575" lon="-0.27721">
        <ele>20.81</ele>
        <time>2016-10-08T08:20:59Z</time>
      </trkpt>
      <trkpt lat="44.9458" lon="-0.27692">
        <ele>19.84</ele>
        <time>2016-10-08T08:21:15Z</time>
      </trkpt>
      <trkpt lat="44.94589" lon="-0.27672">
        <ele>19.36</ele>
        <time>2016-10-08T08:21:28Z</time>
      </trkpt>
      <trkpt lat="44.9459" lon="-0.27669">
        <ele>18.4</ele>
        <time>2016-10-08T08:21:30Z</time>
      </trkpt>
      <trkpt lat="44.94595" lon="-0.27644">
        <ele>17.92</ele>
        <time>2016-10-08T08:21:45Z</time>
      </trkpt>
      <trkpt lat="44.94593" lon="-0.27628">
        <ele>17.44</ele>
        <time>2016-10-08T08:21:54Z</time>
      </trkpt>
      <trkpt lat="44.94583" lon="-0.27603">
        <ele>16.96</ele>
        <time>2016-10-08T08:22:11Z</time>
      </trkpt>
      <trkpt lat="44.94574" lon="-0.27578">
        <ele>15.52</ele>
        <time>2016-10-08T08:22:26Z</time>
      </trkpt>
      <trkpt lat="44.94565" lon="-0.27555">
        <ele>14.56</ele>
        <time>2016-10-08T08:22:40Z</time>
      </trkpt>
      <trkpt lat="44.9456" lon="-0.27534">
        <ele>14.56</ele>
        <time>2016-10-08T08:22:53Z</time>
      </trkpt>
      <trkpt lat="44.9455" lon="-0.27511">
        <ele>14.08</ele>
        <time>2016-10-08T08:23:07Z</time>
      </trkpt>
      <trkpt lat="44.94542" lon="-0.27489">
        <ele>13.6</ele>
        <time>2016-10-08T08:23:20Z</time>
      </trkpt>
      <trkpt lat="44.94533" lon="-0.27469">
        <ele>13.12</ele>
        <time>2016-10-08T08:23:33Z</time>
      </trkpt>
      <trkpt lat="44.94523" lon="-0.27446">
        <ele>12.63</ele>
        <time>2016-10-08T08:23:47Z</time>
      </trkpt>
      <trkpt lat="44.94524" lon="-0.27418">
        <ele>12.63</ele>
        <time>2016-10-08T08:24:03Z</time>
      </trkpt>
      <trkpt lat="44.94533" lon="-0.27399">
        <ele>12.63</ele>
        <time>2016-10-08T08:24:15Z</time>
      </trkpt>
      <trkpt lat="44.94543" lon="-0.27382">
        <ele>14.08</ele>
        <time>2016-10-08T08:24:28Z</time>
      </trkpt>
      <trkpt lat="44.94546" lon="-0.27376">
        <ele>14.08</ele>
        <time>2016-10-08T08:24:33Z</time>
      </trkpt>
      <trkpt lat="44.94557" lon="-0.27355">
        <ele>15.52</ele>
        <time>2016-10-08T08:24:48Z</time>
      </trkpt>
      <trkpt lat="44.9456" lon="-0.27348">
        <ele>16</ele>
        <time>2016-10-08T08:25:03Z</time>
      </trkpt>
      <trkpt lat="44.94563" lon="-0.27338">
        <ele>16.96</ele>
        <time>2016-10-08T08:25:20Z</time>
      </trkpt>
      <trkpt lat="44.94566" lon="-0.27325">
        <ele>17.92</ele>
        <time>2016-10-08T08:25:35Z</time>
      </trkpt>
      <trkpt lat="44.94566" lon="-0.2732">
        <ele>17.92</ele>
        <time>2016-10-08T08:25:56Z</time>
      </trkpt>
      <trkpt lat="44.94564" lon="-0.27316">
        <ele>18.4</ele>
        <time>2016-10-08T08:25:59Z</time>
      </trkpt>
      <trkpt lat="44.94558" lon="-0.27299">
        <ele>18.4</ele>
        <time>2016-10-08T08:26:13Z</time>
      </trkpt>
      <trkpt lat="44.94559" lon="-0.27294">
        <ele>18.4</ele>
        <time>2016-10-08T08:26:20Z</time>
      </trkpt>
      <trkpt lat="44.94559" lon="-0.27289">
        <ele>18.4</ele>
        <time>2016-10-08T08:26:24Z</time>
      </trkpt>
      <trkpt lat="44.9456" lon="-0.27283">
        <ele>18.88</ele>
        <time>2016-10-08T08:26:28Z</time>
      </trkpt>
      <trkpt lat="44.94561" lon="-0.27276">
        <ele>18.88</ele>
        <time>2016-10-08T08:26:33Z</time>
      </trkpt>
      <trkpt lat="44.94564" lon="-0.27271">
        <ele>19.36</ele>
        <time>2016-10-08T08:26:37Z</time>
      </trkpt>
      <trkpt lat="44.94582" lon="-0.27264">
        <ele>20.81</ele>
        <time>2016-10-08T08:26:53Z</time>
      </trkpt>
      <trkpt lat="44.94585" lon="-0.27265">
        <ele>20.81</ele>
        <time>2016-10-08T08:26:56Z</time>
      </trkpt>
      <trkpt lat="44.94589" lon="-0.27263">
        <ele>21.29</ele>
        <time>2016-10-08T08:27:00Z</time>
      </trkpt>
      <trkpt lat="44.94606" lon="-0.27262">
        <ele>22.25</ele>
        <time>2016-10-08T08:27:14Z</time>
      </trkpt>
      <trkpt lat="44.94618" lon="-0.27257">
        <ele>21.77</ele>
        <time>2016-10-08T08:27:25Z</time>
      </trkpt>
      <trkpt lat="44.94634" lon="-0.27255">
        <ele>22.73</ele>
        <time>2016-10-08T08:27:39Z</time>
      </trkpt>
      <trkpt lat="44.94652" lon="-0.27253">
        <ele>23.21</ele>
        <time>2016-10-08T08:27:55Z</time>
      </trkpt>
      <trkpt lat="44.94654" lon="-0.27251">
        <ele>23.69</ele>
        <time>2016-10-08T08:27:57Z</time>
      </trkpt>
      <trkpt lat="44.94668" lon="-0.27251">
        <ele>24.65</ele>
        <time>2016-10-08T08:28:10Z</time>
      </trkpt>
      <trkpt lat="44.9467" lon="-0.2725">
        <ele>24.65</ele>
        <time>2016-10-08T08:28:12Z</time>
      </trkpt>
      <trkpt lat="44.94677" lon="-0.2725">
        <ele>24.65</ele>
        <time>2016-10-08T08:28:18Z</time>
      </trkpt>
      <trkpt lat="44.94689" lon="-0.27246">
        <ele>25.13</ele>
        <time>2016-10-08T08:28:28Z</time>
      </trkpt>
      <trkpt lat="44.94707" lon="-0.27242">
        <ele>25.13</ele>
        <time>2016-10-08T08:28:43Z</time>
      </trkpt>
      <trkpt lat="44.94713" lon="-0.27242">
        <ele>25.61</ele>
        <time>2016-10-08T08:28:48Z</time>
      </trkpt>
      <trkpt lat="44.94733" lon="-0.27239">
        <ele>25.61</ele>
        <time>2016-10-08T08:29:04Z</time>
      </trkpt>
      <trkpt lat="44.94751" lon="-0.27235">
        <ele>26.09</ele>
        <time>2016-10-08T08:29:20Z</time>
      </trkpt>
      <trkpt lat="44.9476" lon="-0.27233">
        <ele>26.57</ele>
        <time>2016-10-08T08:29:28Z</time>
      </trkpt>
      <trkpt lat="44.94777" lon="-0.2723">
        <ele>27.53</ele>
        <time>2016-10-08T08:29:44Z</time>
      </trkpt>
      <trkpt lat="44.94789" lon="-0.27232">
        <ele>28.98</ele>
        <time>2016-10-08T08:29:54Z</time>
      </trkpt>
      <trkpt lat="44.94792" lon="-0.27234">
        <ele>28.98</ele>
        <time>2016-10-08T08:29:57Z</time>
      </trkpt>
      <trkpt lat="44.94797" lon="-0.27236">
        <ele>28.98</ele>
        <time>2016-10-08T08:30:01Z</time>
      </trkpt>
      <trkpt lat="44.94815" lon="-0.27236">
        <ele>29.46</ele>
        <time>2016-10-08T08:30:15Z</time>
      </trkpt>
      <trkpt lat="44.94819" lon="-0.27236">
        <ele>29.94</ele>
        <time>2016-10-08T08:30:19Z</time>
      </trkpt>
      <trkpt lat="44.94834" lon="-0.27237">
        <ele>30.9</ele>
        <time>2016-10-08T08:30:32Z</time>
      </trkpt>
      <trkpt lat="44.94853" lon="-0.27237">
        <ele>31.38</ele>
        <time>2016-10-08T08:30:48Z</time>
      </trkpt>
      <trkpt lat="44.94871" lon="-0.27235">
        <ele>32.34</ele>
        <time>2016-10-08T08:31:04Z</time>
      </trkpt>
      <trkpt lat="44.94888" lon="-0.27233">
        <ele>33.3</ele>
        <time>2016-10-08T08:31:19Z</time>
      </trkpt>
      <trkpt lat="44.949" lon="-0.27233">
        <ele>33.78</ele>
        <time>2016-10-08T08:31:34Z</time>
      </trkpt>
      <trkpt lat="44.94903" lon="-0.27234">
        <ele>33.78</ele>
        <time>2016-10-08T08:31:50Z</time>
      </trkpt>
      <trkpt lat="44.94904" lon="-0.27236">
        <ele>33.78</ele>
        <time>2016-10-08T08:32:12Z</time>
      </trkpt>
      <trkpt lat="44.94905" lon="-0.27236">
        <ele>33.78</ele>
        <time>2016-10-08T08:32:27Z</time>
      </trkpt>
      <trkpt lat="44.94906" lon="-0.27237">
        <ele>33.78</ele>
        <time>2016-10-08T08:32:47Z</time>
      </trkpt>
      <trkpt lat="44.94905" lon="-0.27238">
        <ele>33.78</ele>
        <time>2016-10-08T08:33:04Z</time>
      </trkpt>
      <trkpt lat="44.94904" lon="-0.27238">
        <ele>33.78</ele>
        <time>2016-10-08T08:33:18Z</time>
      </trkpt>
      <trkpt lat="44.94899" lon="-0.27239">
        <ele>33.78</ele>
        <time>2016-10-08T08:33:32Z</time>
      </trkpt>
      <trkpt lat="44.94897" lon="-0.27238">
        <ele>33.78</ele>
        <time>2016-10-08T08:33:46Z</time>
      </trkpt>
      <trkpt lat="44.94898" lon="-0.27238">
        <ele>33.78</ele>
        <time>2016-10-08T08:34:01Z</time>
      </trkpt>
      <trkpt lat="44.94904" lon="-0.27237">
        <ele>33.78</ele>
        <time>2016-10-08T08:34:13Z</time>
      </trkpt>
      <trkpt lat="44.94904" lon="-0.27236">
        <ele>33.78</ele>
        <time>2016-10-08T08:34:30Z</time>
      </trkpt>
      <trkpt lat="44.94904" lon="-0.27237">
        <ele>33.78</ele>
        <time>2016-10-08T08:34:57Z</time>
      </trkpt>
      <trkpt lat="44.94904" lon="-0.27237">
        <ele>33.78</ele>
        <time>2016-10-08T08:35:19Z</time>
      </trkpt>
      <trkpt lat="44.94902" lon="-0.27236">
        <ele>33.78</ele>
        <time>2016-10-08T08:35:36Z</time>
      </trkpt>
      <trkpt lat="44.94903" lon="-0.27237">
        <ele>33.78</ele>
        <time>2016-10-08T08:35:57Z</time>
      </trkpt>
      <trkpt lat="44.94903" lon="-0.27237">
        <ele>33.78</ele>
        <time>2016-10-08T08:36:23Z</time>
      </trkpt>
      <trkpt lat="44.94902" lon="-0.27237">
        <ele>33.78</ele>
        <time>2016-10-08T08:36:54Z</time>
      </trkpt>
      <trkpt lat="44.94905" lon="-0.27236">
        <ele>33.78</ele>
        <time>2016-10-08T08:37:25Z</time>
      </trkpt>
      <trkpt lat="44.94906" lon="-0.27236">
        <ele>34.74</ele>
        <time>2016-10-08T08:37:44Z</time>
      </trkpt>
      <trkpt lat="44.94906" lon="-0.27237">
        <ele>34.74</ele>
        <time>2016-10-08T08:38:09Z</time>
      </trkpt>
      <trkpt lat="44.94905" lon="-0.27237">
        <ele>34.74</ele>
        <time>2016-10-08T08:38:43Z</time>
      </trkpt>
      <trkpt lat="44.94905" lon="-0.27236">
        <ele>33.78</ele>
        <time>2016-10-08T08:39:21Z</time>
      </trkpt>
      <trkpt lat="44.94905" lon="-0.27236">
        <ele>34.74</ele>
        <time>2016-10-08T08:40:00Z</time>
      </trkpt>
      <trkpt lat="44.94902" lon="-0.27233">
        <ele>34.74</ele>
        <time>2016-10-08T08:40:31Z</time>
      </trkpt>
      <trkpt lat="44.94901" lon="-0.27238">
        <ele>34.74</ele>
        <time>2016-10-08T08:41:02Z</time>
      </trkpt>
      <trkpt lat="44.94898" lon="-0.27239">
        <ele>34.74</ele>
        <time>2016-10-08T08:41:06Z</time>
      </trkpt>
      <trkpt lat="44.94886" lon="-0.27256">
        <ele>34.74</ele>
        <time>2016-10-08T08:41:33Z</time>
      </trkpt>
      <trkpt lat="44.949" lon="-0.27243">
        <ele>34.74</ele>
        <time>2016-10-08T08:41:58Z</time>
      </trkpt>
      <trkpt lat="44.94906" lon="-0.27241">
        <ele>34.74</ele>
        <time>2016-10-08T08:42:27Z</time>
      </trkpt>
      <trkpt lat="44.94909" lon="-0.27237">
        <ele>34.74</ele>
        <time>2016-10-08T08:42:30Z</time>
      </trkpt>
      <trkpt lat="44.94908" lon="-0.27234">
        <ele>34.74</ele>
        <time>2016-10-08T08:42:49Z</time>
      </trkpt>
      <trkpt lat="44.94908" lon="-0.27235">
        <ele>34.74</ele>
        <time>2016-10-08T08:43:17Z</time>
      </trkpt>
      <trkpt lat="44.94915" lon="-0.27235">
        <ele>33.78</ele>
        <time>2016-10-08T08:43:40Z</time>
      </trkpt>
      <trkpt lat="44.9493" lon="-0.27239">
        <ele>31.86</ele>
        <time>2016-10-08T08:44:03Z</time>
      </trkpt>
      <trkpt lat="44.94946" lon="-0.27246">
        <ele>30.42</ele>
        <time>2016-10-08T08:44:22Z</time>
      </trkpt>
      <trkpt lat="44.94951" lon="-0.27252">
        <ele>28.98</ele>
        <time>2016-10-08T08:44:44Z</time>
      </trkpt>
      <trkpt lat="44.94967" lon="-0.27266">
        <ele>24.65</ele>
        <time>2016-10-08T08:45:04Z</time>
      </trkpt>
      <trkpt lat="44.94988" lon="-0.27267">
        <ele>22.25</ele>
        <time>2016-10-08T08:45:25Z</time>
      </trkpt>
      <trkpt lat="44.94999" lon="-0.27265">
        <ele>21.29</ele>
        <time>2016-10-08T08:45:35Z</time>
      </trkpt>
      <trkpt lat="44.95019" lon="-0.27264">
        <ele>17.92</ele>
        <time>2016-10-08T08:45:53Z</time>
      </trkpt>
      <trkpt lat="44.95048" lon="-0.27273">
        <ele>14.56</ele>
        <time>2016-10-08T08:46:17Z</time>
      </trkpt>
      <trkpt lat="44.95076" lon="-0.2728">
        <ele>12.63</ele>
        <time>2016-10-08T08:46:40Z</time>
      </trkpt>
      <trkpt lat="44.951" lon="-0.2729">
        <ele>11.67</ele>
        <time>2016-10-08T08:47:07Z</time>
      </trkpt>
      <trkpt lat="44.95111" lon="-0.27283">
        <ele>11.67</ele>
        <time>2016-10-08T08:47:19Z</time>
      </trkpt>
      <trkpt lat="44.95131" lon="-0.27279">
        <ele>10.71</ele>
        <time>2016-10-08T08:47:42Z</time>
      </trkpt>
      <trkpt lat="44.95138" lon="-0.27281">
        <ele>10.71</ele>
        <time>2016-10-08T08:47:48Z</time>
      </trkpt>
      <trkpt lat="44.95159" lon="-0.27303">
        <ele>11.67</ele>
        <time>2016-10-08T08:48:11Z</time>
      </trkpt>
      <trkpt lat="44.9516" lon="-0.27304">
        <ele>11.67</ele>
        <time>2016-10-08T08:48:12Z</time>
      </trkpt>
      <trkpt lat="44.95167" lon="-0.27314">
        <ele>12.15</ele>
        <time>2016-10-08T08:48:20Z</time>
      </trkpt>
      <trkpt lat="44.95169" lon="-0.27318">
        <ele>12.15</ele>
        <time>2016-10-08T08:48:23Z</time>
      </trkpt>
      <trkpt lat="44.95183" lon="-0.2735">
        <ele>13.12</ele>
        <time>2016-10-08T08:48:44Z</time>
      </trkpt>
      <trkpt lat="44.95199" lon="-0.27383">
        <ele>15.04</ele>
        <time>2016-10-08T08:49:06Z</time>
      </trkpt>
      <trkpt lat="44.95215" lon="-0.27413">
        <ele>16.96</ele>
        <time>2016-10-08T08:49:27Z</time>
      </trkpt>
      <trkpt lat="44.95235" lon="-0.2744">
        <ele>18.88</ele>
        <time>2016-10-08T08:49:48Z</time>
      </trkpt>
      <trkpt lat="44.95255" lon="-0.27466">
        <ele>19.84</ele>
        <time>2016-10-08T08:50:09Z</time>
      </trkpt>
      <trkpt lat="44.95281" lon="-0.27484">
        <ele>21.29</ele>
        <time>2016-10-08T08:50:33Z</time>
      </trkpt>
      <trkpt lat="44.95299" lon="-0.27505">
        <ele>22.25</ele>
        <time>2016-10-08T08:50:53Z</time>
      </trkpt>
      <trkpt lat="44.95312" lon="-0.27519">
        <ele>23.69</ele>
        <time>2016-10-08T08:51:07Z</time>
      </trkpt>
      <trkpt lat="44.95312" lon="-0.27521">
        <ele>23.69</ele>
        <time>2016-10-08T08:51:08Z</time>
      </trkpt>
      <trkpt lat="44.95327" lon="-0.2755">
        <ele>24.65</ele>
        <time>2016-10-08T08:51:30Z</time>
      </trkpt>
      <trkpt lat="44.95328" lon="-0.27553">
        <ele>24.65</ele>
        <time>2016-10-08T08:51:32Z</time>
      </trkpt>
      <trkpt lat="44.95335" lon="-0.27584">
        <ele>25.13</ele>
        <time>2016-10-08T08:51:53Z</time>
      </trkpt>
      <trkpt lat="44.95336" lon="-0.27616">
        <ele>25.61</ele>
        <time>2016-10-08T08:52:12Z</time>
      </trkpt>
      <trkpt lat="44.95333" lon="-0.27646">
        <ele>27.05</ele>
        <time>2016-10-08T08:52:32Z</time>
      </trkpt>
      <trkpt lat="44.95341" lon="-0.27674">
        <ele>28.98</ele>
        <time>2016-10-08T08:52:52Z</time>
      </trkpt>
      <trkpt lat="44.95347" lon="-0.27697">
        <ele>29.94</ele>
        <time>2016-10-08T08:53:10Z</time>
      </trkpt>
      <trkpt lat="44.95356" lon="-0.2773">
        <ele>30.9</ele>
        <time>2016-10-08T08:53:34Z</time>
      </trkpt>
      <trkpt lat="44.95362" lon="-0.27759">
        <ele>32.34</ele>
        <time>2016-10-08T08:53:55Z</time>
      </trkpt>
      <trkpt lat="44.95359" lon="-0.27779">
        <ele>34.26</ele>
        <time>2016-10-08T08:54:13Z</time>
      </trkpt>
      <trkpt lat="44.95354" lon="-0.27804">
        <ele>34.74</ele>
        <time>2016-10-08T08:54:30Z</time>
      </trkpt>
      <trkpt lat="44.95362" lon="-0.27831">
        <ele>36.67</ele>
        <time>2016-10-08T08:54:51Z</time>
      </trkpt>
      <trkpt lat="44.95371" lon="-0.27853">
        <ele>38.59</ele>
        <time>2016-10-08T08:55:10Z</time>
      </trkpt>
      <trkpt lat="44.95378" lon="-0.27877">
        <ele>41.47</ele>
        <time>2016-10-08T08:55:28Z</time>
      </trkpt>
      <trkpt lat="44.95387" lon="-0.27901">
        <ele>44.84</ele>
        <time>2016-10-08T08:55:48Z</time>
      </trkpt>
      <trkpt lat="44.95396" lon="-0.2792">
        <ele>47.72</ele>
        <time>2016-10-08T08:56:06Z</time>
      </trkpt>
      <trkpt lat="44.95403" lon="-0.27945">
        <ele>51.09</ele>
        <time>2016-10-08T08:56:27Z</time>
      </trkpt>
      <trkpt lat="44.95406" lon="-0.27954">
        <ele>51.57</ele>
        <time>2016-10-08T08:56:46Z</time>
      </trkpt>
      <trkpt lat="44.95405" lon="-0.27955">
        <ele>51.57</ele>
        <time>2016-10-08T08:57:14Z</time>
      </trkpt>
      <trkpt lat="44.95407" lon="-0.27956">
        <ele>51.57</ele>
        <time>2016-10-08T08:57:49Z</time>
      </trkpt>
      <trkpt lat="44.95401" lon="-0.27955">
        <ele>51.57</ele>
        <time>2016-10-08T08:58:17Z</time>
      </trkpt>
      <trkpt lat="44.95401" lon="-0.27957">
        <ele>51.57</ele>
        <time>2016-10-08T08:58:43Z</time>
      </trkpt>
      <trkpt lat="44.95404" lon="-0.27961">
        <ele>51.57</ele>
        <time>2016-10-08T08:59:16Z</time>
      </trkpt>
      <trkpt lat="44.95409" lon="-0.2796">
        <ele>52.05</ele>
        <time>2016-10-08T08:59:34Z</time>
      </trkpt>
      <trkpt lat="44.95415" lon="-0.27958">
        <ele>51.09</ele>
        <time>2016-10-08T08:59:39Z</time>
      </trkpt>
      <trkpt lat="44.95444" lon="-0.27956">
        <ele>53.01</ele>
        <time>2016-10-08T09:00:04Z</time>
      </trkpt>
      <trkpt lat="44.95467" lon="-0.27956">
        <ele>53.01</ele>
        <time>2016-10-08T09:00:24Z</time>
      </trkpt>
      <trkpt lat="44.9549" lon="-0.27955">
        <ele>53.01</ele>
        <time>2016-10-08T09:00:46Z</time>
      </trkpt>
      <trkpt lat="44.95516" lon="-0.27954">
        <ele>53.49</ele>
        <time>2016-10-08T09:01:08Z</time>
      </trkpt>
      <trkpt lat="44.95541" lon="-0.27958">
        <ele>52.53</ele>
        <time>2016-10-08T09:01:30Z</time>
      </trkpt>
      <trkpt lat="44.95566" lon="-0.27975">
        <ele>52.05</ele>
        <time>2016-10-08T09:01:53Z</time>
      </trkpt>
      <trkpt lat="44.9559" lon="-0.27989">
        <ele>53.49</ele>
        <time>2016-10-08T09:02:17Z</time>
      </trkpt>
      <trkpt lat="44.95596" lon="-0.27995">
        <ele>52.05</ele>
        <time>2016-10-08T09:02:35Z</time>
      </trkpt>
      <trkpt lat="44.95604" lon="-0.28003">
        <ele>53.49</ele>
        <time>2016-10-08T09:02:44Z</time>
      </trkpt>
      <trkpt lat="44.95613" lon="-0.28029">
        <ele>53.49</ele>
        <time>2016-10-08T09:03:02Z</time>
      </trkpt>
      <trkpt lat="44.95628" lon="-0.28056">
        <ele>53.49</ele>
        <time>2016-10-08T09:03:25Z</time>
      </trkpt>
      <trkpt lat="44.95644" lon="-0.28088">
        <ele>52.05</ele>
        <time>2016-10-08T09:03:47Z</time>
      </trkpt>
      <trkpt lat="44.95658" lon="-0.28114">
        <ele>51.57</ele>
        <time>2016-10-08T09:04:07Z</time>
      </trkpt>
      <trkpt lat="44.95674" lon="-0.28148">
        <ele>51.09</ele>
        <time>2016-10-08T09:04:29Z</time>
      </trkpt>
      <trkpt lat="44.95686" lon="-0.2818">
        <ele>50.61</ele>
        <time>2016-10-08T09:04:51Z</time>
      </trkpt>
      <trkpt lat="44.95701" lon="-0.28207">
        <ele>50.13</ele>
        <time>2016-10-08T09:05:10Z</time>
      </trkpt>
      <trkpt lat="44.95717" lon="-0.28236">
        <ele>49.65</ele>
        <time>2016-10-08T09:05:30Z</time>
      </trkpt>
      <trkpt lat="44.95719" lon="-0.28244">
        <ele>50.61</ele>
        <time>2016-10-08T09:05:35Z</time>
      </trkpt>
      <trkpt lat="44.95732" lon="-0.28241">
        <ele>51.57</ele>
        <time>2016-10-08T09:05:53Z</time>
      </trkpt>
      <trkpt lat="44.95749" lon="-0.28251">
        <ele>52.05</ele>
        <time>2016-10-08T09:06:12Z</time>
      </trkpt>
      <trkpt lat="44.95752" lon="-0.28251">
        <ele>52.05</ele>
        <time>2016-10-08T09:06:14Z</time>
      </trkpt>
      <trkpt lat="44.95779" lon="-0.28243">
        <ele>51.57</ele>
        <time>2016-10-08T09:06:36Z</time>
      </trkpt>
      <trkpt lat="44.95798" lon="-0.28219">
        <ele>51.09</ele>
        <time>2016-10-08T09:06:56Z</time>
      </trkpt>
      <trkpt lat="44.95821" lon="-0.28191">
        <ele>50.13</ele>
        <time>2016-10-08T09:07:20Z</time>
      </trkpt>
      <trkpt lat="44.95841" lon="-0.28175">
        <ele>48.68</ele>
        <time>2016-10-08T09:07:41Z</time>
      </trkpt>
      <trkpt lat="44.95853" lon="-0.28178">
        <ele>48.2</ele>
        <time>2016-10-08T09:08:02Z</time>
      </trkpt>
      <trkpt lat="44.95854" lon="-0.28183">
        <ele>48.2</ele>
        <time>2016-10-08T09:08:05Z</time>
      </trkpt>
      <trkpt lat="44.95858" lon="-0.28213">
        <ele>49.65</ele>
        <time>2016-10-08T09:08:23Z</time>
      </trkpt>
      <trkpt lat="44.95858" lon="-0.28216">
        <ele>48.2</ele>
        <time>2016-10-08T09:08:25Z</time>
      </trkpt>
      <trkpt lat="44.95859" lon="-0.28219">
        <ele>49.65</ele>
        <time>2016-10-08T09:08:27Z</time>
      </trkpt>
      <trkpt lat="44.95863" lon="-0.28236">
        <ele>50.13</ele>
        <time>2016-10-08T09:08:40Z</time>
      </trkpt>
      <trkpt lat="44.95872" lon="-0.28269">
        <ele>50.13</ele>
        <time>2016-10-08T09:09:01Z</time>
      </trkpt>
      <trkpt lat="44.95879" lon="-0.28295">
        <ele>49.65</ele>
        <time>2016-10-08T09:09:17Z</time>
      </trkpt>
      <trkpt lat="44.95887" lon="-0.28326">
        <ele>49.65</ele>
        <time>2016-10-08T09:09:35Z</time>
      </trkpt>
      <trkpt lat="44.95897" lon="-0.28357">
        <ele>49.65</ele>
        <time>2016-10-08T09:09:55Z</time>
      </trkpt>
      <trkpt lat="44.9591" lon="-0.28393">
        <ele>51.09</ele>
        <time>2016-10-08T09:10:18Z</time>
      </trkpt>
      <trkpt lat="44.95913" lon="-0.28417">
        <ele>50.13</ele>
        <time>2016-10-08T09:10:34Z</time>
      </trkpt>
      <trkpt lat="44.95921" lon="-0.28448">
        <ele>50.13</ele>
        <time>2016-10-08T09:10:54Z</time>
      </trkpt>
      <trkpt lat="44.95929" lon="-0.28478">
        <ele>50.61</ele>
        <time>2016-10-08T09:11:12Z</time>
      </trkpt>
      <trkpt lat="44.95937" lon="-0.28505">
        <ele>50.13</ele>
        <time>2016-10-08T09:11:30Z</time>
      </trkpt>
      <trkpt lat="44.95953" lon="-0.28536">
        <ele>50.13</ele>
        <time>2016-10-08T09:11:51Z</time>
      </trkpt>
      <trkpt lat="44.95971" lon="-0.28551">
        <ele>49.16</ele>
        <time>2016-10-08T09:12:11Z</time>
      </trkpt>
      <trkpt lat="44.95997" lon="-0.28547">
        <ele>45.8</ele>
        <time>2016-10-08T09:12:32Z</time>
      </trkpt>
      <trkpt lat="44.96015" lon="-0.28568">
        <ele>42.44</ele>
        <time>2016-10-08T09:12:51Z</time>
      </trkpt>
      <trkpt lat="44.96034" lon="-0.28585">
        <ele>39.55</ele>
        <time>2016-10-08T09:13:10Z</time>
      </trkpt>
      <trkpt lat="44.96054" lon="-0.28606">
        <ele>35.71</ele>
        <time>2016-10-08T09:13:33Z</time>
      </trkpt>
      <trkpt lat="44.96084" lon="-0.2862">
        <ele>33.3</ele>
        <time>2016-10-08T09:13:55Z</time>
      </trkpt>
      <trkpt lat="44.96106" lon="-0.28618">
        <ele>29.94</ele>
        <time>2016-10-08T09:14:17Z</time>
      </trkpt>
      <trkpt lat="44.9612" lon="-0.28633">
        <ele>29.46</ele>
        <time>2016-10-08T09:14:37Z</time>
      </trkpt>
      <trkpt lat="44.96138" lon="-0.2866">
        <ele>28.02</ele>
        <time>2016-10-08T09:15:00Z</time>
      </trkpt>
      <trkpt lat="44.96168" lon="-0.2867">
        <ele>27.05</ele>
        <time>2016-10-08T09:15:22Z</time>
      </trkpt>
      <trkpt lat="44.96196" lon="-0.28676">
        <ele>27.53</ele>
        <time>2016-10-08T09:15:43Z</time>
      </trkpt>
      <trkpt lat="44.96225" lon="-0.28678">
        <ele>27.53</ele>
        <time>2016-10-08T09:16:06Z</time>
      </trkpt>
      <trkpt lat="44.96253" lon="-0.28679">
        <ele>27.53</ele>
        <time>2016-10-08T09:16:28Z</time>
      </trkpt>
      <trkpt lat="44.9628" lon="-0.28666">
        <ele>28.5</ele>
        <time>2016-10-08T09:16:52Z</time>
      </trkpt>
      <trkpt lat="44.96303" lon="-0.28653">
        <ele>27.53</ele>
        <time>2016-10-08T09:17:13Z</time>
      </trkpt>
      <trkpt lat="44.96334" lon="-0.28646">
        <ele>27.05</ele>
        <time>2016-10-08T09:17:37Z</time>
      </trkpt>
      <trkpt lat="44.96362" lon="-0.28646">
        <ele>27.05</ele>
        <time>2016-10-08T09:18:01Z</time>
      </trkpt>
      <trkpt lat="44.9639" lon="-0.28644">
        <ele>26.57</ele>
        <time>2016-10-08T09:18:23Z</time>
      </trkpt>
      <trkpt lat="44.96398" lon="-0.28641">
        <ele>27.53</ele>
        <time>2016-10-08T09:18:28Z</time>
      </trkpt>
      <trkpt lat="44.9641" lon="-0.28637">
        <ele>26.09</ele>
        <time>2016-10-08T09:18:36Z</time>
      </trkpt>
      <trkpt lat="44.96434" lon="-0.2861">
        <ele>25.61</ele>
        <time>2016-10-08T09:19:00Z</time>
      </trkpt>
      <trkpt lat="44.96456" lon="-0.28584">
        <ele>25.61</ele>
        <time>2016-10-08T09:19:23Z</time>
      </trkpt>
      <trkpt lat="44.96475" lon="-0.28549">
        <ele>24.65</ele>
        <time>2016-10-08T09:19:46Z</time>
      </trkpt>
      <trkpt lat="44.96487" lon="-0.28518">
        <ele>23.69</ele>
        <time>2016-10-08T09:20:05Z</time>
      </trkpt>
      <trkpt lat="44.96502" lon="-0.28489">
        <ele>22.73</ele>
        <time>2016-10-08T09:20:26Z</time>
      </trkpt>
      <trkpt lat="44.96516" lon="-0.2846">
        <ele>22.25</ele>
        <time>2016-10-08T09:20:46Z</time>
      </trkpt>
      <trkpt lat="44.96522" lon="-0.28446">
        <ele>21.77</ele>
        <time>2016-10-08T09:20:57Z</time>
      </trkpt>
      <trkpt lat="44.96548" lon="-0.28416">
        <ele>21.29</ele>
        <time>2016-10-08T09:21:22Z</time>
      </trkpt>
      <trkpt lat="44.96566" lon="-0.28385">
        <ele>20.32</ele>
        <time>2016-10-08T09:21:46Z</time>
      </trkpt>
      <trkpt lat="44.96585" lon="-0.28353">
        <ele>18.88</ele>
        <time>2016-10-08T09:22:10Z</time>
      </trkpt>
      <trkpt lat="44.96603" lon="-0.28343">
        <ele>17.92</ele>
        <time>2016-10-08T09:22:30Z</time>
      </trkpt>
      <trkpt lat="44.96628" lon="-0.28336">
        <ele>17.92</ele>
        <time>2016-10-08T09:22:53Z</time>
      </trkpt>
      <trkpt lat="44.96632" lon="-0.28325">
        <ele>17.44</ele>
        <time>2016-10-08T09:23:16Z</time>
      </trkpt>
      <trkpt lat="44.96644" lon="-0.2833">
        <ele>18.88</ele>
        <time>2016-10-08T09:23:37Z</time>
      </trkpt>
      <trkpt lat="44.96654" lon="-0.28346">
        <ele>20.32</ele>
        <time>2016-10-08T09:23:57Z</time>
      </trkpt>
      <trkpt lat="44.96668" lon="-0.28365">
        <ele>20.81</ele>
        <time>2016-10-08T09:24:17Z</time>
      </trkpt>
      <trkpt lat="44.96673" lon="-0.28373">
        <ele>21.77</ele>
        <time>2016-10-08T09:24:24Z</time>
      </trkpt>
      <trkpt lat="44.96703" lon="-0.28374">
        <ele>24.17</ele>
        <time>2016-10-08T09:24:46Z</time>
      </trkpt>
      <trkpt lat="44.96711" lon="-0.28374">
        <ele>24.65</ele>
        <time>2016-10-08T09:24:52Z</time>
      </trkpt>
      <trkpt lat="44.96719" lon="-0.28372">
        <ele>24.65</ele>
        <time>2016-10-08T09:24:58Z</time>
      </trkpt>
      <trkpt lat="44.96743" lon="-0.28365">
        <ele>26.57</ele>
        <time>2016-10-08T09:25:19Z</time>
      </trkpt>
      <trkpt lat="44.9677" lon="-0.28363">
        <ele>28.5</ele>
        <time>2016-10-08T09:25:40Z</time>
      </trkpt>
      <trkpt lat="44.96796" lon="-0.28375">
        <ele>30.9</ele>
        <time>2016-10-08T09:26:04Z</time>
      </trkpt>
      <trkpt lat="44.96808" lon="-0.28408">
        <ele>32.82</ele>
        <time>2016-10-08T09:26:26Z</time>
      </trkpt>
      <trkpt lat="44.96818" lon="-0.28448">
        <ele>34.74</ele>
        <time>2016-10-08T09:26:52Z</time>
      </trkpt>
      <trkpt lat="44.96818" lon="-0.28473">
        <ele>36.19</ele>
        <time>2016-10-08T09:27:11Z</time>
      </trkpt>
      <trkpt lat="44.96825" lon="-0.28509">
        <ele>38.59</ele>
        <time>2016-10-08T09:27:35Z</time>
      </trkpt>
      <trkpt lat="44.96823" lon="-0.28547">
        <ele>39.55</ele>
        <time>2016-10-08T09:27:57Z</time>
      </trkpt>
      <trkpt lat="44.96824" lon="-0.2857">
        <ele>40.51</ele>
        <time>2016-10-08T09:28:12Z</time>
      </trkpt>
      <trkpt lat="44.96823" lon="-0.28608">
        <ele>40.99</ele>
        <time>2016-10-08T09:28:35Z</time>
      </trkpt>
      <trkpt lat="44.96822" lon="-0.28638">
        <ele>40.99</ele>
        <time>2016-10-08T09:28:54Z</time>
      </trkpt>
      <trkpt lat="44.96819" lon="-0.28671">
        <ele>41.95</ele>
        <time>2016-10-08T09:29:14Z</time>
      </trkpt>
      <trkpt lat="44.96819" lon="-0.28706">
        <ele>42.92</ele>
        <time>2016-10-08T09:29:35Z</time>
      </trkpt>
      <trkpt lat="44.96819" lon="-0.28734">
        <ele>42.92</ele>
        <time>2016-10-08T09:29:54Z</time>
      </trkpt>
      <trkpt lat="44.96821" lon="-0.28767">
        <ele>43.4</ele>
        <time>2016-10-08T09:30:13Z</time>
      </trkpt>
      <trkpt lat="44.96826" lon="-0.28804">
        <ele>43.88</ele>
        <time>2016-10-08T09:30:34Z</time>
      </trkpt>
      <trkpt lat="44.9683" lon="-0.28836">
        <ele>43.88</ele>
        <time>2016-10-08T09:30:52Z</time>
      </trkpt>
      <trkpt lat="44.96832" lon="-0.28864">
        <ele>44.36</ele>
        <time>2016-10-08T09:31:11Z</time>
      </trkpt>
      <trkpt lat="44.96835" lon="-0.28895">
        <ele>44.36</ele>
        <time>2016-10-08T09:31:30Z</time>
      </trkpt>
      <trkpt lat="44.96839" lon="-0.28936">
        <ele>44.36</ele>
        <time>2016-10-08T09:31:52Z</time>
      </trkpt>
      <trkpt lat="44.96841" lon="-0.28963">
        <ele>44.36</ele>
        <time>2016-10-08T09:32:09Z</time>
      </trkpt>
      <trkpt lat="44.96849" lon="-0.28993">
        <ele>44.36</ele>
        <time>2016-10-08T09:32:27Z</time>
      </trkpt>
      <trkpt lat="44.96856" lon="-0.29026">
        <ele>43.4</ele>
        <time>2016-10-08T09:32:47Z</time>
      </trkpt>
      <trkpt lat="44.96833" lon="-0.29035">
        <ele>44.36</ele>
        <time>2016-10-08T09:33:08Z</time>
      </trkpt>
      <trkpt lat="44.9682" lon="-0.29049">
        <ele>44.84</ele>
        <time>2016-10-08T09:33:23Z</time>
      </trkpt>
      <trkpt lat="44.96797" lon="-0.29062">
        <ele>45.32</ele>
        <time>2016-10-08T09:33:45Z</time>
      </trkpt>
      <trkpt lat="44.96772" lon="-0.2907">
        <ele>45.32</ele>
        <time>2016-10-08T09:34:09Z</time>
      </trkpt>
      <trkpt lat="44.96747" lon="-0.29085">
        <ele>45.8</ele>
        <time>2016-10-08T09:34:34Z</time>
      </trkpt>
      <trkpt lat="44.96724" lon="-0.29101">
        <ele>46.28</ele>
        <time>2016-10-08T09:34:57Z</time>
      </trkpt>
      <trkpt lat="44.96702" lon="-0.29115">
        <ele>46.76</ele>
        <time>2016-10-08T09:35:18Z</time>
      </trkpt>
      <trkpt lat="44.9668" lon="-0.29134">
        <ele>47.24</ele>
        <time>2016-10-08T09:35:40Z</time>
      </trkpt>
      <trkpt lat="44.96658" lon="-0.29152">
        <ele>48.2</ele>
        <time>2016-10-08T09:36:01Z</time>
      </trkpt>
      <trkpt lat="44.96638" lon="-0.29169">
        <ele>47.72</ele>
        <time>2016-10-08T09:36:24Z</time>
      </trkpt>
      <trkpt lat="44.96629" lon="-0.29175">
        <ele>47.72</ele>
        <time>2016-10-08T09:36:31Z</time>
      </trkpt>
      <trkpt lat="44.96603" lon="-0.29189">
        <ele>47.72</ele>
        <time>2016-10-08T09:36:55Z</time>
      </trkpt>
      <trkpt lat="44.96601" lon="-0.2919">
        <ele>46.76</ele>
        <time>2016-10-08T09:36:57Z</time>
      </trkpt>
      <trkpt lat="44.96576" lon="-0.29199">
        <ele>47.72</ele>
        <time>2016-10-08T09:37:18Z</time>
      </trkpt>
      <trkpt lat="44.96551" lon="-0.2921">
        <ele>48.2</ele>
        <time>2016-10-08T09:37:39Z</time>
      </trkpt>
      <trkpt lat="44.96532" lon="-0.2923">
        <ele>49.16</ele>
        <time>2016-10-08T09:37:59Z</time>
      </trkpt>
      <trkpt lat="44.96531" lon="-0.29244">
        <ele>50.13</ele>
        <time>2016-10-08T09:38:08Z</time>
      </trkpt>
      <trkpt lat="44.9654" lon="-0.29276">
        <ele>50.13</ele>
        <time>2016-10-08T09:38:26Z</time>
      </trkpt>
      <trkpt lat="44.96554" lon="-0.29308">
        <ele>50.61</ele>
        <time>2016-10-08T09:38:47Z</time>
      </trkpt>
      <trkpt lat="44.96566" lon="-0.29337">
        <ele>49.16</ele>
        <time>2016-10-08T09:39:08Z</time>
      </trkpt>
      <trkpt lat="44.96575" lon="-0.29367">
        <ele>49.16</ele>
        <time>2016-10-08T09:39:27Z</time>
      </trkpt>
      <trkpt lat="44.96577" lon="-0.29374">
        <ele>50.61</ele>
        <time>2016-10-08T09:39:32Z</time>
      </trkpt>
      <trkpt lat="44.96579" lon="-0.29379">
        <ele>49.16</ele>
        <time>2016-10-08T09:39:35Z</time>
      </trkpt>
      <trkpt lat="44.96588" lon="-0.29405">
        <ele>47.24</ele>
        <time>2016-10-08T09:39:54Z</time>
      </trkpt>
      <trkpt lat="44.96599" lon="-0.29432">
        <ele>43.88</ele>
        <time>2016-10-08T09:40:13Z</time>
      </trkpt>
      <trkpt lat="44.96607" lon="-0.29453">
        <ele>40.51</ele>
        <time>2016-10-08T09:40:30Z</time>
      </trkpt>
      <trkpt lat="44.96619" lon="-0.29475">
        <ele>38.59</ele>
        <time>2016-10-08T09:40:48Z</time>
      </trkpt>
      <trkpt lat="44.96633" lon="-0.29469">
        <ele>37.63</ele>
        <time>2016-10-08T09:41:01Z</time>
      </trkpt>
      <trkpt lat="44.96662" lon="-0.29459">
        <ele>37.15</ele>
        <time>2016-10-08T09:41:25Z</time>
      </trkpt>
      <trkpt lat="44.96692" lon="-0.2945">
        <ele>36.19</ele>
        <time>2016-10-08T09:41:49Z</time>
      </trkpt>
      <trkpt lat="44.9672" lon="-0.29455">
        <ele>35.23</ele>
        <time>2016-10-08T09:42:12Z</time>
      </trkpt>
      <trkpt lat="44.96746" lon="-0.2945">
        <ele>34.26</ele>
        <time>2016-10-08T09:42:33Z</time>
      </trkpt>
      <trkpt lat="44.96771" lon="-0.29446">
        <ele>34.26</ele>
        <time>2016-10-08T09:42:52Z</time>
      </trkpt>
      <trkpt lat="44.96779" lon="-0.29446">
        <ele>35.71</ele>
        <time>2016-10-08T09:42:59Z</time>
      </trkpt>
      <trkpt lat="44.96782" lon="-0.29446">
        <ele>33.78</ele>
        <time>2016-10-08T09:43:02Z</time>
      </trkpt>
      <trkpt lat="44.96798" lon="-0.2945">
        <ele>35.23</ele>
        <time>2016-10-08T09:43:16Z</time>
      </trkpt>
      <trkpt lat="44.96809" lon="-0.29454">
        <ele>35.23</ele>
        <time>2016-10-08T09:43:26Z</time>
      </trkpt>
      <trkpt lat="44.96836" lon="-0.29454">
        <ele>35.23</ele>
        <time>2016-10-08T09:43:45Z</time>
      </trkpt>
      <trkpt lat="44.96857" lon="-0.29452">
        <ele>35.23</ele>
        <time>2016-10-08T09:44:05Z</time>
      </trkpt>
      <trkpt lat="44.96886" lon="-0.29445">
        <ele>36.19</ele>
        <time>2016-10-08T09:44:30Z</time>
      </trkpt>
      <trkpt lat="44.969" lon="-0.29436">
        <ele>35.71</ele>
        <time>2016-10-08T09:44:42Z</time>
      </trkpt>
      <trkpt lat="44.96919" lon="-0.29419">
        <ele>34.74</ele>
        <time>2016-10-08T09:44:59Z</time>
      </trkpt>
      <trkpt lat="44.96932" lon="-0.29389">
        <ele>33.78</ele>
        <time>2016-10-08T09:45:21Z</time>
      </trkpt>
      <trkpt lat="44.96946" lon="-0.29367">
        <ele>33.78</ele>
        <time>2016-10-08T09:45:38Z</time>
      </trkpt>
      <trkpt lat="44.96972" lon="-0.29336">
        <ele>33.78</ele>
        <time>2016-10-08T09:46:01Z</time>
      </trkpt>
      <trkpt lat="44.9699" lon="-0.29314">
        <ele>32.82</ele>
        <time>2016-10-08T09:46:21Z</time>
      </trkpt>
      <trkpt lat="44.97017" lon="-0.29289">
        <ele>32.34</ele>
        <time>2016-10-08T09:46:47Z</time>
      </trkpt>
      <trkpt lat="44.97036" lon="-0.29292">
        <ele>30.42</ele>
        <time>2016-10-08T09:47:09Z</time>
      </trkpt>
      <trkpt lat="44.97037" lon="-0.2929">
        <ele>29.94</ele>
        <time>2016-10-08T09:47:32Z</time>
      </trkpt>
      <trkpt lat="44.97043" lon="-0.29285">
        <ele>29.94</ele>
        <time>2016-10-08T09:47:55Z</time>
      </trkpt>
      <trkpt lat="44.97039" lon="-0.29286">
        <ele>29.94</ele>
        <time>2016-10-08T09:48:24Z</time>
      </trkpt>
      <trkpt lat="44.97041" lon="-0.2929">
        <ele>29.94</ele>
        <time>2016-10-08T09:48:45Z</time>
      </trkpt>
      <trkpt lat="44.97048" lon="-0.29286">
        <ele>29.94</ele>
        <time>2016-10-08T09:49:09Z</time>
      </trkpt>
      <trkpt lat="44.97051" lon="-0.2929">
        <ele>29.94</ele>
        <time>2016-10-08T09:49:13Z</time>
      </trkpt>
      <trkpt lat="44.97059" lon="-0.29311">
        <ele>27.53</ele>
        <time>2016-10-08T09:49:30Z</time>
      </trkpt>
      <trkpt lat="44.97076" lon="-0.29314">
        <ele>27.53</ele>
        <time>2016-10-08T09:49:50Z</time>
      </trkpt>
      <trkpt lat="44.97081" lon="-0.29309">
        <ele>27.05</ele>
        <time>2016-10-08T09:50:07Z</time>
      </trkpt>
      <trkpt lat="44.97094" lon="-0.29302">
        <ele>26.57</ele>
        <time>2016-10-08T09:50:25Z</time>
      </trkpt>
      <trkpt lat="44.97101" lon="-0.29298">
        <ele>26.57</ele>
        <time>2016-10-08T09:50:41Z</time>
      </trkpt>
      <trkpt lat="44.97109" lon="-0.29292">
        <ele>26.09</ele>
        <time>2016-10-08T09:50:52Z</time>
      </trkpt>
      <trkpt lat="44.97118" lon="-0.2929">
        <ele>26.09</ele>
        <time>2016-10-08T09:51:01Z</time>
      </trkpt>
      <trkpt lat="44.97131" lon="-0.29284">
        <ele>25.61</ele>
        <time>2016-10-08T09:51:17Z</time>
      </trkpt>
      <trkpt lat="44.97145" lon="-0.2928">
        <ele>24.65</ele>
        <time>2016-10-08T09:51:30Z</time>
      </trkpt>
      <trkpt lat="44.97154" lon="-0.29274">
        <ele>26.09</ele>
        <time>2016-10-08T09:51:38Z</time>
      </trkpt>
      <trkpt lat="44.97158" lon="-0.29273">
        <ele>24.65</ele>
        <time>2016-10-08T09:51:41Z</time>
      </trkpt>
      <trkpt lat="44.97176" lon="-0.29264">
        <ele>24.65</ele>
        <time>2016-10-08T09:51:56Z</time>
      </trkpt>
      <trkpt lat="44.97186" lon="-0.2926">
        <ele>25.61</ele>
        <time>2016-10-08T09:52:05Z</time>
      </trkpt>
      <trkpt lat="44.97206" lon="-0.29253">
        <ele>25.61</ele>
        <time>2016-10-08T09:52:21Z</time>
      </trkpt>
      <trkpt lat="44.97226" lon="-0.29244">
        <ele>25.61</ele>
        <time>2016-10-08T09:52:37Z</time>
      </trkpt>
      <trkpt lat="44.97233" lon="-0.29242">
        <ele>24.65</ele>
        <time>2016-10-08T09:52:42Z</time>
      </trkpt>
      <trkpt lat="44.97251" lon="-0.29238">
        <ele>26.09</ele>
        <time>2016-10-08T09:52:56Z</time>
      </trkpt>
      <trkpt lat="44.97268" lon="-0.29231">
        <ele>26.09</ele>
        <time>2016-10-08T09:53:11Z</time>
      </trkpt>
      <trkpt lat="44.97281" lon="-0.29222">
        <ele>26.09</ele>
        <time>2016-10-08T09:53:22Z</time>
      </trkpt>
      <trkpt lat="44.97295" lon="-0.29201">
        <ele>28.02</ele>
        <time>2016-10-08T09:53:41Z</time>
      </trkpt>
      <trkpt lat="44.97306" lon="-0.29188">
        <ele>29.46</ele>
        <time>2016-10-08T09:53:53Z</time>
      </trkpt>
      <trkpt lat="44.97317" lon="-0.29174">
        <ele>28.5</ele>
        <time>2016-10-08T09:54:06Z</time>
      </trkpt>
      <trkpt lat="44.97319" lon="-0.29173">
        <ele>29.94</ele>
        <time>2016-10-08T09:54:08Z</time>
      </trkpt>
      <trkpt lat="44.97324" lon="-0.29152">
        <ele>31.38</ele>
        <time>2016-10-08T09:54:22Z</time>
      </trkpt>
      <trkpt lat="44.97315" lon="-0.29127">
        <ele>32.82</ele>
        <time>2016-10-08T09:54:38Z</time>
      </trkpt>
      <trkpt lat="44.97313" lon="-0.29124">
        <ele>31.38</ele>
        <time>2016-10-08T09:54:40Z</time>
      </trkpt>
      <trkpt lat="44.97306" lon="-0.29111">
        <ele>32.82</ele>
        <time>2016-10-08T09:54:50Z</time>
      </trkpt>
      <trkpt lat="44.97297" lon="-0.2909">
        <ele>33.78</ele>
        <time>2016-10-08T09:55:05Z</time>
      </trkpt>
      <trkpt lat="44.97294" lon="-0.29082">
        <ele>32.34</ele>
        <time>2016-10-08T09:55:11Z</time>
      </trkpt>
      <trkpt lat="44.97292" lon="-0.2908">
        <ele>33.78</ele>
        <time>2016-10-08T09:55:13Z</time>
      </trkpt>
      <trkpt lat="44.97283" lon="-0.29057">
        <ele>34.74</ele>
        <time>2016-10-08T09:55:32Z</time>
      </trkpt>
      <trkpt lat="44.97275" lon="-0.29041">
        <ele>35.23</ele>
        <time>2016-10-08T09:55:45Z</time>
      </trkpt>
      <trkpt lat="44.9727" lon="-0.29026">
        <ele>36.19</ele>
        <time>2016-10-08T09:55:56Z</time>
      </trkpt>
      <trkpt lat="44.97269" lon="-0.29026">
        <ele>36.19</ele>
        <time>2016-10-08T09:56:19Z</time>
      </trkpt>
      <trkpt lat="44.97268" lon="-0.29023">
        <ele>37.63</ele>
        <time>2016-10-08T09:56:26Z</time>
      </trkpt>
      <trkpt lat="44.97269" lon="-0.29014">
        <ele>37.63</ele>
        <time>2016-10-08T09:56:33Z</time>
      </trkpt>
      <trkpt lat="44.97274" lon="-0.29008">
        <ele>37.15</ele>
        <time>2016-10-08T09:56:38Z</time>
      </trkpt>
      <trkpt lat="44.97289" lon="-0.28991">
        <ele>38.11</ele>
        <time>2016-10-08T09:56:53Z</time>
      </trkpt>
      <trkpt lat="44.97305" lon="-0.28971">
        <ele>38.11</ele>
        <time>2016-10-08T09:57:10Z</time>
      </trkpt>
      <trkpt lat="44.97323" lon="-0.2896">
        <ele>38.11</ele>
        <time>2016-10-08T09:57:26Z</time>
      </trkpt>
      <trkpt lat="44.97337" lon="-0.28951">
        <ele>36.67</ele>
        <time>2016-10-08T09:57:39Z</time>
      </trkpt>
      <trkpt lat="44.97357" lon="-0.28937">
        <ele>36.67</ele>
        <time>2016-10-08T09:57:57Z</time>
      </trkpt>
      <trkpt lat="44.97366" lon="-0.28927">
        <ele>38.11</ele>
        <time>2016-10-08T09:58:08Z</time>
      </trkpt>
      <trkpt lat="44.97384" lon="-0.28924">
        <ele>38.11</ele>
        <time>2016-10-08T09:58:25Z</time>
      </trkpt>
      <trkpt lat="44.97405" lon="-0.28928">
        <ele>38.11</ele>
        <time>2016-10-08T09:58:44Z</time>
      </trkpt>
      <trkpt lat="44.97407" lon="-0.28928">
        <ele>38.11</ele>
        <time>2016-10-08T09:58:46Z</time>
      </trkpt>
      <trkpt lat="44.97434" lon="-0.28929">
        <ele>39.07</ele>
        <time>2016-10-08T09:59:09Z</time>
      </trkpt>
      <trkpt lat="44.97447" lon="-0.28927">
        <ele>37.63</ele>
        <time>2016-10-08T09:59:20Z</time>
      </trkpt>
      <trkpt lat="44.97465" lon="-0.28921">
        <ele>36.67</ele>
        <time>2016-10-08T09:59:36Z</time>
      </trkpt>
      <trkpt lat="44.97479" lon="-0.28908">
        <ele>36.67</ele>
        <time>2016-10-08T09:59:50Z</time>
      </trkpt>
      <trkpt lat="44.97493" lon="-0.28899">
        <ele>35.71</ele>
        <time>2016-10-08T10:00:05Z</time>
      </trkpt>
      <trkpt lat="44.97504" lon="-0.28886">
        <ele>34.74</ele>
        <time>2016-10-08T10:00:20Z</time>
      </trkpt>
      <trkpt lat="44.97504" lon="-0.28883">
        <ele>34.74</ele>
        <time>2016-10-08T10:00:22Z</time>
      </trkpt>
      <trkpt lat="44.975" lon="-0.28875">
        <ele>34.74</ele>
        <time>2016-10-08T10:00:27Z</time>
      </trkpt>
      <trkpt lat="44.97496" lon="-0.28865">
        <ele>36.19</ele>
        <time>2016-10-08T10:00:35Z</time>
      </trkpt>
      <trkpt lat="44.97489" lon="-0.28847">
        <ele>37.63</ele>
        <time>2016-10-08T10:00:49Z</time>
      </trkpt>
      <trkpt lat="44.97489" lon="-0.28845">
        <ele>36.19</ele>
        <time>2016-10-08T10:00:51Z</time>
      </trkpt>
      <trkpt lat="44.97486" lon="-0.28837">
        <ele>37.63</ele>
        <time>2016-10-08T10:00:56Z</time>
      </trkpt>
      <trkpt lat="44.97482" lon="-0.28827">
        <ele>38.11</ele>
        <time>2016-10-08T10:01:03Z</time>
      </trkpt>
      <trkpt lat="44.97473" lon="-0.28807">
        <ele>38.59</ele>
        <time>2016-10-08T10:01:18Z</time>
      </trkpt>
      <trkpt lat="44.97464" lon="-0.28781">
        <ele>40.03</ele>
        <time>2016-10-08T10:01:35Z</time>
      </trkpt>
      <trkpt lat="44.97455" lon="-0.28757">
        <ele>40.03</ele>
        <time>2016-10-08T10:01:52Z</time>
      </trkpt>
      <trkpt lat="44.97454" lon="-0.28751">
        <ele>40.99</ele>
        <time>2016-10-08T10:01:56Z</time>
      </trkpt>
      <trkpt lat="44.97444" lon="-0.28728">
        <ele>40.99</ele>
        <time>2016-10-08T10:02:12Z</time>
      </trkpt>
      <trkpt lat="44.97439" lon="-0.28707">
        <ele>42.44</ele>
        <time>2016-10-08T10:02:26Z</time>
      </trkpt>
      <trkpt lat="44.97426" lon="-0.28677">
        <ele>42.44</ele>
        <time>2016-10-08T10:02:47Z</time>
      </trkpt>
      <trkpt lat="44.97439" lon="-0.28654">
        <ele>41.95</ele>
        <time>2016-10-08T10:03:00Z</time>
      </trkpt>
      <trkpt lat="44.97451" lon="-0.28646">
        <ele>43.4</ele>
        <time>2016-10-08T10:03:11Z</time>
      </trkpt>
      <trkpt lat="44.97467" lon="-0.28629">
        <ele>42.44</ele>
        <time>2016-10-08T10:03:27Z</time>
      </trkpt>
      <trkpt lat="44.97469" lon="-0.28627">
        <ele>43.4</ele>
        <time>2016-10-08T10:03:29Z</time>
      </trkpt>
      <trkpt lat="44.97481" lon="-0.28617">
        <ele>41.95</ele>
        <time>2016-10-08T10:03:40Z</time>
      </trkpt>
      <trkpt lat="44.97502" lon="-0.28604">
        <ele>40.99</ele>
        <time>2016-10-08T10:03:57Z</time>
      </trkpt>
      <trkpt lat="44.97504" lon="-0.28603">
        <ele>42.44</ele>
        <time>2016-10-08T10:03:59Z</time>
      </trkpt>
      <trkpt lat="44.97509" lon="-0.28601">
        <ele>40.99</ele>
        <time>2016-10-08T10:04:03Z</time>
      </trkpt>
      <trkpt lat="44.97528" lon="-0.28588">
        <ele>40.51</ele>
        <time>2016-10-08T10:04:19Z</time>
      </trkpt>
      <trkpt lat="44.97554" lon="-0.28576">
        <ele>40.03</ele>
        <time>2016-10-08T10:04:40Z</time>
      </trkpt>
      <trkpt lat="44.97564" lon="-0.28576">
        <ele>40.51</ele>
        <time>2016-10-08T10:04:50Z</time>
      </trkpt>
      <trkpt lat="44.97564" lon="-0.28579">
        <ele>39.55</ele>
        <time>2016-10-08T10:04:52Z</time>
      </trkpt>
      <trkpt lat="44.97566" lon="-0.28573">
        <ele>39.55</ele>
        <time>2016-10-08T10:05:14Z</time>
      </trkpt>
      <trkpt lat="44.97564" lon="-0.28575">
        <ele>39.55</ele>
        <time>2016-10-08T10:05:31Z</time>
      </trkpt>
      <trkpt lat="44.97562" lon="-0.28577">
        <ele>40.99</ele>
        <time>2016-10-08T10:05:33Z</time>
      </trkpt>
      <trkpt lat="44.9756" lon="-0.28577">
        <ele>40.99</ele>
        <time>2016-10-08T10:05:35Z</time>
      </trkpt>
      <trkpt lat="44.97564" lon="-0.28566">
        <ele>39.55</ele>
        <time>2016-10-08T10:05:40Z</time>
      </trkpt>
      <trkpt lat="44.97568" lon="-0.2856">
        <ele>40.99</ele>
        <time>2016-10-08T10:05:43Z</time>
      </trkpt>
      <trkpt lat="44.97572" lon="-0.28555">
        <ele>39.55</ele>
        <time>2016-10-08T10:05:47Z</time>
      </trkpt>
      <trkpt lat="44.9759" lon="-0.28536">
        <ele>40.03</ele>
        <time>2016-10-08T10:06:02Z</time>
      </trkpt>
      <trkpt lat="44.97614" lon="-0.28515">
        <ele>38.59</ele>
        <time>2016-10-08T10:06:20Z</time>
      </trkpt>
      <trkpt lat="44.97615" lon="-0.28513">
        <ele>38.59</ele>
        <time>2016-10-08T10:06:21Z</time>
      </trkpt>
      <trkpt lat="44.9763" lon="-0.285">
        <ele>38.11</ele>
        <time>2016-10-08T10:06:33Z</time>
      </trkpt>
      <trkpt lat="44.97632" lon="-0.28498">
        <ele>40.03</ele>
        <time>2016-10-08T10:06:35Z</time>
      </trkpt>
      <trkpt lat="44.97638" lon="-0.28493">
        <ele>38.59</ele>
        <time>2016-10-08T10:06:39Z</time>
      </trkpt>
      <trkpt lat="44.9764" lon="-0.28491">
        <ele>40.03</ele>
        <time>2016-10-08T10:06:41Z</time>
      </trkpt>
      <trkpt lat="44.97659" lon="-0.28473">
        <ele>39.55</ele>
        <time>2016-10-08T10:06:56Z</time>
      </trkpt>
      <trkpt lat="44.97682" lon="-0.28453">
        <ele>39.55</ele>
        <time>2016-10-08T10:07:15Z</time>
      </trkpt>
      <trkpt lat="44.97691" lon="-0.28452">
        <ele>38.11</ele>
        <time>2016-10-08T10:07:22Z</time>
      </trkpt>
      <trkpt lat="44.97698" lon="-0.28464">
        <ele>39.55</ele>
        <time>2016-10-08T10:07:29Z</time>
      </trkpt>
      <trkpt lat="44.97701" lon="-0.28468">
        <ele>38.11</ele>
        <time>2016-10-08T10:07:32Z</time>
      </trkpt>
      <trkpt lat="44.9772" lon="-0.28495">
        <ele>37.15</ele>
        <time>2016-10-08T10:07:51Z</time>
      </trkpt>
      <trkpt lat="44.97735" lon="-0.28514">
        <ele>38.59</ele>
        <time>2016-10-08T10:08:09Z</time>
      </trkpt>
      <trkpt lat="44.97745" lon="-0.28528">
        <ele>37.15</ele>
        <time>2016-10-08T10:08:20Z</time>
      </trkpt>
      <trkpt lat="44.97753" lon="-0.28536">
        <ele>38.11</ele>
        <time>2016-10-08T10:08:27Z</time>
      </trkpt>
      <trkpt lat="44.97771" lon="-0.28547">
        <ele>34.26</ele>
        <time>2016-10-08T10:08:44Z</time>
      </trkpt>
      <trkpt lat="44.97772" lon="-0.28548">
        <ele>38.11</ele>
        <time>2016-10-08T10:08:45Z</time>
      </trkpt>
      <trkpt lat="44.97777" lon="-0.2855">
        <ele>36.19</ele>
        <time>2016-10-08T10:08:49Z</time>
      </trkpt>
      <trkpt lat="44.97802" lon="-0.28557">
        <ele>37.15</ele>
        <time>2016-10-08T10:09:10Z</time>
      </trkpt>
      <trkpt lat="44.97826" lon="-0.28563">
        <ele>36.67</ele>
        <time>2016-10-08T10:09:29Z</time>
      </trkpt>
      <trkpt lat="44.97836" lon="-0.28569">
        <ele>35.23</ele>
        <time>2016-10-08T10:09:37Z</time>
      </trkpt>
      <trkpt lat="44.97861" lon="-0.28575">
        <ele>33.3</ele>
        <time>2016-10-08T10:09:57Z</time>
      </trkpt>
      <trkpt lat="44.97866" lon="-0.28574">
        <ele>33.3</ele>
        <time>2016-10-08T10:10:02Z</time>
      </trkpt>
      <trkpt lat="44.97888" lon="-0.28572">
        <ele>30.42</ele>
        <time>2016-10-08T10:10:20Z</time>
      </trkpt>
      <trkpt lat="44.97893" lon="-0.28569">
        <ele>30.42</ele>
        <time>2016-10-08T10:10:25Z</time>
      </trkpt>
      <trkpt lat="44.97903" lon="-0.28544">
        <ele>28.98</ele>
        <time>2016-10-08T10:10:45Z</time>
      </trkpt>
      <trkpt lat="44.97912" lon="-0.28526">
        <ele>28.5</ele>
        <time>2016-10-08T10:11:05Z</time>
      </trkpt>
      <trkpt lat="44.97919" lon="-0.28524">
        <ele>28.02</ele>
        <time>2016-10-08T10:11:23Z</time>
      </trkpt>
      <trkpt lat="44.97924" lon="-0.28532">
        <ele>25.13</ele>
        <time>2016-10-08T10:11:36Z</time>
      </trkpt>
      <trkpt lat="44.97934" lon="-0.28551">
        <ele>22.25</ele>
        <time>2016-10-08T10:11:56Z</time>
      </trkpt>
      <trkpt lat="44.97946" lon="-0.28572">
        <ele>19.84</ele>
        <time>2016-10-08T10:12:15Z</time>
      </trkpt>
      <trkpt lat="44.97964" lon="-0.28592">
        <ele>18.88</ele>
        <time>2016-10-08T10:12:33Z</time>
      </trkpt>
      <trkpt lat="44.97977" lon="-0.28606">
        <ele>17.92</ele>
        <time>2016-10-08T10:12:46Z</time>
      </trkpt>
      <trkpt lat="44.97989" lon="-0.2864">
        <ele>17.44</ele>
        <time>2016-10-08T10:13:05Z</time>
      </trkpt>
      <trkpt lat="44.98002" lon="-0.28665">
        <ele>17.44</ele>
        <time>2016-10-08T10:13:22Z</time>
      </trkpt>
      <trkpt lat="44.98011" lon="-0.28696">
        <ele>18.4</ele>
        <time>2016-10-08T10:13:41Z</time>
      </trkpt>
      <trkpt lat="44.98014" lon="-0.28709">
        <ele>17.44</ele>
        <time>2016-10-08T10:13:49Z</time>
      </trkpt>
      <trkpt lat="44.98024" lon="-0.28739">
        <ele>18.4</ele>
        <time>2016-10-08T10:14:08Z</time>
      </trkpt>
      <trkpt lat="44.98036" lon="-0.2876">
        <ele>20.32</ele>
        <time>2016-10-08T10:14:24Z</time>
      </trkpt>
      <trkpt lat="44.98056" lon="-0.28778">
        <ele>20.81</ele>
        <time>2016-10-08T10:14:43Z</time>
      </trkpt>
      <trkpt lat="44.98076" lon="-0.28794">
        <ele>22.25</ele>
        <time>2016-10-08T10:15:02Z</time>
      </trkpt>
      <trkpt lat="44.98082" lon="-0.28801">
        <ele>22.25</ele>
        <time>2016-10-08T10:15:23Z</time>
      </trkpt>
      <trkpt lat="44.98087" lon="-0.28804">
        <ele>24.65</ele>
        <time>2016-10-08T10:15:45Z</time>
      </trkpt>
      <trkpt lat="44.98088" lon="-0.28805">
        <ele>23.21</ele>
        <time>2016-10-08T10:15:52Z</time>
      </trkpt>
      <trkpt lat="44.98087" lon="-0.28812">
        <ele>25.13</ele>
        <time>2016-10-08T10:16:19Z</time>
      </trkpt>
      <trkpt lat="44.98097" lon="-0.28808">
        <ele>25.13</ele>
        <time>2016-10-08T10:16:33Z</time>
      </trkpt>
      <trkpt lat="44.9811" lon="-0.28795">
        <ele>26.09</ele>
        <time>2016-10-08T10:16:51Z</time>
      </trkpt>
      <trkpt lat="44.98114" lon="-0.28789">
        <ele>26.09</ele>
        <time>2016-10-08T10:16:55Z</time>
      </trkpt>
      <trkpt lat="44.98128" lon="-0.28775">
        <ele>27.05</ele>
        <time>2016-10-08T10:17:09Z</time>
      </trkpt>
      <trkpt lat="44.98143" lon="-0.28758">
        <ele>27.53</ele>
        <time>2016-10-08T10:17:25Z</time>
      </trkpt>
      <trkpt lat="44.98145" lon="-0.28756">
        <ele>28.98</ele>
        <time>2016-10-08T10:17:27Z</time>
      </trkpt>
      <trkpt lat="44.98162" lon="-0.28744">
        <ele>29.94</ele>
        <time>2016-10-08T10:17:44Z</time>
      </trkpt>
      <trkpt lat="44.98177" lon="-0.28727">
        <ele>30.42</ele>
        <time>2016-10-08T10:18:02Z</time>
      </trkpt>
      <trkpt lat="44.9819" lon="-0.28711">
        <ele>31.86</ele>
        <time>2016-10-08T10:18:15Z</time>
      </trkpt>
      <trkpt lat="44.98205" lon="-0.2869">
        <ele>33.3</ele>
        <time>2016-10-08T10:18:34Z</time>
      </trkpt>
      <trkpt lat="44.98207" lon="-0.28689">
        <ele>31.38</ele>
        <time>2016-10-08T10:18:36Z</time>
      </trkpt>
      <trkpt lat="44.9821" lon="-0.28685">
        <ele>32.82</ele>
        <time>2016-10-08T10:18:39Z</time>
      </trkpt>
      <trkpt lat="44.98223" lon="-0.28663">
        <ele>33.78</ele>
        <time>2016-10-08T10:18:56Z</time>
      </trkpt>
      <trkpt lat="44.98238" lon="-0.28648">
        <ele>33.78</ele>
        <time>2016-10-08T10:19:12Z</time>
      </trkpt>
      <trkpt lat="44.9824" lon="-0.28648">
        <ele>35.71</ele>
        <time>2016-10-08T10:19:14Z</time>
      </trkpt>
      <trkpt lat="44.98256" lon="-0.28636">
        <ele>36.67</ele>
        <time>2016-10-08T10:19:33Z</time>
      </trkpt>
      <trkpt lat="44.98263" lon="-0.28624">
        <ele>36.67</ele>
        <time>2016-10-08T10:19:41Z</time>
      </trkpt>
      <trkpt lat="44.98278" lon="-0.28604">
        <ele>37.15</ele>
        <time>2016-10-08T10:19:58Z</time>
      </trkpt>
      <trkpt lat="44.98283" lon="-0.28598">
        <ele>37.63</ele>
        <time>2016-10-08T10:20:03Z</time>
      </trkpt>
      <trkpt lat="44.98296" lon="-0.2858">
        <ele>35.71</ele>
        <time>2016-10-08T10:20:19Z</time>
      </trkpt>
      <trkpt lat="44.98297" lon="-0.2858">
        <ele>38.11</ele>
        <time>2016-10-08T10:20:20Z</time>
      </trkpt>
      <trkpt lat="44.98302" lon="-0.28587">
        <ele>38.59</ele>
        <time>2016-10-08T10:20:25Z</time>
      </trkpt>
      <trkpt lat="44.9832" lon="-0.28625">
        <ele>39.07</ele>
        <time>2016-10-08T10:20:48Z</time>
      </trkpt>
      <trkpt lat="44.98333" lon="-0.28657">
        <ele>38.59</ele>
        <time>2016-10-08T10:21:10Z</time>
      </trkpt>
      <trkpt lat="44.98335" lon="-0.28661">
        <ele>40.03</ele>
        <time>2016-10-08T10:21:13Z</time>
      </trkpt>
      <trkpt lat="44.98337" lon="-0.28664">
        <ele>38.59</ele>
        <time>2016-10-08T10:21:15Z</time>
      </trkpt>
      <trkpt lat="44.98339" lon="-0.28667">
        <ele>40.03</ele>
        <time>2016-10-08T10:21:17Z</time>
      </trkpt>
      <trkpt lat="44.98352" lon="-0.28697">
        <ele>40.99</ele>
        <time>2016-10-08T10:21:37Z</time>
      </trkpt>
      <trkpt lat="44.98362" lon="-0.28716">
        <ele>41.47</ele>
        <time>2016-10-08T10:21:50Z</time>
      </trkpt>
      <trkpt lat="44.98364" lon="-0.28718">
        <ele>40.51</ele>
        <time>2016-10-08T10:21:52Z</time>
      </trkpt>
      <trkpt lat="44.98365" lon="-0.28721">
        <ele>41.47</ele>
        <time>2016-10-08T10:21:54Z</time>
      </trkpt>
      <trkpt lat="44.9837" lon="-0.28735">
        <ele>41.47</ele>
        <time>2016-10-08T10:22:03Z</time>
      </trkpt>
      <trkpt lat="44.98378" lon="-0.2875">
        <ele>41.95</ele>
        <time>2016-10-08T10:22:14Z</time>
      </trkpt>
      <trkpt lat="44.98379" lon="-0.28755">
        <ele>40.51</ele>
        <time>2016-10-08T10:22:17Z</time>
      </trkpt>
      <trkpt lat="44.9838" lon="-0.28759">
        <ele>41.95</ele>
        <time>2016-10-08T10:22:19Z</time>
      </trkpt>
      <trkpt lat="44.98395" lon="-0.28789">
        <ele>42.92</ele>
        <time>2016-10-08T10:22:40Z</time>
      </trkpt>
      <trkpt lat="44.98407" lon="-0.28818">
        <ele>42.92</ele>
        <time>2016-10-08T10:23:01Z</time>
      </trkpt>
      <trkpt lat="44.98408" lon="-0.28823">
        <ele>44.36</ele>
        <time>2016-10-08T10:23:04Z</time>
      </trkpt>
      <trkpt lat="44.98409" lon="-0.28826">
        <ele>42.92</ele>
        <time>2016-10-08T10:23:06Z</time>
      </trkpt>
      <trkpt lat="44.98411" lon="-0.28838">
        <ele>44.36</ele>
        <time>2016-10-08T10:23:13Z</time>
      </trkpt>
      <trkpt lat="44.98413" lon="-0.28843">
        <ele>42.44</ele>
        <time>2016-10-08T10:23:16Z</time>
      </trkpt>
      <trkpt lat="44.98414" lon="-0.28846">
        <ele>43.4</ele>
        <time>2016-10-08T10:23:18Z</time>
      </trkpt>
      <trkpt lat="44.98417" lon="-0.28857">
        <ele>42.92</ele>
        <time>2016-10-08T10:23:24Z</time>
      </trkpt>
      <trkpt lat="44.98418" lon="-0.28866">
        <ele>44.36</ele>
        <time>2016-10-08T10:23:30Z</time>
      </trkpt>
      <trkpt lat="44.98427" lon="-0.28895">
        <ele>44.36</ele>
        <time>2016-10-08T10:23:47Z</time>
      </trkpt>
      <trkpt lat="44.98439" lon="-0.28924">
        <ele>44.36</ele>
        <time>2016-10-08T10:24:06Z</time>
      </trkpt>
      <trkpt lat="44.98443" lon="-0.28933">
        <ele>45.32</ele>
        <time>2016-10-08T10:24:12Z</time>
      </trkpt>
      <trkpt lat="44.98445" lon="-0.28937">
        <ele>43.88</ele>
        <time>2016-10-08T10:24:15Z</time>
      </trkpt>
      <trkpt lat="44.98446" lon="-0.2894">
        <ele>45.8</ele>
        <time>2016-10-08T10:24:17Z</time>
      </trkpt>
      <trkpt lat="44.98454" lon="-0.28959">
        <ele>46.28</ele>
        <time>2016-10-08T10:24:30Z</time>
      </trkpt>
      <trkpt lat="44.98458" lon="-0.28969">
        <ele>45.8</ele>
        <time>2016-10-08T10:24:36Z</time>
      </trkpt>
      <trkpt lat="44.98464" lon="-0.28984">
        <ele>45.32</ele>
        <time>2016-10-08T10:24:46Z</time>
      </trkpt>
      <trkpt lat="44.98465" lon="-0.28987">
        <ele>46.28</ele>
        <time>2016-10-08T10:24:48Z</time>
      </trkpt>
      <trkpt lat="44.98475" lon="-0.29008">
        <ele>45.32</ele>
        <time>2016-10-08T10:25:03Z</time>
      </trkpt>
      <trkpt lat="44.98477" lon="-0.29011">
        <ele>46.76</ele>
        <time>2016-10-08T10:25:05Z</time>
      </trkpt>
      <trkpt lat="44.98485" lon="-0.29025">
        <ele>46.28</ele>
        <time>2016-10-08T10:25:16Z</time>
      </trkpt>
      <trkpt lat="44.98489" lon="-0.29031">
        <ele>47.24</ele>
        <time>2016-10-08T10:25:21Z</time>
      </trkpt>
      <trkpt lat="44.98503" lon="-0.29054">
        <ele>47.24</ele>
        <time>2016-10-08T10:25:40Z</time>
      </trkpt>
      <trkpt lat="44.98503" lon="-0.29053">
        <ele>46.28</ele>
        <time>2016-10-08T10:26:03Z</time>
      </trkpt>
      <trkpt lat="44.98503" lon="-0.29054">
        <ele>47.72</ele>
        <time>2016-10-08T10:26:07Z</time>
      </trkpt>
      <trkpt lat="44.98505" lon="-0.29055">
        <ele>47.72</ele>
        <time>2016-10-08T10:26:28Z</time>
      </trkpt>
      <trkpt lat="44.98507" lon="-0.29057">
        <ele>47.72</ele>
        <time>2016-10-08T10:26:54Z</time>
      </trkpt>
      <trkpt lat="44.98504" lon="-0.29047">
        <ele>45.8</ele>
        <time>2016-10-08T10:27:13Z</time>
      </trkpt>
      <trkpt lat="44.98504" lon="-0.29046">
        <ele>47.24</ele>
        <time>2016-10-08T10:27:15Z</time>
      </trkpt>
      <trkpt lat="44.98513" lon="-0.29068">
        <ele>47.72</ele>
        <time>2016-10-08T10:27:35Z</time>
      </trkpt>
      <trkpt lat="44.98528" lon="-0.29092">
        <ele>47.72</ele>
        <time>2016-10-08T10:27:56Z</time>
      </trkpt>
      <trkpt lat="44.98536" lon="-0.29102">
        <ele>47.72</ele>
        <time>2016-10-08T10:28:17Z</time>
      </trkpt>
      <trkpt lat="44.98531" lon="-0.29108">
        <ele>46.28</ele>
        <time>2016-10-08T10:28:33Z</time>
      </trkpt>
      <trkpt lat="44.98533" lon="-0.2911">
        <ele>47.72</ele>
        <time>2016-10-08T10:28:56Z</time>
      </trkpt>
      <trkpt lat="44.98534" lon="-0.29112">
        <ele>42.92</ele>
        <time>2016-10-08T10:29:04Z</time>
      </trkpt>
      <trkpt lat="44.98534" lon="-0.29113">
        <ele>47.72</ele>
        <time>2016-10-08T10:29:05Z</time>
      </trkpt>
      <trkpt lat="44.98535" lon="-0.29119">
        <ele>45.32</ele>
        <time>2016-10-08T10:29:09Z</time>
      </trkpt>
      <trkpt lat="44.98536" lon="-0.29122">
        <ele>46.76</ele>
        <time>2016-10-08T10:29:11Z</time>
      </trkpt>
      <trkpt lat="44.98538" lon="-0.29129">
        <ele>45.8</ele>
        <time>2016-10-08T10:29:26Z</time>
      </trkpt>
      <trkpt lat="44.98535" lon="-0.29113">
        <ele>45.8</ele>
        <time>2016-10-08T10:29:50Z</time>
      </trkpt>
      <trkpt lat="44.98534" lon="-0.29116">
        <ele>45.8</ele>
        <time>2016-10-08T10:30:12Z</time>
      </trkpt>
      <trkpt lat="44.98537" lon="-0.29122">
        <ele>45.8</ele>
        <time>2016-10-08T10:30:32Z</time>
      </trkpt>
      <trkpt lat="44.98535" lon="-0.29112">
        <ele>45.8</ele>
        <time>2016-10-08T10:31:02Z</time>
      </trkpt>
      <trkpt lat="44.98533" lon="-0.29111">
        <ele>45.8</ele>
        <time>2016-10-08T10:31:31Z</time>
      </trkpt>
      <trkpt lat="44.98537" lon="-0.29113">
        <ele>45.8</ele>
        <time>2016-10-08T10:32:06Z</time>
      </trkpt>
      <trkpt lat="44.98533" lon="-0.29113">
        <ele>45.8</ele>
        <time>2016-10-08T10:32:34Z</time>
      </trkpt>
      <trkpt lat="44.98534" lon="-0.29115">
        <ele>45.8</ele>
        <time>2016-10-08T10:32:59Z</time>
      </trkpt>
      <trkpt lat="44.98531" lon="-0.29097">
        <ele>45.8</ele>
        <time>2016-10-08T10:33:22Z</time>
      </trkpt>
      <trkpt lat="44.98534" lon="-0.29106">
        <ele>45.8</ele>
        <time>2016-10-08T10:33:47Z</time>
      </trkpt>
      <trkpt lat="44.98535" lon="-0.29109">
        <ele>46.76</ele>
        <time>2016-10-08T10:34:12Z</time>
      </trkpt>
      <trkpt lat="44.98535" lon="-0.29109">
        <ele>46.76</ele>
        <time>2016-10-08T10:34:42Z</time>
      </trkpt>
      <trkpt lat="44.98533" lon="-0.2911">
        <ele>46.76</ele>
        <time>2016-10-08T10:35:20Z</time>
      </trkpt>
      <trkpt lat="44.98533" lon="-0.29111">
        <ele>46.28</ele>
        <time>2016-10-08T10:35:51Z</time>
      </trkpt>
      <trkpt lat="44.98535" lon="-0.29111">
        <ele>46.28</ele>
        <time>2016-10-08T10:36:30Z</time>
      </trkpt>
      <trkpt lat="44.98534" lon="-0.29111">
        <ele>46.28</ele>
        <time>2016-10-08T10:37:03Z</time>
      </trkpt>
      <trkpt lat="44.98534" lon="-0.29108">
        <ele>45.8</ele>
        <time>2016-10-08T10:37:42Z</time>
      </trkpt>
      <trkpt lat="44.98533" lon="-0.29109">
        <ele>45.32</ele>
        <time>2016-10-08T10:38:22Z</time>
      </trkpt>
      <trkpt lat="44.98532" lon="-0.29109">
        <ele>46.76</ele>
        <time>2016-10-08T10:38:31Z</time>
      </trkpt>
      <trkpt lat="44.98534" lon="-0.2911">
        <ele>45.32</ele>
        <time>2016-10-08T10:39:10Z</time>
      </trkpt>
      <trkpt lat="44.98534" lon="-0.2911">
        <ele>45.32</ele>
        <time>2016-10-08T10:39:46Z</time>
      </trkpt>
      <trkpt lat="44.98533" lon="-0.29111">
        <ele>46.28</ele>
        <time>2016-10-08T10:40:32Z</time>
      </trkpt>
      <trkpt lat="44.98534" lon="-0.29111">
        <ele>44.36</ele>
        <time>2016-10-08T10:41:14Z</time>
      </trkpt>
      <trkpt lat="44.98538" lon="-0.29112">
        <ele>45.8</ele>
        <time>2016-10-08T10:41:35Z</time>
      </trkpt>
      <trkpt lat="44.98534" lon="-0.2911">
        <ele>44.36</ele>
        <time>2016-10-08T10:41:55Z</time>
      </trkpt>
      <trkpt lat="44.98533" lon="-0.29102">
        <ele>44.36</ele>
        <time>2016-10-08T10:42:26Z</time>
      </trkpt>
      <trkpt lat="44.98534" lon="-0.29113">
        <ele>46.28</ele>
        <time>2016-10-08T10:42:56Z</time>
      </trkpt>
      <trkpt lat="44.98532" lon="-0.29109">
        <ele>45.32</ele>
        <time>2016-10-08T10:43:03Z</time>
      </trkpt>
      <trkpt lat="44.98533" lon="-0.29107">
        <ele>44.84</ele>
        <time>2016-10-08T10:43:40Z</time>
      </trkpt>
      <trkpt lat="44.98534" lon="-0.29111">
        <ele>44.36</ele>
        <time>2016-10-08T10:44:15Z</time>
      </trkpt>
      <trkpt lat="44.98533" lon="-0.2911">
        <ele>45.8</ele>
        <time>2016-10-08T10:44:50Z</time>
      </trkpt>
      <trkpt lat="44.98533" lon="-0.29111">
        <ele>44.36</ele>
        <time>2016-10-08T10:45:20Z</time>
      </trkpt>
      <trkpt lat="44.98532" lon="-0.29107">
        <ele>45.8</ele>
        <time>2016-10-08T10:45:47Z</time>
      </trkpt>
      <trkpt lat="44.98532" lon="-0.29107">
        <ele>44.36</ele>
        <time>2016-10-08T10:45:49Z</time>
      </trkpt>
      <trkpt lat="44.98532" lon="-0.2911">
        <ele>46.28</ele>
        <time>2016-10-08T10:45:53Z</time>
      </trkpt>
      <trkpt lat="44.98532" lon="-0.2911">
        <ele>44.84</ele>
        <time>2016-10-08T10:46:24Z</time>
      </trkpt>
      <trkpt lat="44.98534" lon="-0.2911">
        <ele>45.8</ele>
        <time>2016-10-08T10:46:40Z</time>
      </trkpt>
      <trkpt lat="44.98533" lon="-0.29109">
        <ele>42.44</ele>
        <time>2016-10-08T10:47:11Z</time>
      </trkpt>
      <trkpt lat="44.98533" lon="-0.29109">
        <ele>44.36</ele>
        <time>2016-10-08T10:47:12Z</time>
      </trkpt>
      <trkpt lat="44.98533" lon="-0.29109">
        <ele>47.72</ele>
        <time>2016-10-08T10:47:13Z</time>
      </trkpt>
      <trkpt lat="44.98533" lon="-0.29109">
        <ele>45.32</ele>
        <time>2016-10-08T10:47:14Z</time>
      </trkpt>
      <trkpt lat="44.98533" lon="-0.29108">
        <ele>45.32</ele>
        <time>2016-10-08T10:47:49Z</time>
      </trkpt>
      <trkpt lat="44.98532" lon="-0.29108">
        <ele>44.36</ele>
        <time>2016-10-08T10:47:58Z</time>
      </trkpt>
      <trkpt lat="44.98532" lon="-0.29107">
        <ele>45.8</ele>
        <time>2016-10-08T10:48:01Z</time>
      </trkpt>
      <trkpt lat="44.98532" lon="-0.29108">
        <ele>44.36</ele>
        <time>2016-10-08T10:48:34Z</time>
      </trkpt>
      <trkpt lat="44.98532" lon="-0.29109">
        <ele>44.36</ele>
        <time>2016-10-08T10:49:08Z</time>
      </trkpt>
      <trkpt lat="44.98532" lon="-0.29108">
        <ele>44.84</ele>
        <time>2016-10-08T10:49:46Z</time>
      </trkpt>
      <trkpt lat="44.98533" lon="-0.29108">
        <ele>44.84</ele>
        <time>2016-10-08T10:50:29Z</time>
      </trkpt>
      <trkpt lat="44.98532" lon="-0.29109">
        <ele>45.8</ele>
        <time>2016-10-08T10:50:50Z</time>
      </trkpt>
      <trkpt lat="44.98533" lon="-0.29108">
        <ele>45.8</ele>
        <time>2016-10-08T10:51:22Z</time>
      </trkpt>
      <trkpt lat="44.98533" lon="-0.29109">
        <ele>43.88</ele>
        <time>2016-10-08T10:51:38Z</time>
      </trkpt>
      <trkpt lat="44.98532" lon="-0.29109">
        <ele>45.32</ele>
        <time>2016-10-08T10:52:07Z</time>
      </trkpt>
      <trkpt lat="44.98532" lon="-0.29108">
        <ele>45.32</ele>
        <time>2016-10-08T10:52:39Z</time>
      </trkpt>
      <trkpt lat="44.98531" lon="-0.29107">
        <ele>45.32</ele>
        <time>2016-10-08T10:53:14Z</time>
      </trkpt>
      <trkpt lat="44.98533" lon="-0.29108">
        <ele>45.32</ele>
        <time>2016-10-08T10:53:55Z</time>
      </trkpt>
      <trkpt lat="44.98532" lon="-0.29109">
        <ele>45.32</ele>
        <time>2016-10-08T10:54:10Z</time>
      </trkpt>
      <trkpt lat="44.98531" lon="-0.2911">
        <ele>45.32</ele>
        <time>2016-10-08T10:54:30Z</time>
      </trkpt>
      <trkpt lat="44.98532" lon="-0.2911">
        <ele>45.32</ele>
        <time>2016-10-08T10:54:53Z</time>
      </trkpt>
      <trkpt lat="44.98531" lon="-0.2911">
        <ele>46.76</ele>
        <time>2016-10-08T10:54:57Z</time>
      </trkpt>
      <trkpt lat="44.98531" lon="-0.2911">
        <ele>46.76</ele>
        <time>2016-10-08T10:55:26Z</time>
      </trkpt>
      <trkpt lat="44.98529" lon="-0.29108">
        <ele>46.76</ele>
        <time>2016-10-08T10:55:54Z</time>
      </trkpt>
      <trkpt lat="44.98528" lon="-0.29111">
        <ele>46.76</ele>
        <time>2016-10-08T10:56:14Z</time>
      </trkpt>
      <trkpt lat="44.98529" lon="-0.29109">
        <ele>46.76</ele>
        <time>2016-10-08T10:56:42Z</time>
      </trkpt>
      <trkpt lat="44.9853" lon="-0.2911">
        <ele>46.76</ele>
        <time>2016-10-08T10:57:08Z</time>
      </trkpt>
      <trkpt lat="44.98532" lon="-0.29108">
        <ele>45.8</ele>
        <time>2016-10-08T10:57:23Z</time>
      </trkpt>
      <trkpt lat="44.98532" lon="-0.29108">
        <ele>47.24</ele>
        <time>2016-10-08T10:57:25Z</time>
      </trkpt>
      <trkpt lat="44.98532" lon="-0.29108">
        <ele>45.8</ele>
        <time>2016-10-08T10:57:29Z</time>
      </trkpt>
      <trkpt lat="44.98534" lon="-0.29103">
        <ele>45.8</ele>
        <time>2016-10-08T10:57:48Z</time>
      </trkpt>
      <trkpt lat="44.98532" lon="-0.29107">
        <ele>47.24</ele>
        <time>2016-10-08T10:58:00Z</time>
      </trkpt>
      <trkpt lat="44.98532" lon="-0.29106">
        <ele>45.8</ele>
        <time>2016-10-08T10:58:15Z</time>
      </trkpt>
      <trkpt lat="44.98533" lon="-0.29102">
        <ele>45.8</ele>
        <time>2016-10-08T10:58:36Z</time>
      </trkpt>
      <trkpt lat="44.98532" lon="-0.29108">
        <ele>45.8</ele>
        <time>2016-10-08T10:59:03Z</time>
      </trkpt>
      <trkpt lat="44.98534" lon="-0.29109">
        <ele>46.28</ele>
        <time>2016-10-08T10:59:29Z</time>
      </trkpt>
      <trkpt lat="44.98534" lon="-0.29104">
        <ele>45.32</ele>
        <time>2016-10-08T10:59:48Z</time>
      </trkpt>
      <trkpt lat="44.9853" lon="-0.29107">
        <ele>46.76</ele>
        <time>2016-10-08T11:00:04Z</time>
      </trkpt>
      <trkpt lat="44.98537" lon="-0.29105">
        <ele>46.76</ele>
        <time>2016-10-08T11:00:26Z</time>
      </trkpt>
      <trkpt lat="44.98536" lon="-0.29106">
        <ele>45.32</ele>
        <time>2016-10-08T11:00:53Z</time>
      </trkpt>
      <trkpt lat="44.98534" lon="-0.29106">
        <ele>45.32</ele>
        <time>2016-10-08T11:01:19Z</time>
      </trkpt>
      <trkpt lat="44.98534" lon="-0.29106">
        <ele>45.32</ele>
        <time>2016-10-08T11:01:49Z</time>
      </trkpt>
      <trkpt lat="44.98534" lon="-0.29107">
        <ele>45.32</ele>
        <time>2016-10-08T11:02:27Z</time>
      </trkpt>
      <trkpt lat="44.98537" lon="-0.29105">
        <ele>47.24</ele>
        <time>2016-10-08T11:02:44Z</time>
      </trkpt>
      <trkpt lat="44.98536" lon="-0.29106">
        <ele>47.24</ele>
        <time>2016-10-08T11:03:14Z</time>
      </trkpt>
      <trkpt lat="44.98542" lon="-0.2911">
        <ele>46.28</ele>
        <time>2016-10-08T11:03:24Z</time>
      </trkpt>
      <trkpt lat="44.98554" lon="-0.29126">
        <ele>45.32</ele>
        <time>2016-10-08T11:03:43Z</time>
      </trkpt>
      <trkpt lat="44.98555" lon="-0.29127">
        <ele>45.32</ele>
        <time>2016-10-08T11:04:12Z</time>
      </trkpt>
      <trkpt lat="44.98552" lon="-0.29128">
        <ele>46.76</ele>
        <time>2016-10-08T11:04:35Z</time>
      </trkpt>
      <trkpt lat="44.98553" lon="-0.29128">
        <ele>46.76</ele>
        <time>2016-10-08T11:05:12Z</time>
      </trkpt>
      <trkpt lat="44.98554" lon="-0.29133">
        <ele>46.76</ele>
        <time>2016-10-08T11:05:33Z</time>
      </trkpt>
      <trkpt lat="44.98558" lon="-0.29136">
        <ele>46.28</ele>
        <time>2016-10-08T11:05:55Z</time>
      </trkpt>
      <trkpt lat="44.98574" lon="-0.29161">
        <ele>45.8</ele>
        <time>2016-10-08T11:06:15Z</time>
      </trkpt>
      <trkpt lat="44.98584" lon="-0.29182">
        <ele>45.32</ele>
        <time>2016-10-08T11:06:32Z</time>
      </trkpt>
      <trkpt lat="44.98595" lon="-0.29203">
        <ele>45.32</ele>
        <time>2016-10-08T11:06:52Z</time>
      </trkpt>
      <trkpt lat="44.986" lon="-0.2922">
        <ele>44.84</ele>
        <time>2016-10-08T11:07:10Z</time>
      </trkpt>
      <trkpt lat="44.98603" lon="-0.2923">
        <ele>46.28</ele>
        <time>2016-10-08T11:07:16Z</time>
      </trkpt>
      <trkpt lat="44.98604" lon="-0.29233">
        <ele>45.32</ele>
        <time>2016-10-08T11:07:18Z</time>
      </trkpt>
      <trkpt lat="44.98607" lon="-0.29272">
        <ele>45.32</ele>
        <time>2016-10-08T11:07:40Z</time>
      </trkpt>
      <trkpt lat="44.98615" lon="-0.293">
        <ele>46.28</ele>
        <time>2016-10-08T11:07:59Z</time>
      </trkpt>
      <trkpt lat="44.98637" lon="-0.29314">
        <ele>44.36</ele>
        <time>2016-10-08T11:08:18Z</time>
      </trkpt>
      <trkpt lat="44.98666" lon="-0.29319">
        <ele>45.32</ele>
        <time>2016-10-08T11:08:42Z</time>
      </trkpt>
      <trkpt lat="44.98663" lon="-0.29321">
        <ele>45.32</ele>
        <time>2016-10-08T11:09:07Z</time>
      </trkpt>
      <trkpt lat="44.98667" lon="-0.2932">
        <ele>44.36</ele>
        <time>2016-10-08T11:09:21Z</time>
      </trkpt>
      <trkpt lat="44.9869" lon="-0.29318">
        <ele>42.44</ele>
        <time>2016-10-08T11:09:42Z</time>
      </trkpt>
      <trkpt lat="44.98721" lon="-0.29325">
        <ele>41.95</ele>
        <time>2016-10-08T11:10:05Z</time>
      </trkpt>
      <trkpt lat="44.98724" lon="-0.29325">
        <ele>43.4</ele>
        <time>2016-10-08T11:10:08Z</time>
      </trkpt>
      <trkpt lat="44.98753" lon="-0.29314">
        <ele>41.95</ele>
        <time>2016-10-08T11:10:31Z</time>
      </trkpt>
      <trkpt lat="44.98777" lon="-0.29293">
        <ele>41.95</ele>
        <time>2016-10-08T11:10:54Z</time>
      </trkpt>
      <trkpt lat="44.98795" lon="-0.29272">
        <ele>41.47</ele>
        <time>2016-10-08T11:11:12Z</time>
      </trkpt>
      <trkpt lat="44.98802" lon="-0.29263">
        <ele>42.44</ele>
        <time>2016-10-08T11:11:19Z</time>
      </trkpt>
      <trkpt lat="44.98804" lon="-0.29261">
        <ele>40.99</ele>
        <time>2016-10-08T11:11:21Z</time>
      </trkpt>
      <trkpt lat="44.98811" lon="-0.29247">
        <ele>40.03</ele>
        <time>2016-10-08T11:11:31Z</time>
      </trkpt>
      <trkpt lat="44.98825" lon="-0.29223">
        <ele>39.55</ele>
        <time>2016-10-08T11:11:51Z</time>
      </trkpt>
      <trkpt lat="44.98832" lon="-0.29216">
        <ele>40.99</ele>
        <time>2016-10-08T11:11:57Z</time>
      </trkpt>
      <trkpt lat="44.98852" lon="-0.2919">
        <ele>40.03</ele>
        <time>2016-10-08T11:12:21Z</time>
      </trkpt>
      <trkpt lat="44.98854" lon="-0.29189">
        <ele>38.11</ele>
        <time>2016-10-08T11:12:23Z</time>
      </trkpt>
      <trkpt lat="44.98858" lon="-0.29189">
        <ele>39.55</ele>
        <time>2016-10-08T11:12:25Z</time>
      </trkpt>
      <trkpt lat="44.98864" lon="-0.29188">
        <ele>39.55</ele>
        <time>2016-10-08T11:12:28Z</time>
      </trkpt>
      <trkpt lat="44.98872" lon="-0.29189">
        <ele>37.63</ele>
        <time>2016-10-08T11:12:32Z</time>
      </trkpt>
      <trkpt lat="44.98876" lon="-0.2919">
        <ele>38.59</ele>
        <time>2016-10-08T11:12:34Z</time>
      </trkpt>
      <trkpt lat="44.98906" lon="-0.29191">
        <ele>38.59</ele>
        <time>2016-10-08T11:12:56Z</time>
      </trkpt>
      <trkpt lat="44.98932" lon="-0.29185">
        <ele>36.67</ele>
        <time>2016-10-08T11:13:18Z</time>
      </trkpt>
      <trkpt lat="44.98954" lon="-0.29178">
        <ele>37.15</ele>
        <time>2016-10-08T11:13:36Z</time>
      </trkpt>
      <trkpt lat="44.98974" lon="-0.29177">
        <ele>36.67</ele>
        <time>2016-10-08T11:13:53Z</time>
      </trkpt>
      <trkpt lat="44.98986" lon="-0.29174">
        <ele>38.11</ele>
        <time>2016-10-08T11:14:04Z</time>
      </trkpt>
      <trkpt lat="44.9899" lon="-0.29172">
        <ele>36.67</ele>
        <time>2016-10-08T11:14:07Z</time>
      </trkpt>
      <trkpt lat="44.99012" lon="-0.29158">
        <ele>36.67</ele>
        <time>2016-10-08T11:14:28Z</time>
      </trkpt>
      <trkpt lat="44.9902" lon="-0.29147">
        <ele>37.63</ele>
        <time>2016-10-08T11:14:37Z</time>
      </trkpt>
      <trkpt lat="44.99023" lon="-0.29144">
        <ele>36.19</ele>
        <time>2016-10-08T11:14:40Z</time>
      </trkpt>
      <trkpt lat="44.99028" lon="-0.29137">
        <ele>37.63</ele>
        <time>2016-10-08T11:14:46Z</time>
      </trkpt>
      <trkpt lat="44.99034" lon="-0.2913">
        <ele>36.19</ele>
        <time>2016-10-08T11:14:52Z</time>
      </trkpt>
      <trkpt lat="44.99053" lon="-0.29115">
        <ele>35.71</ele>
        <time>2016-10-08T11:15:10Z</time>
      </trkpt>
      <trkpt lat="44.99068" lon="-0.2911">
        <ele>36.19</ele>
        <time>2016-10-08T11:15:24Z</time>
      </trkpt>
      <trkpt lat="44.99092" lon="-0.29106">
        <ele>36.19</ele>
        <time>2016-10-08T11:15:43Z</time>
      </trkpt>
      <trkpt lat="44.99114" lon="-0.29116">
        <ele>34.74</ele>
        <time>2016-10-08T11:16:04Z</time>
      </trkpt>
      <trkpt lat="44.9913" lon="-0.29131">
        <ele>34.74</ele>
        <time>2016-10-08T11:16:21Z</time>
      </trkpt>
      <trkpt lat="44.9915" lon="-0.29147">
        <ele>34.26</ele>
        <time>2016-10-08T11:16:41Z</time>
      </trkpt>
      <trkpt lat="44.99175" lon="-0.29156">
        <ele>34.74</ele>
        <time>2016-10-08T11:17:02Z</time>
      </trkpt>
      <trkpt lat="44.99179" lon="-0.29158">
        <ele>33.3</ele>
        <time>2016-10-08T11:17:06Z</time>
      </trkpt>
      <trkpt lat="44.99204" lon="-0.29164">
        <ele>32.82</ele>
        <time>2016-10-08T11:17:28Z</time>
      </trkpt>
      <trkpt lat="44.99218" lon="-0.29163">
        <ele>32.34</ele>
        <time>2016-10-08T11:17:48Z</time>
      </trkpt>
      <trkpt lat="44.99221" lon="-0.29156">
        <ele>32.82</ele>
        <time>2016-10-08T11:18:02Z</time>
      </trkpt>
      <trkpt lat="44.99226" lon="-0.29132">
        <ele>31.86</ele>
        <time>2016-10-08T11:18:22Z</time>
      </trkpt>
      <trkpt lat="44.99234" lon="-0.29128">
        <ele>32.34</ele>
        <time>2016-10-08T11:18:31Z</time>
      </trkpt>
      <trkpt lat="44.99237" lon="-0.29128">
        <ele>30.42</ele>
        <time>2016-10-08T11:18:34Z</time>
      </trkpt>
      <trkpt lat="44.99247" lon="-0.29128">
        <ele>29.94</ele>
        <time>2016-10-08T11:18:42Z</time>
      </trkpt>
      <trkpt lat="44.99258" lon="-0.29133">
        <ele>28.98</ele>
        <time>2016-10-08T11:18:52Z</time>
      </trkpt>
      <trkpt lat="44.99278" lon="-0.29139">
        <ele>28.5</ele>
        <time>2016-10-08T11:19:11Z</time>
      </trkpt>
      <trkpt lat="44.99309" lon="-0.29141">
        <ele>28.02</ele>
        <time>2016-10-08T11:19:31Z</time>
      </trkpt>
      <trkpt lat="44.99324" lon="-0.29141">
        <ele>28.02</ele>
        <time>2016-10-08T11:19:42Z</time>
      </trkpt>
      <trkpt lat="44.99327" lon="-0.2914">
        <ele>26.09</ele>
        <time>2016-10-08T11:19:44Z</time>
      </trkpt>
      <trkpt lat="44.99329" lon="-0.29139">
        <ele>28.02</ele>
        <time>2016-10-08T11:19:46Z</time>
      </trkpt>
      <trkpt lat="44.99331" lon="-0.29139">
        <ele>25.61</ele>
        <time>2016-10-08T11:19:49Z</time>
      </trkpt>
      <trkpt lat="44.99333" lon="-0.29138">
        <ele>27.53</ele>
        <time>2016-10-08T11:19:51Z</time>
      </trkpt>
      <trkpt lat="44.99362" lon="-0.29129">
        <ele>25.13</ele>
        <time>2016-10-08T11:20:14Z</time>
      </trkpt>
      <trkpt lat="44.99386" lon="-0.29127">
        <ele>24.65</ele>
        <time>2016-10-08T11:20:35Z</time>
      </trkpt>
      <trkpt lat="44.99382" lon="-0.29133">
        <ele>24.65</ele>
        <time>2016-10-08T11:21:00Z</time>
      </trkpt>
      <trkpt lat="44.99404" lon="-0.29127">
        <ele>24.65</ele>
        <time>2016-10-08T11:21:16Z</time>
      </trkpt>
      <trkpt lat="44.99425" lon="-0.29138">
        <ele>23.69</ele>
        <time>2016-10-08T11:21:38Z</time>
      </trkpt>
      <trkpt lat="44.99443" lon="-0.29146">
        <ele>23.21</ele>
        <time>2016-10-08T11:22:02Z</time>
      </trkpt>
      <trkpt lat="44.99439" lon="-0.29156">
        <ele>23.21</ele>
        <time>2016-10-08T11:22:26Z</time>
      </trkpt>
      <trkpt lat="44.99439" lon="-0.29159">
        <ele>23.21</ele>
        <time>2016-10-08T11:22:28Z</time>
      </trkpt>
      <trkpt lat="44.99448" lon="-0.29173">
        <ele>23.21</ele>
        <time>2016-10-08T11:22:48Z</time>
      </trkpt>
      <trkpt lat="44.99448" lon="-0.29145">
        <ele>23.21</ele>
        <time>2016-10-08T11:23:12Z</time>
      </trkpt>
      <trkpt lat="44.99444" lon="-0.29139">
        <ele>23.21</ele>
        <time>2016-10-08T11:23:32Z</time>
      </trkpt>
      <trkpt lat="44.99439" lon="-0.29129">
        <ele>23.69</ele>
        <time>2016-10-08T11:23:57Z</time>
      </trkpt>
      <trkpt lat="44.99439" lon="-0.29145">
        <ele>23.69</ele>
        <time>2016-10-08T11:24:17Z</time>
      </trkpt>
      <trkpt lat="44.99442" lon="-0.29139">
        <ele>23.69</ele>
        <time>2016-10-08T11:24:43Z</time>
      </trkpt>
      <trkpt lat="44.99444" lon="-0.29142">
        <ele>25.13</ele>
        <time>2016-10-08T11:25:02Z</time>
      </trkpt>
      <trkpt lat="44.99443" lon="-0.29142">
        <ele>25.61</ele>
        <time>2016-10-08T11:25:22Z</time>
      </trkpt>
      <trkpt lat="44.99461" lon="-0.29151">
        <ele>24.65</ele>
        <time>2016-10-08T11:25:39Z</time>
      </trkpt>
      <trkpt lat="44.9947" lon="-0.29155">
        <ele>25.61</ele>
        <time>2016-10-08T11:25:45Z</time>
      </trkpt>
      <trkpt lat="44.99476" lon="-0.29158">
        <ele>24.65</ele>
        <time>2016-10-08T11:25:50Z</time>
      </trkpt>
      <trkpt lat="44.99492" lon="-0.29175">
        <ele>24.17</ele>
        <time>2016-10-08T11:26:09Z</time>
      </trkpt>
      <trkpt lat="44.99508" lon="-0.29179">
        <ele>23.21</ele>
        <time>2016-10-08T11:26:30Z</time>
      </trkpt>
      <trkpt lat="44.99529" lon="-0.2918">
        <ele>22.73</ele>
        <time>2016-10-08T11:26:50Z</time>
      </trkpt>
      <trkpt lat="44.99539" lon="-0.29176">
        <ele>23.21</ele>
        <time>2016-10-08T11:26:59Z</time>
      </trkpt>
      <trkpt lat="44.99557" lon="-0.29162">
        <ele>20.81</ele>
        <time>2016-10-08T11:27:20Z</time>
      </trkpt>
      <trkpt lat="44.99569" lon="-0.29137">
        <ele>19.84</ele>
        <time>2016-10-08T11:27:41Z</time>
      </trkpt>
      <trkpt lat="44.99581" lon="-0.2911">
        <ele>18.88</ele>
        <time>2016-10-08T11:28:00Z</time>
      </trkpt>
      <trkpt lat="44.99591" lon="-0.29083">
        <ele>18.88</ele>
        <time>2016-10-08T11:28:21Z</time>
      </trkpt>
      <trkpt lat="44.996" lon="-0.29066">
        <ele>18.4</ele>
        <time>2016-10-08T11:28:32Z</time>
      </trkpt>
      <trkpt lat="44.9961" lon="-0.2905">
        <ele>19.36</ele>
        <time>2016-10-08T11:28:45Z</time>
      </trkpt>
      <trkpt lat="44.99618" lon="-0.29044">
        <ele>20.81</ele>
        <time>2016-10-08T11:29:04Z</time>
      </trkpt>
      <trkpt lat="44.99618" lon="-0.29046">
        <ele>18.88</ele>
        <time>2016-10-08T11:29:25Z</time>
      </trkpt>
      <trkpt lat="44.99618" lon="-0.29046">
        <ele>18.88</ele>
        <time>2016-10-08T11:29:26Z</time>
      </trkpt>
      <trkpt lat="44.99621" lon="-0.29044">
        <ele>22.25</ele>
        <time>2016-10-08T11:29:30Z</time>
      </trkpt>
      <trkpt lat="44.99625" lon="-0.29047">
        <ele>19.36</ele>
        <time>2016-10-08T11:29:33Z</time>
      </trkpt>
      <trkpt lat="44.99628" lon="-0.2905">
        <ele>20.81</ele>
        <time>2016-10-08T11:29:35Z</time>
      </trkpt>
      <trkpt lat="44.9963" lon="-0.29053">
        <ele>19.36</ele>
        <time>2016-10-08T11:29:37Z</time>
      </trkpt>
      <trkpt lat="44.99638" lon="-0.29072">
        <ele>19.36</ele>
        <time>2016-10-08T11:29:47Z</time>
      </trkpt>
      <trkpt lat="44.99639" lon="-0.29076">
        <ele>20.32</ele>
        <time>2016-10-08T11:29:50Z</time>
      </trkpt>
      <trkpt lat="44.99652" lon="-0.29107">
        <ele>20.32</ele>
        <time>2016-10-08T11:30:12Z</time>
      </trkpt>
      <trkpt lat="44.99656" lon="-0.29117">
        <ele>21.29</ele>
        <time>2016-10-08T11:30:20Z</time>
      </trkpt>
      <trkpt lat="44.99666" lon="-0.29143">
        <ele>22.25</ele>
        <time>2016-10-08T11:30:39Z</time>
      </trkpt>
      <trkpt lat="44.99676" lon="-0.29169">
        <ele>23.69</ele>
        <time>2016-10-08T11:30:58Z</time>
      </trkpt>
      <trkpt lat="44.99694" lon="-0.29199">
        <ele>25.13</ele>
        <time>2016-10-08T11:31:19Z</time>
      </trkpt>
      <trkpt lat="44.99709" lon="-0.29221">
        <ele>27.05</ele>
        <time>2016-10-08T11:31:40Z</time>
      </trkpt>
      <trkpt lat="44.9972" lon="-0.29249">
        <ele>28.02</ele>
        <time>2016-10-08T11:32:00Z</time>
      </trkpt>
      <trkpt lat="44.99713" lon="-0.29287">
        <ele>29.46</ele>
        <time>2016-10-08T11:32:20Z</time>
      </trkpt>
      <trkpt lat="44.99711" lon="-0.29319">
        <ele>30.42</ele>
        <time>2016-10-08T11:32:39Z</time>
      </trkpt>
      <trkpt lat="44.99705" lon="-0.29351">
        <ele>31.86</ele>
        <time>2016-10-08T11:32:59Z</time>
      </trkpt>
      <trkpt lat="44.99703" lon="-0.29378">
        <ele>32.82</ele>
        <time>2016-10-08T11:33:15Z</time>
      </trkpt>
      <trkpt lat="44.99702" lon="-0.29401">
        <ele>33.78</ele>
        <time>2016-10-08T11:33:29Z</time>
      </trkpt>
      <trkpt lat="44.99698" lon="-0.29435">
        <ele>33.78</ele>
        <time>2016-10-08T11:33:48Z</time>
      </trkpt>
      <trkpt lat="44.99695" lon="-0.29459">
        <ele>32.82</ele>
        <time>2016-10-08T11:34:03Z</time>
      </trkpt>
      <trkpt lat="44.99696" lon="-0.2947">
        <ele>34.26</ele>
        <time>2016-10-08T11:34:09Z</time>
      </trkpt>
      <trkpt lat="44.99699" lon="-0.295">
        <ele>34.74</ele>
        <time>2016-10-08T11:34:26Z</time>
      </trkpt>
      <trkpt lat="44.99701" lon="-0.29529">
        <ele>34.74</ele>
        <time>2016-10-08T11:34:44Z</time>
      </trkpt>
      <trkpt lat="44.99707" lon="-0.29544">
        <ele>33.3</ele>
        <time>2016-10-08T11:34:53Z</time>
      </trkpt>
      <trkpt lat="44.99709" lon="-0.2956">
        <ele>31.86</ele>
        <time>2016-10-08T11:35:07Z</time>
      </trkpt>
      <trkpt lat="44.99709" lon="-0.2956">
        <ele>23.21</ele>
        <time>2016-10-08T11:35:08Z</time>
      </trkpt>
      <trkpt lat="44.99709" lon="-0.29559">
        <ele>45.32</ele>
        <time>2016-10-08T11:35:09Z</time>
      </trkpt>
      <trkpt lat="44.99708" lon="-0.2956">
        <ele>32.82</ele>
        <time>2016-10-08T11:35:10Z</time>
      </trkpt>
      <trkpt lat="44.99714" lon="-0.29576">
        <ele>33.3</ele>
        <time>2016-10-08T11:35:20Z</time>
      </trkpt>
      <trkpt lat="44.99717" lon="-0.29592">
        <ele>33.3</ele>
        <time>2016-10-08T11:35:29Z</time>
      </trkpt>
      <trkpt lat="44.99716" lon="-0.29596">
        <ele>34.74</ele>
        <time>2016-10-08T11:35:31Z</time>
      </trkpt>
      <trkpt lat="44.99711" lon="-0.29628">
        <ele>34.74</ele>
        <time>2016-10-08T11:35:49Z</time>
      </trkpt>
      <trkpt lat="44.99691" lon="-0.29627">
        <ele>32.82</ele>
        <time>2016-10-08T11:36:06Z</time>
      </trkpt>
      <trkpt lat="44.9967" lon="-0.29621">
        <ele>30.9</ele>
        <time>2016-10-08T11:36:25Z</time>
      </trkpt>
      <trkpt lat="44.99659" lon="-0.29621">
        <ele>29.46</ele>
        <time>2016-10-08T11:36:34Z</time>
      </trkpt>
      <trkpt lat="44.99637" lon="-0.29634">
        <ele>27.53</ele>
        <time>2016-10-08T11:36:54Z</time>
      </trkpt>
      <trkpt lat="44.99634" lon="-0.29635">
        <ele>27.53</ele>
        <time>2016-10-08T11:36:56Z</time>
      </trkpt>
      <trkpt lat="44.99613" lon="-0.29635">
        <ele>24.65</ele>
        <time>2016-10-08T11:37:14Z</time>
      </trkpt>
      <trkpt lat="44.99595" lon="-0.29634">
        <ele>22.25</ele>
        <time>2016-10-08T11:37:29Z</time>
      </trkpt>
      <trkpt lat="44.99564" lon="-0.29638">
        <ele>21.29</ele>
        <time>2016-10-08T11:37:52Z</time>
      </trkpt>
      <trkpt lat="44.99539" lon="-0.2964">
        <ele>22.25</ele>
        <time>2016-10-08T11:38:12Z</time>
      </trkpt>
      <trkpt lat="44.99508" lon="-0.29635">
        <ele>23.69</ele>
        <time>2016-10-08T11:38:33Z</time>
      </trkpt>
      <trkpt lat="44.99492" lon="-0.29639">
        <ele>23.69</ele>
        <time>2016-10-08T11:38:48Z</time>
      </trkpt>
      <trkpt lat="44.99476" lon="-0.2965">
        <ele>23.21</ele>
        <time>2016-10-08T11:39:03Z</time>
      </trkpt>
      <trkpt lat="44.99473" lon="-0.29654">
        <ele>24.17</ele>
        <time>2016-10-08T11:39:06Z</time>
      </trkpt>
      <trkpt lat="44.99467" lon="-0.29664">
        <ele>23.69</ele>
        <time>2016-10-08T11:39:15Z</time>
      </trkpt>
      <trkpt lat="44.99459" lon="-0.29683">
        <ele>25.13</ele>
        <time>2016-10-08T11:39:27Z</time>
      </trkpt>
      <trkpt lat="44.99453" lon="-0.29708">
        <ele>26.09</ele>
        <time>2016-10-08T11:39:44Z</time>
      </trkpt>
      <trkpt lat="44.9945" lon="-0.29726">
        <ele>26.09</ele>
        <time>2016-10-08T11:39:55Z</time>
      </trkpt>
      <trkpt lat="44.99446" lon="-0.2976">
        <ele>26.09</ele>
        <time>2016-10-08T11:40:15Z</time>
      </trkpt>
      <trkpt lat="44.9944" lon="-0.29787">
        <ele>27.53</ele>
        <time>2016-10-08T11:40:33Z</time>
      </trkpt>
      <trkpt lat="44.99437" lon="-0.29807">
        <ele>27.53</ele>
        <time>2016-10-08T11:40:53Z</time>
      </trkpt>
      <trkpt lat="44.99435" lon="-0.29823">
        <ele>28.98</ele>
        <time>2016-10-08T11:41:13Z</time>
      </trkpt>
      <trkpt lat="44.99417" lon="-0.29846">
        <ele>31.38</ele>
        <time>2016-10-08T11:41:35Z</time>
      </trkpt>
      <trkpt lat="44.99409" lon="-0.29857">
        <ele>32.82</ele>
        <time>2016-10-08T11:41:45Z</time>
      </trkpt>
      <trkpt lat="44.99393" lon="-0.29873">
        <ele>34.74</ele>
        <time>2016-10-08T11:42:03Z</time>
      </trkpt>
      <trkpt lat="44.99384" lon="-0.29879">
        <ele>35.23</ele>
        <time>2016-10-08T11:42:11Z</time>
      </trkpt>
      <trkpt lat="44.99362" lon="-0.29887">
        <ele>38.11</ele>
        <time>2016-10-08T11:42:30Z</time>
      </trkpt>
      <trkpt lat="44.9935" lon="-0.29892">
        <ele>39.07</ele>
        <time>2016-10-08T11:42:41Z</time>
      </trkpt>
      <trkpt lat="44.9933" lon="-0.29898">
        <ele>41.47</ele>
        <time>2016-10-08T11:43:01Z</time>
      </trkpt>
      <trkpt lat="44.99314" lon="-0.29903">
        <ele>43.4</ele>
        <time>2016-10-08T11:43:16Z</time>
      </trkpt>
      <trkpt lat="44.99302" lon="-0.29903">
        <ele>41.95</ele>
        <time>2016-10-08T11:43:28Z</time>
      </trkpt>
      <trkpt lat="44.99289" lon="-0.299">
        <ele>42.92</ele>
        <time>2016-10-08T11:43:38Z</time>
      </trkpt>
      <trkpt lat="44.99268" lon="-0.29899">
        <ele>40.99</ele>
        <time>2016-10-08T11:43:57Z</time>
      </trkpt>
      <trkpt lat="44.99244" lon="-0.29901">
        <ele>40.51</ele>
        <time>2016-10-08T11:44:17Z</time>
      </trkpt>
      <trkpt lat="44.99221" lon="-0.29906">
        <ele>39.55</ele>
        <time>2016-10-08T11:44:35Z</time>
      </trkpt>
      <trkpt lat="44.99201" lon="-0.29912">
        <ele>40.03</ele>
        <time>2016-10-08T11:44:52Z</time>
      </trkpt>
      <trkpt lat="44.99174" lon="-0.29919">
        <ele>40.03</ele>
        <time>2016-10-08T11:45:14Z</time>
      </trkpt>
      <trkpt lat="44.9915" lon="-0.29923">
        <ele>40.51</ele>
        <time>2016-10-08T11:45:32Z</time>
      </trkpt>
      <trkpt lat="44.99142" lon="-0.29925">
        <ele>39.55</ele>
        <time>2016-10-08T11:45:39Z</time>
      </trkpt>
      <trkpt lat="44.99121" lon="-0.29926">
        <ele>39.55</ele>
        <time>2016-10-08T11:45:56Z</time>
      </trkpt>
      <trkpt lat="44.99097" lon="-0.29922">
        <ele>39.07</ele>
        <time>2016-10-08T11:46:14Z</time>
      </trkpt>
      <trkpt lat="44.99089" lon="-0.2992">
        <ele>40.51</ele>
        <time>2016-10-08T11:46:19Z</time>
      </trkpt>
      <trkpt lat="44.9907" lon="-0.2991">
        <ele>41.47</ele>
        <time>2016-10-08T11:46:33Z</time>
      </trkpt>
      <trkpt lat="44.9905" lon="-0.29892">
        <ele>42.44</ele>
        <time>2016-10-08T11:46:51Z</time>
      </trkpt>
      <trkpt lat="44.99036" lon="-0.29883">
        <ele>42.44</ele>
        <time>2016-10-08T11:47:10Z</time>
      </trkpt>
      <trkpt lat="44.99034" lon="-0.29884">
        <ele>42.92</ele>
        <time>2016-10-08T11:47:33Z</time>
      </trkpt>
      <trkpt lat="44.99031" lon="-0.29881">
        <ele>41.47</ele>
        <time>2016-10-08T11:47:56Z</time>
      </trkpt>
      <trkpt lat="44.99032" lon="-0.29882">
        <ele>41.47</ele>
        <time>2016-10-08T11:47:57Z</time>
      </trkpt>
      <trkpt lat="44.99032" lon="-0.2988">
        <ele>42.44</ele>
        <time>2016-10-08T11:48:10Z</time>
      </trkpt>
      <trkpt lat="44.99033" lon="-0.29881">
        <ele>42.44</ele>
        <time>2016-10-08T11:48:37Z</time>
      </trkpt>
      <trkpt lat="44.99032" lon="-0.29876">
        <ele>42.44</ele>
        <time>2016-10-08T11:48:59Z</time>
      </trkpt>
      <trkpt lat="44.99024" lon="-0.29879">
        <ele>42.44</ele>
        <time>2016-10-08T11:49:08Z</time>
      </trkpt>
      <trkpt lat="44.99009" lon="-0.29897">
        <ele>42.44</ele>
        <time>2016-10-08T11:49:23Z</time>
      </trkpt>
      <trkpt lat="44.9899" lon="-0.29919">
        <ele>42.44</ele>
        <time>2016-10-08T11:49:43Z</time>
      </trkpt>
      <trkpt lat="44.98973" lon="-0.29936">
        <ele>42.44</ele>
        <time>2016-10-08T11:50:01Z</time>
      </trkpt>
      <trkpt lat="44.98953" lon="-0.29957">
        <ele>42.92</ele>
        <time>2016-10-08T11:50:22Z</time>
      </trkpt>
      <trkpt lat="44.98936" lon="-0.29976">
        <ele>41.95</ele>
        <time>2016-10-08T11:50:41Z</time>
      </trkpt>
      <trkpt lat="44.98914" lon="-0.29999">
        <ele>42.44</ele>
        <time>2016-10-08T11:51:02Z</time>
      </trkpt>
      <trkpt lat="44.98899" lon="-0.3">
        <ele>43.4</ele>
        <time>2016-10-08T11:51:16Z</time>
      </trkpt>
      <trkpt lat="44.98877" lon="-0.30005">
        <ele>42.92</ele>
        <time>2016-10-08T11:51:34Z</time>
      </trkpt>
      <trkpt lat="44.98855" lon="-0.30005">
        <ele>43.4</ele>
        <time>2016-10-08T11:51:51Z</time>
      </trkpt>
      <trkpt lat="44.98834" lon="-0.30003">
        <ele>45.8</ele>
        <time>2016-10-08T11:52:08Z</time>
      </trkpt>
      <trkpt lat="44.98826" lon="-0.30001">
        <ele>44.84</ele>
        <time>2016-10-08T11:52:14Z</time>
      </trkpt>
      <trkpt lat="44.98805" lon="-0.3">
        <ele>45.8</ele>
        <time>2016-10-08T11:52:30Z</time>
      </trkpt>
      <trkpt lat="44.98784" lon="-0.30001">
        <ele>45.32</ele>
        <time>2016-10-08T11:52:47Z</time>
      </trkpt>
      <trkpt lat="44.98777" lon="-0.30003">
        <ele>45.32</ele>
        <time>2016-10-08T11:52:53Z</time>
      </trkpt>
      <trkpt lat="44.9875" lon="-0.29999">
        <ele>45.8</ele>
        <time>2016-10-08T11:53:14Z</time>
      </trkpt>
      <trkpt lat="44.98731" lon="-0.30009">
        <ele>44.84</ele>
        <time>2016-10-08T11:53:30Z</time>
      </trkpt>
      <trkpt lat="44.98725" lon="-0.30016">
        <ele>45.8</ele>
        <time>2016-10-08T11:53:36Z</time>
      </trkpt>
      <trkpt lat="44.9871" lon="-0.30042">
        <ele>44.84</ele>
        <time>2016-10-08T11:53:54Z</time>
      </trkpt>
      <trkpt lat="44.987" lon="-0.30058">
        <ele>45.8</ele>
        <time>2016-10-08T11:54:07Z</time>
      </trkpt>
      <trkpt lat="44.98682" lon="-0.30082">
        <ele>45.8</ele>
        <time>2016-10-08T11:54:26Z</time>
      </trkpt>
      <trkpt lat="44.98662" lon="-0.30098">
        <ele>46.28</ele>
        <time>2016-10-08T11:54:45Z</time>
      </trkpt>
      <trkpt lat="44.98641" lon="-0.30113">
        <ele>46.76</ele>
        <time>2016-10-08T11:55:03Z</time>
      </trkpt>
      <trkpt lat="44.98623" lon="-0.30131">
        <ele>45.32</ele>
        <time>2016-10-08T11:55:21Z</time>
      </trkpt>
      <trkpt lat="44.9861" lon="-0.30159">
        <ele>45.32</ele>
        <time>2016-10-08T11:55:41Z</time>
      </trkpt>
      <trkpt lat="44.98605" lon="-0.30169">
        <ele>46.76</ele>
        <time>2016-10-08T11:55:48Z</time>
      </trkpt>
      <trkpt lat="44.986" lon="-0.30173">
        <ele>45.32</ele>
        <time>2016-10-08T11:55:52Z</time>
      </trkpt>
      <trkpt lat="44.98599" lon="-0.30175">
        <ele>46.28</ele>
        <time>2016-10-08T11:55:54Z</time>
      </trkpt>
      <trkpt lat="44.98586" lon="-0.30182">
        <ele>46.76</ele>
        <time>2016-10-08T11:56:10Z</time>
      </trkpt>
      <trkpt lat="44.98569" lon="-0.3017">
        <ele>46.28</ele>
        <time>2016-10-08T11:56:27Z</time>
      </trkpt>
      <trkpt lat="44.98551" lon="-0.30155">
        <ele>45.32</ele>
        <time>2016-10-08T11:56:44Z</time>
      </trkpt>
      <trkpt lat="44.9855" lon="-0.30154">
        <ele>45.32</ele>
        <time>2016-10-08T11:56:45Z</time>
      </trkpt>
      <trkpt lat="44.98538" lon="-0.30141">
        <ele>45.8</ele>
        <time>2016-10-08T11:56:58Z</time>
      </trkpt>
      <trkpt lat="44.98522" lon="-0.30127">
        <ele>46.28</ele>
        <time>2016-10-08T11:57:14Z</time>
      </trkpt>
      <trkpt lat="44.98504" lon="-0.30117">
        <ele>46.28</ele>
        <time>2016-10-08T11:57:28Z</time>
      </trkpt>
      <trkpt lat="44.98484" lon="-0.30109">
        <ele>46.76</ele>
        <time>2016-10-08T11:57:46Z</time>
      </trkpt>
      <trkpt lat="44.98473" lon="-0.30105">
        <ele>45.32</ele>
        <time>2016-10-08T11:57:55Z</time>
      </trkpt>
      <trkpt lat="44.98472" lon="-0.30104">
        <ele>46.76</ele>
        <time>2016-10-08T11:57:57Z</time>
      </trkpt>
      <trkpt lat="44.98448" lon="-0.30092">
        <ele>47.24</ele>
        <time>2016-10-08T11:58:18Z</time>
      </trkpt>
      <trkpt lat="44.98439" lon="-0.30086">
        <ele>47.24</ele>
        <time>2016-10-08T11:58:27Z</time>
      </trkpt>
      <trkpt lat="44.98435" lon="-0.30085">
        <ele>45.8</ele>
        <time>2016-10-08T11:58:30Z</time>
      </trkpt>
      <trkpt lat="44.98433" lon="-0.30084">
        <ele>46.76</ele>
        <time>2016-10-08T11:58:32Z</time>
      </trkpt>
      <trkpt lat="44.98412" lon="-0.30076">
        <ele>46.76</ele>
        <time>2016-10-08T11:58:50Z</time>
      </trkpt>
      <trkpt lat="44.98403" lon="-0.30072">
        <ele>45.32</ele>
        <time>2016-10-08T11:58:58Z</time>
      </trkpt>
      <trkpt lat="44.98401" lon="-0.30071">
        <ele>46.76</ele>
        <time>2016-10-08T11:59:00Z</time>
      </trkpt>
      <trkpt lat="44.98399" lon="-0.30071">
        <ele>45.32</ele>
        <time>2016-10-08T11:59:02Z</time>
      </trkpt>
      <trkpt lat="44.9839" lon="-0.30067">
        <ele>44.36</ele>
        <time>2016-10-08T11:59:10Z</time>
      </trkpt>
      <trkpt lat="44.98388" lon="-0.30067">
        <ele>46.28</ele>
        <time>2016-10-08T11:59:12Z</time>
      </trkpt>
      <trkpt lat="44.98372" lon="-0.30061">
        <ele>44.36</ele>
        <time>2016-10-08T11:59:26Z</time>
      </trkpt>
      <trkpt lat="44.98365" lon="-0.30057">
        <ele>44.36</ele>
        <time>2016-10-08T11:59:33Z</time>
      </trkpt>
      <trkpt lat="44.98362" lon="-0.30057">
        <ele>46.28</ele>
        <time>2016-10-08T11:59:35Z</time>
      </trkpt>
      <trkpt lat="44.9836" lon="-0.30057">
        <ele>44.36</ele>
        <time>2016-10-08T11:59:37Z</time>
      </trkpt>
      <trkpt lat="44.98353" lon="-0.30056">
        <ele>45.8</ele>
        <time>2016-10-08T11:59:43Z</time>
      </trkpt>
      <trkpt lat="44.98337" lon="-0.30058">
        <ele>43.88</ele>
        <time>2016-10-08T12:00:03Z</time>
      </trkpt>
      <trkpt lat="44.9834" lon="-0.30056">
        <ele>43.88</ele>
        <time>2016-10-08T12:00:26Z</time>
      </trkpt>
      <trkpt lat="44.98339" lon="-0.30056">
        <ele>43.88</ele>
        <time>2016-10-08T12:00:27Z</time>
      </trkpt>
      <trkpt lat="44.98326" lon="-0.30063">
        <ele>45.32</ele>
        <time>2016-10-08T12:00:44Z</time>
      </trkpt>
      <trkpt lat="44.98327" lon="-0.30067">
        <ele>45.8</ele>
        <time>2016-10-08T12:00:46Z</time>
      </trkpt>
      <trkpt lat="44.98328" lon="-0.30072">
        <ele>44.36</ele>
        <time>2016-10-08T12:00:49Z</time>
      </trkpt>
      <trkpt lat="44.98329" lon="-0.30083">
        <ele>44.36</ele>
        <time>2016-10-08T12:00:55Z</time>
      </trkpt>
      <trkpt lat="44.98329" lon="-0.30112">
        <ele>43.88</ele>
        <time>2016-10-08T12:01:11Z</time>
      </trkpt>
      <trkpt lat="44.98328" lon="-0.30143">
        <ele>43.4</ele>
        <time>2016-10-08T12:01:28Z</time>
      </trkpt>
      <trkpt lat="44.98326" lon="-0.30178">
        <ele>43.4</ele>
        <time>2016-10-08T12:01:48Z</time>
      </trkpt>
      <trkpt lat="44.98326" lon="-0.3018">
        <ele>43.4</ele>
        <time>2016-10-08T12:01:49Z</time>
      </trkpt>
      <trkpt lat="44.98324" lon="-0.30184">
        <ele>42.92</ele>
        <time>2016-10-08T12:01:52Z</time>
      </trkpt>
      <trkpt lat="44.98303" lon="-0.3019">
        <ele>42.92</ele>
        <time>2016-10-08T12:02:09Z</time>
      </trkpt>
      <trkpt lat="44.98285" lon="-0.30189">
        <ele>42.44</ele>
        <time>2016-10-08T12:02:24Z</time>
      </trkpt>
      <trkpt lat="44.98263" lon="-0.30188">
        <ele>41.95</ele>
        <time>2016-10-08T12:02:41Z</time>
      </trkpt>
      <trkpt lat="44.98245" lon="-0.30194">
        <ele>41.47</ele>
        <time>2016-10-08T12:02:57Z</time>
      </trkpt>
      <trkpt lat="44.98233" lon="-0.30213">
        <ele>41.47</ele>
        <time>2016-10-08T12:03:12Z</time>
      </trkpt>
      <trkpt lat="44.98229" lon="-0.30221">
        <ele>40.03</ele>
        <time>2016-10-08T12:03:18Z</time>
      </trkpt>
      <trkpt lat="44.98227" lon="-0.30227">
        <ele>41.47</ele>
        <time>2016-10-08T12:03:23Z</time>
      </trkpt>
      <trkpt lat="44.98225" lon="-0.30228">
        <ele>40.03</ele>
        <time>2016-10-08T12:03:25Z</time>
      </trkpt>
      <trkpt lat="44.98221" lon="-0.30239">
        <ele>40.03</ele>
        <time>2016-10-08T12:03:34Z</time>
      </trkpt>
      <trkpt lat="44.98214" lon="-0.30256">
        <ele>39.55</ele>
        <time>2016-10-08T12:03:46Z</time>
      </trkpt>
      <trkpt lat="44.9821" lon="-0.30267">
        <ele>38.59</ele>
        <time>2016-10-08T12:03:54Z</time>
      </trkpt>
      <trkpt lat="44.98199" lon="-0.30294">
        <ele>39.07</ele>
        <time>2016-10-08T12:04:13Z</time>
      </trkpt>
      <trkpt lat="44.98195" lon="-0.30303">
        <ele>37.63</ele>
        <time>2016-10-08T12:04:19Z</time>
      </trkpt>
      <trkpt lat="44.98183" lon="-0.30322">
        <ele>38.59</ele>
        <time>2016-10-08T12:04:39Z</time>
      </trkpt>
      <trkpt lat="44.98182" lon="-0.30323">
        <ele>38.59</ele>
        <time>2016-10-08T12:04:40Z</time>
      </trkpt>
      <trkpt lat="44.98171" lon="-0.30343">
        <ele>38.59</ele>
        <time>2016-10-08T12:04:58Z</time>
      </trkpt>
      <trkpt lat="44.9816" lon="-0.30359">
        <ele>39.07</ele>
        <time>2016-10-08T12:05:16Z</time>
      </trkpt>
      <trkpt lat="44.98147" lon="-0.30379">
        <ele>40.03</ele>
        <time>2016-10-08T12:05:34Z</time>
      </trkpt>
      <trkpt lat="44.98135" lon="-0.30392">
        <ele>40.03</ele>
        <time>2016-10-08T12:05:55Z</time>
      </trkpt>
      <trkpt lat="44.98124" lon="-0.30405">
        <ele>42.44</ele>
        <time>2016-10-08T12:06:12Z</time>
      </trkpt>
      <trkpt lat="44.98115" lon="-0.30423">
        <ele>44.36</ele>
        <time>2016-10-08T12:06:26Z</time>
      </trkpt>
      <trkpt lat="44.98106" lon="-0.30451">
        <ele>44.84</ele>
        <time>2016-10-08T12:06:46Z</time>
      </trkpt>
      <trkpt lat="44.98096" lon="-0.30475">
        <ele>46.28</ele>
        <time>2016-10-08T12:07:04Z</time>
      </trkpt>
      <trkpt lat="44.9809" lon="-0.30479">
        <ele>45.32</ele>
        <time>2016-10-08T12:07:09Z</time>
      </trkpt>
      <trkpt lat="44.98073" lon="-0.30483">
        <ele>45.8</ele>
        <time>2016-10-08T12:07:24Z</time>
      </trkpt>
      <trkpt lat="44.98053" lon="-0.3048">
        <ele>46.28</ele>
        <time>2016-10-08T12:07:41Z</time>
      </trkpt>
      <trkpt lat="44.98048" lon="-0.30481">
        <ele>48.2</ele>
        <time>2016-10-08T12:07:46Z</time>
      </trkpt>
      <trkpt lat="44.98041" lon="-0.3048">
        <ele>46.28</ele>
        <time>2016-10-08T12:07:52Z</time>
      </trkpt>
      <trkpt lat="44.98025" lon="-0.30479">
        <ele>45.8</ele>
        <time>2016-10-08T12:08:06Z</time>
      </trkpt>
      <trkpt lat="44.9801" lon="-0.30479">
        <ele>45.8</ele>
        <time>2016-10-08T12:08:18Z</time>
      </trkpt>
      <trkpt lat="44.98005" lon="-0.30479">
        <ele>47.24</ele>
        <time>2016-10-08T12:08:23Z</time>
      </trkpt>
      <trkpt lat="44.97999" lon="-0.30479">
        <ele>45.8</ele>
        <time>2016-10-08T12:08:28Z</time>
      </trkpt>
      <trkpt lat="44.97994" lon="-0.30478">
        <ele>46.28</ele>
        <time>2016-10-08T12:08:32Z</time>
      </trkpt>
      <trkpt lat="44.97976" lon="-0.30479">
        <ele>45.8</ele>
        <time>2016-10-08T12:08:49Z</time>
      </trkpt>
      <trkpt lat="44.97974" lon="-0.30479">
        <ele>48.2</ele>
        <time>2016-10-08T12:08:51Z</time>
      </trkpt>
      <trkpt lat="44.97972" lon="-0.3048">
        <ele>46.28</ele>
        <time>2016-10-08T12:08:53Z</time>
      </trkpt>
      <trkpt lat="44.97961" lon="-0.30486">
        <ele>47.72</ele>
        <time>2016-10-08T12:09:03Z</time>
      </trkpt>
      <trkpt lat="44.97959" lon="-0.30488">
        <ele>45.32</ele>
        <time>2016-10-08T12:09:05Z</time>
      </trkpt>
      <trkpt lat="44.97957" lon="-0.3049">
        <ele>46.76</ele>
        <time>2016-10-08T12:09:07Z</time>
      </trkpt>
      <trkpt lat="44.97949" lon="-0.30492">
        <ele>45.8</ele>
        <time>2016-10-08T12:09:13Z</time>
      </trkpt>
      <trkpt lat="44.97931" lon="-0.30499">
        <ele>44.84</ele>
        <time>2016-10-08T12:09:28Z</time>
      </trkpt>
      <trkpt lat="44.97929" lon="-0.305">
        <ele>46.28</ele>
        <time>2016-10-08T12:09:30Z</time>
      </trkpt>
      <trkpt lat="44.97913" lon="-0.30505">
        <ele>46.76</ele>
        <time>2016-10-08T12:09:45Z</time>
      </trkpt>
      <trkpt lat="44.97901" lon="-0.3051">
        <ele>44.36</ele>
        <time>2016-10-08T12:09:56Z</time>
      </trkpt>
      <trkpt lat="44.97897" lon="-0.30513">
        <ele>45.8</ele>
        <time>2016-10-08T12:10:00Z</time>
      </trkpt>
      <trkpt lat="44.97895" lon="-0.30514">
        <ele>44.36</ele>
        <time>2016-10-08T12:10:02Z</time>
      </trkpt>
      <trkpt lat="44.97892" lon="-0.30518">
        <ele>46.28</ele>
        <time>2016-10-08T12:10:05Z</time>
      </trkpt>
      <trkpt lat="44.9789" lon="-0.3052">
        <ele>44.36</ele>
        <time>2016-10-08T12:10:07Z</time>
      </trkpt>
      <trkpt lat="44.9788" lon="-0.30528">
        <ele>45.8</ele>
        <time>2016-10-08T12:10:17Z</time>
      </trkpt>
      <trkpt lat="44.97871" lon="-0.30535">
        <ele>44.36</ele>
        <time>2016-10-08T12:10:26Z</time>
      </trkpt>
      <trkpt lat="44.97854" lon="-0.30546">
        <ele>45.8</ele>
        <time>2016-10-08T12:10:41Z</time>
      </trkpt>
      <trkpt lat="44.97845" lon="-0.30551">
        <ele>44.84</ele>
        <time>2016-10-08T12:10:49Z</time>
      </trkpt>
      <trkpt lat="44.97835" lon="-0.30559">
        <ele>43.88</ele>
        <time>2016-10-08T12:10:59Z</time>
      </trkpt>
      <trkpt lat="44.97826" lon="-0.30569">
        <ele>45.8</ele>
        <time>2016-10-08T12:11:09Z</time>
      </trkpt>
      <trkpt lat="44.97819" lon="-0.30585">
        <ele>44.84</ele>
        <time>2016-10-08T12:11:22Z</time>
      </trkpt>
      <trkpt lat="44.97817" lon="-0.30588">
        <ele>45.32</ele>
        <time>2016-10-08T12:11:32Z</time>
      </trkpt>
      <trkpt lat="44.97816" lon="-0.30588">
        <ele>46.28</ele>
        <time>2016-10-08T12:11:51Z</time>
      </trkpt>
      <trkpt lat="44.97811" lon="-0.3059">
        <ele>46.28</ele>
        <time>2016-10-08T12:12:07Z</time>
      </trkpt>
      <trkpt lat="44.97808" lon="-0.3059">
        <ele>46.76</ele>
        <time>2016-10-08T12:12:13Z</time>
      </trkpt>
      <trkpt lat="44.97799" lon="-0.30588">
        <ele>46.76</ele>
        <time>2016-10-08T12:12:24Z</time>
      </trkpt>
      <trkpt lat="44.97788" lon="-0.30586">
        <ele>45.8</ele>
        <time>2016-10-08T12:12:33Z</time>
      </trkpt>
      <trkpt lat="44.9777" lon="-0.30585">
        <ele>47.24</ele>
        <time>2016-10-08T12:12:50Z</time>
      </trkpt>
      <trkpt lat="44.97761" lon="-0.30585">
        <ele>45.8</ele>
        <time>2016-10-08T12:12:56Z</time>
      </trkpt>
      <trkpt lat="44.97754" lon="-0.30584">
        <ele>46.76</ele>
        <time>2016-10-08T12:13:02Z</time>
      </trkpt>
      <trkpt lat="44.97739" lon="-0.30585">
        <ele>46.76</ele>
        <time>2016-10-08T12:13:16Z</time>
      </trkpt>
      <trkpt lat="44.97735" lon="-0.30586">
        <ele>45.32</ele>
        <time>2016-10-08T12:13:19Z</time>
      </trkpt>
      <trkpt lat="44.97718" lon="-0.30585">
        <ele>43.88</ele>
        <time>2016-10-08T12:13:35Z</time>
      </trkpt>
      <trkpt lat="44.977" lon="-0.30586">
        <ele>43.4</ele>
        <time>2016-10-08T12:13:51Z</time>
      </trkpt>
      <trkpt lat="44.97678" lon="-0.30589">
        <ele>41.47</ele>
        <time>2016-10-08T12:14:10Z</time>
      </trkpt>
      <trkpt lat="44.97663" lon="-0.3059">
        <ele>40.99</ele>
        <time>2016-10-08T12:14:23Z</time>
      </trkpt>
      <trkpt lat="44.97637" lon="-0.30594">
        <ele>39.55</ele>
        <time>2016-10-08T12:14:43Z</time>
      </trkpt>
      <trkpt lat="44.97614" lon="-0.30602">
        <ele>37.63</ele>
        <time>2016-10-08T12:15:03Z</time>
      </trkpt>
      <trkpt lat="44.97602" lon="-0.30607">
        <ele>37.15</ele>
        <time>2016-10-08T12:15:13Z</time>
      </trkpt>
      <trkpt lat="44.97581" lon="-0.30605">
        <ele>36.67</ele>
        <time>2016-10-08T12:15:31Z</time>
      </trkpt>
      <trkpt lat="44.97564" lon="-0.30608">
        <ele>35.23</ele>
        <time>2016-10-08T12:15:46Z</time>
      </trkpt>
      <trkpt lat="44.97563" lon="-0.30615">
        <ele>34.74</ele>
        <time>2016-10-08T12:15:50Z</time>
      </trkpt>
      <trkpt lat="44.97569" lon="-0.3065">
        <ele>36.19</ele>
        <time>2016-10-08T12:16:08Z</time>
      </trkpt>
      <trkpt lat="44.97569" lon="-0.30652">
        <ele>36.19</ele>
        <time>2016-10-08T12:16:09Z</time>
      </trkpt>
      <trkpt lat="44.97573" lon="-0.30682">
        <ele>36.67</ele>
        <time>2016-10-08T12:16:25Z</time>
      </trkpt>
      <trkpt lat="44.97574" lon="-0.3069">
        <ele>35.23</ele>
        <time>2016-10-08T12:16:29Z</time>
      </trkpt>
      <trkpt lat="44.97574" lon="-0.30693">
        <ele>37.15</ele>
        <time>2016-10-08T12:16:31Z</time>
      </trkpt>
      <trkpt lat="44.97577" lon="-0.30702">
        <ele>36.67</ele>
        <time>2016-10-08T12:16:36Z</time>
      </trkpt>
      <trkpt lat="44.97577" lon="-0.30708">
        <ele>35.23</ele>
        <time>2016-10-08T12:16:39Z</time>
      </trkpt>
      <trkpt lat="44.97578" lon="-0.30712">
        <ele>36.67</ele>
        <time>2016-10-08T12:16:41Z</time>
      </trkpt>
      <trkpt lat="44.9758" lon="-0.30749">
        <ele>35.23</ele>
        <time>2016-10-08T12:17:01Z</time>
      </trkpt>
      <trkpt lat="44.97577" lon="-0.30781">
        <ele>34.74</ele>
        <time>2016-10-08T12:17:19Z</time>
      </trkpt>
      <trkpt lat="44.97559" lon="-0.30808">
        <ele>34.74</ele>
        <time>2016-10-08T12:17:39Z</time>
      </trkpt>
      <trkpt lat="44.97554" lon="-0.30816">
        <ele>35.71</ele>
        <time>2016-10-08T12:17:45Z</time>
      </trkpt>
      <trkpt lat="44.97538" lon="-0.30832">
        <ele>37.15</ele>
        <time>2016-10-08T12:17:59Z</time>
      </trkpt>
      <trkpt lat="44.97521" lon="-0.30847">
        <ele>38.11</ele>
        <time>2016-10-08T12:18:13Z</time>
      </trkpt>
      <trkpt lat="44.97507" lon="-0.30861">
        <ele>40.51</ele>
        <time>2016-10-08T12:18:26Z</time>
      </trkpt>
      <trkpt lat="44.97501" lon="-0.30861">
        <ele>40.51</ele>
        <time>2016-10-08T12:18:30Z</time>
      </trkpt>
      <trkpt lat="44.97497" lon="-0.30858">
        <ele>39.07</ele>
        <time>2016-10-08T12:18:33Z</time>
      </trkpt>
      <trkpt lat="44.97494" lon="-0.30856">
        <ele>40.99</ele>
        <time>2016-10-08T12:18:35Z</time>
      </trkpt>
      <trkpt lat="44.97484" lon="-0.30833">
        <ele>41.47</ele>
        <time>2016-10-08T12:18:48Z</time>
      </trkpt>
      <trkpt lat="44.97481" lon="-0.30828">
        <ele>40.03</ele>
        <time>2016-10-08T12:18:51Z</time>
      </trkpt>
      <trkpt lat="44.97471" lon="-0.3081">
        <ele>40.99</ele>
        <time>2016-10-08T12:19:04Z</time>
      </trkpt>
      <trkpt lat="44.97454" lon="-0.30805">
        <ele>40.99</ele>
        <time>2016-10-08T12:19:24Z</time>
      </trkpt>
      <trkpt lat="44.97439" lon="-0.30822">
        <ele>41.47</ele>
        <time>2016-10-08T12:19:38Z</time>
      </trkpt>
      <trkpt lat="44.97431" lon="-0.3083">
        <ele>40.03</ele>
        <time>2016-10-08T12:19:46Z</time>
      </trkpt>
      <trkpt lat="44.9741" lon="-0.30853">
        <ele>38.59</ele>
        <time>2016-10-08T12:20:06Z</time>
      </trkpt>
      <trkpt lat="44.97386" lon="-0.30882">
        <ele>37.15</ele>
        <time>2016-10-08T12:20:29Z</time>
      </trkpt>
      <trkpt lat="44.97369" lon="-0.309">
        <ele>36.67</ele>
        <time>2016-10-08T12:20:47Z</time>
      </trkpt>
      <trkpt lat="44.97346" lon="-0.30913">
        <ele>35.71</ele>
        <time>2016-10-08T12:21:08Z</time>
      </trkpt>
      <trkpt lat="44.9734" lon="-0.30916">
        <ele>37.15</ele>
        <time>2016-10-08T12:21:12Z</time>
      </trkpt>
      <trkpt lat="44.97336" lon="-0.30917">
        <ele>35.23</ele>
        <time>2016-10-08T12:21:15Z</time>
      </trkpt>
      <trkpt lat="44.97333" lon="-0.30918">
        <ele>36.67</ele>
        <time>2016-10-08T12:21:17Z</time>
      </trkpt>
      <trkpt lat="44.97331" lon="-0.30919">
        <ele>35.23</ele>
        <time>2016-10-08T12:21:19Z</time>
      </trkpt>
      <trkpt lat="44.97329" lon="-0.30919">
        <ele>36.67</ele>
        <time>2016-10-08T12:21:21Z</time>
      </trkpt>
      <trkpt lat="44.97297" lon="-0.30922">
        <ele>36.67</ele>
        <time>2016-10-08T12:21:47Z</time>
      </trkpt>
      <trkpt lat="44.97274" lon="-0.30906">
        <ele>36.67</ele>
        <time>2016-10-08T12:22:07Z</time>
      </trkpt>
      <trkpt lat="44.97273" lon="-0.30905">
        <ele>37.15</ele>
        <time>2016-10-08T12:22:08Z</time>
      </trkpt>
      <trkpt lat="44.97257" lon="-0.30892">
        <ele>36.19</ele>
        <time>2016-10-08T12:22:23Z</time>
      </trkpt>
      <trkpt lat="44.97255" lon="-0.30891">
        <ele>36.19</ele>
        <time>2016-10-08T12:22:25Z</time>
      </trkpt>
      <trkpt lat="44.9723" lon="-0.30876">
        <ele>38.11</ele>
        <time>2016-10-08T12:22:46Z</time>
      </trkpt>
      <trkpt lat="44.97216" lon="-0.30867">
        <ele>39.07</ele>
        <time>2016-10-08T12:22:57Z</time>
      </trkpt>
      <trkpt lat="44.97213" lon="-0.30865">
        <ele>37.63</ele>
        <time>2016-10-08T12:23:00Z</time>
      </trkpt>
      <trkpt lat="44.97206" lon="-0.3086">
        <ele>38.59</ele>
        <time>2016-10-08T12:23:11Z</time>
      </trkpt>
      <trkpt lat="44.97181" lon="-0.30841">
        <ele>39.55</ele>
        <time>2016-10-08T12:23:34Z</time>
      </trkpt>
      <trkpt lat="44.97162" lon="-0.30825">
        <ele>39.55</ele>
        <time>2016-10-08T12:23:58Z</time>
      </trkpt>
      <trkpt lat="44.97159" lon="-0.30824">
        <ele>40.99</ele>
        <time>2016-10-08T12:24:01Z</time>
      </trkpt>
      <trkpt lat="44.97146" lon="-0.30807">
        <ele>40.99</ele>
        <time>2016-10-08T12:24:18Z</time>
      </trkpt>
      <trkpt lat="44.97131" lon="-0.30792">
        <ele>42.92</ele>
        <time>2016-10-08T12:24:35Z</time>
      </trkpt>
      <trkpt lat="44.97112" lon="-0.30783">
        <ele>41.95</ele>
        <time>2016-10-08T12:24:54Z</time>
      </trkpt>
      <trkpt lat="44.97097" lon="-0.30787">
        <ele>44.36</ele>
        <time>2016-10-08T12:25:12Z</time>
      </trkpt>
      <trkpt lat="44.97096" lon="-0.30785">
        <ele>44.36</ele>
        <time>2016-10-08T12:25:41Z</time>
      </trkpt>
      <trkpt lat="44.97089" lon="-0.3079">
        <ele>45.32</ele>
        <time>2016-10-08T12:26:11Z</time>
      </trkpt>
      <trkpt lat="44.97084" lon="-0.30792">
        <ele>45.32</ele>
        <time>2016-10-08T12:26:18Z</time>
      </trkpt>
      <trkpt lat="44.97063" lon="-0.30799">
        <ele>45.8</ele>
        <time>2016-10-08T12:26:39Z</time>
      </trkpt>
      <trkpt lat="44.97052" lon="-0.308">
        <ele>46.28</ele>
        <time>2016-10-08T12:26:59Z</time>
      </trkpt>
      <trkpt lat="44.97042" lon="-0.30804">
        <ele>46.76</ele>
        <time>2016-10-08T12:27:19Z</time>
      </trkpt>
      <trkpt lat="44.97041" lon="-0.30801">
        <ele>46.28</ele>
        <time>2016-10-08T12:27:36Z</time>
      </trkpt>
      <trkpt lat="44.97039" lon="-0.30801">
        <ele>47.24</ele>
        <time>2016-10-08T12:27:56Z</time>
      </trkpt>
      <trkpt lat="44.97038" lon="-0.30804">
        <ele>46.76</ele>
        <time>2016-10-08T12:28:17Z</time>
      </trkpt>
      <trkpt lat="44.97024" lon="-0.30805">
        <ele>47.72</ele>
        <time>2016-10-08T12:28:39Z</time>
      </trkpt>
      <trkpt lat="44.97004" lon="-0.30816">
        <ele>49.65</ele>
        <time>2016-10-08T12:29:01Z</time>
      </trkpt>
      <trkpt lat="44.96995" lon="-0.30824">
        <ele>51.09</ele>
        <time>2016-10-08T12:29:11Z</time>
      </trkpt>
      <trkpt lat="44.96994" lon="-0.30825">
        <ele>49.16</ele>
        <time>2016-10-08T12:29:13Z</time>
      </trkpt>
      <trkpt lat="44.96982" lon="-0.30831">
        <ele>50.61</ele>
        <time>2016-10-08T12:29:25Z</time>
      </trkpt>
      <trkpt lat="44.96972" lon="-0.30832">
        <ele>51.09</ele>
        <time>2016-10-08T12:29:34Z</time>
      </trkpt>
      <trkpt lat="44.96968" lon="-0.30832">
        <ele>50.13</ele>
        <time>2016-10-08T12:29:37Z</time>
      </trkpt>
      <trkpt lat="44.96963" lon="-0.30829">
        <ele>51.09</ele>
        <time>2016-10-08T12:29:42Z</time>
      </trkpt>
      <trkpt lat="44.96945" lon="-0.30829">
        <ele>51.57</ele>
        <time>2016-10-08T12:30:00Z</time>
      </trkpt>
      <trkpt lat="44.96931" lon="-0.30828">
        <ele>51.09</ele>
        <time>2016-10-08T12:30:12Z</time>
      </trkpt>
      <trkpt lat="44.96911" lon="-0.30824">
        <ele>51.09</ele>
        <time>2016-10-08T12:30:30Z</time>
      </trkpt>
      <trkpt lat="44.96909" lon="-0.30823">
        <ele>53.01</ele>
        <time>2016-10-08T12:30:33Z</time>
      </trkpt>
      <trkpt lat="44.96902" lon="-0.3082">
        <ele>51.57</ele>
        <time>2016-10-08T12:30:39Z</time>
      </trkpt>
      <trkpt lat="44.96881" lon="-0.30814">
        <ele>51.57</ele>
        <time>2016-10-08T12:30:56Z</time>
      </trkpt>
      <trkpt lat="44.96859" lon="-0.30809">
        <ele>53.01</ele>
        <time>2016-10-08T12:31:15Z</time>
      </trkpt>
      <trkpt lat="44.96837" lon="-0.30802">
        <ele>53.49</ele>
        <time>2016-10-08T12:31:34Z</time>
      </trkpt>
      <trkpt lat="44.96814" lon="-0.30797">
        <ele>53.49</ele>
        <time>2016-10-08T12:31:54Z</time>
      </trkpt>
      <trkpt lat="44.96793" lon="-0.30794">
        <ele>53.49</ele>
        <time>2016-10-08T12:32:11Z</time>
      </trkpt>
      <trkpt lat="44.96771" lon="-0.30784">
        <ele>53.97</ele>
        <time>2016-10-08T12:32:29Z</time>
      </trkpt>
      <trkpt lat="44.9676" lon="-0.3077">
        <ele>53.01</ele>
        <time>2016-10-08T12:32:43Z</time>
      </trkpt>
      <trkpt lat="44.96736" lon="-0.30748">
        <ele>53.97</ele>
        <time>2016-10-08T12:33:04Z</time>
      </trkpt>
      <trkpt lat="44.96737" lon="-0.30735">
        <ele>53.97</ele>
        <time>2016-10-08T12:33:11Z</time>
      </trkpt>
      <trkpt lat="44.96743" lon="-0.30705">
        <ele>53.97</ele>
        <time>2016-10-08T12:33:32Z</time>
      </trkpt>
      <trkpt lat="44.96735" lon="-0.30696">
        <ele>53.97</ele>
        <time>2016-10-08T12:33:40Z</time>
      </trkpt>
      <trkpt lat="44.96736" lon="-0.30689">
        <ele>53.97</ele>
        <time>2016-10-08T12:33:56Z</time>
      </trkpt>
      <trkpt lat="44.96752" lon="-0.30684">
        <ele>52.53</ele>
        <time>2016-10-08T12:34:12Z</time>
      </trkpt>
      <trkpt lat="44.96756" lon="-0.30671">
        <ele>54.45</ele>
        <time>2016-10-08T12:34:28Z</time>
      </trkpt>
      <trkpt lat="44.96757" lon="-0.30668">
        <ele>53.01</ele>
        <time>2016-10-08T12:34:39Z</time>
      </trkpt>
      <trkpt lat="44.96759" lon="-0.30667">
        <ele>54.45</ele>
        <time>2016-10-08T12:34:55Z</time>
      </trkpt>
      <trkpt lat="44.96759" lon="-0.30667">
        <ele>53.01</ele>
        <time>2016-10-08T12:34:57Z</time>
      </trkpt>
      <trkpt lat="44.96759" lon="-0.30666">
        <ele>54.93</ele>
        <time>2016-10-08T12:35:26Z</time>
      </trkpt>
      <trkpt lat="44.9676" lon="-0.30668">
        <ele>54.93</ele>
        <time>2016-10-08T12:35:40Z</time>
      </trkpt>
      <trkpt lat="44.96761" lon="-0.30668">
        <ele>53.49</ele>
        <time>2016-10-08T12:35:43Z</time>
      </trkpt>
      <trkpt lat="44.96761" lon="-0.30669">
        <ele>54.45</ele>
        <time>2016-10-08T12:35:46Z</time>
      </trkpt>
      <trkpt lat="44.96761" lon="-0.30669">
        <ele>54.45</ele>
        <time>2016-10-08T12:35:51Z</time>
      </trkpt>
      <trkpt lat="44.96763" lon="-0.30668">
        <ele>54.45</ele>
        <time>2016-10-08T12:36:14Z</time>
      </trkpt>
      <trkpt lat="44.96765" lon="-0.30668">
        <ele>53.49</ele>
        <time>2016-10-08T12:36:39Z</time>
      </trkpt>
      <trkpt lat="44.96765" lon="-0.30667">
        <ele>54.93</ele>
        <time>2016-10-08T12:36:57Z</time>
      </trkpt>
      <trkpt lat="44.9676" lon="-0.30668">
        <ele>53.49</ele>
        <time>2016-10-08T12:37:01Z</time>
      </trkpt>
      <trkpt lat="44.96753" lon="-0.30668">
        <ele>53.97</ele>
        <time>2016-10-08T12:37:20Z</time>
      </trkpt>
      <trkpt lat="44.96749" lon="-0.3067">
        <ele>53.49</ele>
        <time>2016-10-08T12:37:55Z</time>
      </trkpt>
      <trkpt lat="44.96755" lon="-0.30658">
        <ele>53.49</ele>
        <time>2016-10-08T12:38:28Z</time>
      </trkpt>
      <trkpt lat="44.96748" lon="-0.30667">
        <ele>54.45</ele>
        <time>2016-10-08T12:38:45Z</time>
      </trkpt>
      <trkpt lat="44.96748" lon="-0.30668">
        <ele>54.45</ele>
        <time>2016-10-08T12:38:49Z</time>
      </trkpt>
    </trkseg>
  </trk>
</gpx>